<?xml version="1.0" encoding="UTF-8" standalone="no" ?>
<gpx xmlns="http://www.topografix.com/GPX/1/1" xmlns:xsi="http://www.w3.org/2001/XMLSchema-instance" xsi:schemaLocation="http://www.topografix.com/GPX/1/1 http://www.topografix.com/GPX/1/1/gpx.xsd" version="1.1" creator="VisuGPX - https://www.visugpx.com">
  <metadata>
    <name>boucle 30km au depart de Seillons</name>
    <desc><![CDATA[parcours sur des pistes larges uniquement, pas de singles, pas de difficultés. Certaines pistes sont peu emptruntees et la vegetation tend a reprendre le dessus]]></desc>
  </metadata>
  <trk>
    <name><![CDATA[20190420231412-1S1Lz]]></name>
    <trkseg>
      <trkpt lat="43.50544" lon="5.88513">
        <ele>334.67</ele>
        <time>2019-04-20T06:20:01Z</time>
      </trkpt>
      <trkpt lat="43.50544" lon="5.88513">
        <ele>334.67</ele>
        <time>2019-04-20T06:20:01Z</time>
      </trkpt>
      <trkpt lat="43.5056" lon="5.88495">
        <ele>349.03</ele>
        <time>2019-04-20T06:20:08Z</time>
      </trkpt>
      <trkpt lat="43.50574" lon="5.8848">
        <ele>351.58</ele>
        <time>2019-04-20T06:20:15Z</time>
      </trkpt>
      <trkpt lat="43.50589" lon="5.88463">
        <ele>351.23</ele>
        <time>2019-04-20T06:20:24Z</time>
      </trkpt>
      <trkpt lat="43.50607" lon="5.88459">
        <ele>336.46</ele>
        <time>2019-04-20T06:20:31Z</time>
      </trkpt>
      <trkpt lat="43.50625" lon="5.88449">
        <ele>325.67</ele>
        <time>2019-04-20T06:20:49Z</time>
      </trkpt>
      <trkpt lat="43.50644" lon="5.88437">
        <ele>327.03</ele>
        <time>2019-04-20T06:20:57Z</time>
      </trkpt>
      <trkpt lat="43.50664" lon="5.88425">
        <ele>337.73</ele>
        <time>2019-04-20T06:21:01Z</time>
      </trkpt>
      <trkpt lat="43.50679" lon="5.8841">
        <ele>347.33</ele>
        <time>2019-04-20T06:21:06Z</time>
      </trkpt>
      <trkpt lat="43.50696" lon="5.88392">
        <ele>355.32</ele>
        <time>2019-04-20T06:21:12Z</time>
      </trkpt>
      <trkpt lat="43.50711" lon="5.88378">
        <ele>362.6</ele>
        <time>2019-04-20T06:21:18Z</time>
      </trkpt>
      <trkpt lat="43.5072" lon="5.88358">
        <ele>328.5</ele>
        <time>2019-04-20T06:21:57Z</time>
      </trkpt>
      <trkpt lat="43.50731" lon="5.88335">
        <ele>327.6</ele>
        <time>2019-04-20T06:22:10Z</time>
      </trkpt>
      <trkpt lat="43.50742" lon="5.88316">
        <ele>332.6</ele>
        <time>2019-04-20T06:22:27Z</time>
      </trkpt>
      <trkpt lat="43.5076" lon="5.88302">
        <ele>357.91</ele>
        <time>2019-04-20T06:22:33Z</time>
      </trkpt>
      <trkpt lat="43.50778" lon="5.88304">
        <ele>333.8</ele>
        <time>2019-04-20T06:23:24Z</time>
      </trkpt>
      <trkpt lat="43.50799" lon="5.88297">
        <ele>358.24</ele>
        <time>2019-04-20T06:23:49Z</time>
      </trkpt>
      <trkpt lat="43.50812" lon="5.88303">
        <ele>335</ele>
        <time>2019-04-20T06:24:39Z</time>
      </trkpt>
      <trkpt lat="43.50819" lon="5.88321">
        <ele>333.35</ele>
        <time>2019-04-20T06:24:49Z</time>
      </trkpt>
      <trkpt lat="43.5082" lon="5.8835">
        <ele>324.5</ele>
        <time>2019-04-20T06:24:56Z</time>
      </trkpt>
      <trkpt lat="43.50822" lon="5.88377">
        <ele>329</ele>
        <time>2019-04-20T06:25:06Z</time>
      </trkpt>
      <trkpt lat="43.50819" lon="5.8839">
        <ele>329</ele>
        <time>2019-04-20T06:25:14Z</time>
      </trkpt>
      <trkpt lat="43.50825" lon="5.88401">
        <ele>328.9</ele>
        <time>2019-04-20T06:25:21Z</time>
      </trkpt>
      <trkpt lat="43.50843" lon="5.88408">
        <ele>331</ele>
        <time>2019-04-20T06:25:31Z</time>
      </trkpt>
      <trkpt lat="43.5086" lon="5.88421">
        <ele>334.7</ele>
        <time>2019-04-20T06:26:03Z</time>
      </trkpt>
      <trkpt lat="43.50876" lon="5.88433">
        <ele>336.3</ele>
        <time>2019-04-20T06:26:14Z</time>
      </trkpt>
      <trkpt lat="43.50891" lon="5.88443">
        <ele>336.9</ele>
        <time>2019-04-20T06:26:28Z</time>
      </trkpt>
      <trkpt lat="43.50906" lon="5.88454">
        <ele>326.02</ele>
        <time>2019-04-20T06:26:44Z</time>
      </trkpt>
      <trkpt lat="43.50916" lon="5.88476">
        <ele>339.9</ele>
        <time>2019-04-20T06:26:53Z</time>
      </trkpt>
      <trkpt lat="43.50928" lon="5.88493">
        <ele>330.43</ele>
        <time>2019-04-20T06:27:10Z</time>
      </trkpt>
      <trkpt lat="43.50951" lon="5.8849">
        <ele>340.9</ele>
        <time>2019-04-20T06:27:20Z</time>
      </trkpt>
      <trkpt lat="43.50969" lon="5.88494">
        <ele>340.8</ele>
        <time>2019-04-20T06:27:29Z</time>
      </trkpt>
      <trkpt lat="43.50987" lon="5.88495">
        <ele>340.9</ele>
        <time>2019-04-20T06:27:41Z</time>
      </trkpt>
      <trkpt lat="43.51007" lon="5.88491">
        <ele>342.8</ele>
        <time>2019-04-20T06:27:51Z</time>
      </trkpt>
      <trkpt lat="43.51027" lon="5.885">
        <ele>344.6</ele>
        <time>2019-04-20T06:28:05Z</time>
      </trkpt>
      <trkpt lat="43.51041" lon="5.88509">
        <ele>333.65</ele>
        <time>2019-04-20T06:28:18Z</time>
      </trkpt>
      <trkpt lat="43.5106" lon="5.88518">
        <ele>336.35</ele>
        <time>2019-04-20T06:28:30Z</time>
      </trkpt>
      <trkpt lat="43.51075" lon="5.88531">
        <ele>338.49</ele>
        <time>2019-04-20T06:28:41Z</time>
      </trkpt>
      <trkpt lat="43.5109" lon="5.88546">
        <ele>339.19</ele>
        <time>2019-04-20T06:28:52Z</time>
      </trkpt>
      <trkpt lat="43.51097" lon="5.88569">
        <ele>333.53</ele>
        <time>2019-04-20T06:29:04Z</time>
      </trkpt>
      <trkpt lat="43.511" lon="5.88596">
        <ele>329.84</ele>
        <time>2019-04-20T06:29:19Z</time>
      </trkpt>
      <trkpt lat="43.51099" lon="5.88622">
        <ele>329.33</ele>
        <time>2019-04-20T06:29:32Z</time>
      </trkpt>
      <trkpt lat="43.51103" lon="5.8865">
        <ele>358.4</ele>
        <time>2019-04-20T06:29:47Z</time>
      </trkpt>
      <trkpt lat="43.51111" lon="5.88674">
        <ele>361</ele>
        <time>2019-04-20T06:30:00Z</time>
      </trkpt>
      <trkpt lat="43.51132" lon="5.88682">
        <ele>333.12</ele>
        <time>2019-04-20T06:30:13Z</time>
      </trkpt>
      <trkpt lat="43.5115" lon="5.88686">
        <ele>335.24</ele>
        <time>2019-04-20T06:30:27Z</time>
      </trkpt>
      <trkpt lat="43.5116" lon="5.88708">
        <ele>336.42</ele>
        <time>2019-04-20T06:30:40Z</time>
      </trkpt>
      <trkpt lat="43.51177" lon="5.88717">
        <ele>338.06</ele>
        <time>2019-04-20T06:30:51Z</time>
      </trkpt>
      <trkpt lat="43.51198" lon="5.88715">
        <ele>338.91</ele>
        <time>2019-04-20T06:31:03Z</time>
      </trkpt>
      <trkpt lat="43.51218" lon="5.88718">
        <ele>360.2</ele>
        <time>2019-04-20T06:31:17Z</time>
      </trkpt>
      <trkpt lat="43.51235" lon="5.88712">
        <ele>338.51</ele>
        <time>2019-04-20T06:31:28Z</time>
      </trkpt>
      <trkpt lat="43.51253" lon="5.88716">
        <ele>338.85</ele>
        <time>2019-04-20T06:31:39Z</time>
      </trkpt>
      <trkpt lat="43.51267" lon="5.88733">
        <ele>338.77</ele>
        <time>2019-04-20T06:31:48Z</time>
      </trkpt>
      <trkpt lat="43.51275" lon="5.88755">
        <ele>340.91</ele>
        <time>2019-04-20T06:32:01Z</time>
      </trkpt>
      <trkpt lat="43.51283" lon="5.88778">
        <ele>340.97</ele>
        <time>2019-04-20T06:32:12Z</time>
      </trkpt>
      <trkpt lat="43.51295" lon="5.88798">
        <ele>340.81</ele>
        <time>2019-04-20T06:32:19Z</time>
      </trkpt>
      <trkpt lat="43.51312" lon="5.88807">
        <ele>341.84</ele>
        <time>2019-04-20T06:32:28Z</time>
      </trkpt>
      <trkpt lat="43.5132" lon="5.88832">
        <ele>342.83</ele>
        <time>2019-04-20T06:32:36Z</time>
      </trkpt>
      <trkpt lat="43.51323" lon="5.88856">
        <ele>342.57</ele>
        <time>2019-04-20T06:32:42Z</time>
      </trkpt>
      <trkpt lat="43.51326" lon="5.88884">
        <ele>343.29</ele>
        <time>2019-04-20T06:34:20Z</time>
      </trkpt>
      <trkpt lat="43.51323" lon="5.88909">
        <ele>343.64</ele>
        <time>2019-04-20T06:34:30Z</time>
      </trkpt>
      <trkpt lat="43.51319" lon="5.88935">
        <ele>347.11</ele>
        <time>2019-04-20T06:34:39Z</time>
      </trkpt>
      <trkpt lat="43.51313" lon="5.88959">
        <ele>349.84</ele>
        <time>2019-04-20T06:34:46Z</time>
      </trkpt>
      <trkpt lat="43.51307" lon="5.88984">
        <ele>352.94</ele>
        <time>2019-04-20T06:34:54Z</time>
      </trkpt>
      <trkpt lat="43.51294" lon="5.89003">
        <ele>355.79</ele>
        <time>2019-04-20T06:35:03Z</time>
      </trkpt>
      <trkpt lat="43.51288" lon="5.89027">
        <ele>359.29</ele>
        <time>2019-04-20T06:35:11Z</time>
      </trkpt>
      <trkpt lat="43.51276" lon="5.89046">
        <ele>363.19</ele>
        <time>2019-04-20T06:35:20Z</time>
      </trkpt>
      <trkpt lat="43.5126" lon="5.89058">
        <ele>367.39</ele>
        <time>2019-04-20T06:35:33Z</time>
      </trkpt>
      <trkpt lat="43.51245" lon="5.89072">
        <ele>370.79</ele>
        <time>2019-04-20T06:35:41Z</time>
      </trkpt>
      <trkpt lat="43.51231" lon="5.89089">
        <ele>374.3</ele>
        <time>2019-04-20T06:35:46Z</time>
      </trkpt>
      <trkpt lat="43.51215" lon="5.89104">
        <ele>378.09</ele>
        <time>2019-04-20T06:35:55Z</time>
      </trkpt>
      <trkpt lat="43.51203" lon="5.89124">
        <ele>380.74</ele>
        <time>2019-04-20T06:36:06Z</time>
      </trkpt>
      <trkpt lat="43.51185" lon="5.89136">
        <ele>382.52</ele>
        <time>2019-04-20T06:36:15Z</time>
      </trkpt>
      <trkpt lat="43.51169" lon="5.89145">
        <ele>384.03</ele>
        <time>2019-04-20T06:36:25Z</time>
      </trkpt>
      <trkpt lat="43.51157" lon="5.89164">
        <ele>385.52</ele>
        <time>2019-04-20T06:36:32Z</time>
      </trkpt>
      <trkpt lat="43.5114" lon="5.89179">
        <ele>387.87</ele>
        <time>2019-04-20T06:36:38Z</time>
      </trkpt>
      <trkpt lat="43.51122" lon="5.8919">
        <ele>389.16</ele>
        <time>2019-04-20T06:36:44Z</time>
      </trkpt>
      <trkpt lat="43.51122" lon="5.89216">
        <ele>388.1</ele>
        <time>2019-04-20T06:36:55Z</time>
      </trkpt>
      <trkpt lat="43.5111" lon="5.89238">
        <ele>388.83</ele>
        <time>2019-04-20T06:37:00Z</time>
      </trkpt>
      <trkpt lat="43.51093" lon="5.89252">
        <ele>389.37</ele>
        <time>2019-04-20T06:37:05Z</time>
      </trkpt>
      <trkpt lat="43.51093" lon="5.89278">
        <ele>381.99</ele>
        <time>2019-04-20T06:37:10Z</time>
      </trkpt>
      <trkpt lat="43.51111" lon="5.89286">
        <ele>382.15</ele>
        <time>2019-04-20T06:37:15Z</time>
      </trkpt>
      <trkpt lat="43.51129" lon="5.89293">
        <ele>382.19</ele>
        <time>2019-04-20T06:37:19Z</time>
      </trkpt>
      <trkpt lat="43.51147" lon="5.89296">
        <ele>381.41</ele>
        <time>2019-04-20T06:37:23Z</time>
      </trkpt>
      <trkpt lat="43.51166" lon="5.89302">
        <ele>380.87</ele>
        <time>2019-04-20T06:37:27Z</time>
      </trkpt>
      <trkpt lat="43.51183" lon="5.89313">
        <ele>380.45</ele>
        <time>2019-04-20T06:37:30Z</time>
      </trkpt>
      <trkpt lat="43.51203" lon="5.89315">
        <ele>382.09</ele>
        <time>2019-04-20T06:37:34Z</time>
      </trkpt>
      <trkpt lat="43.51219" lon="5.89333">
        <ele>383.46</ele>
        <time>2019-04-20T06:37:39Z</time>
      </trkpt>
      <trkpt lat="43.51235" lon="5.89349">
        <ele>383.51</ele>
        <time>2019-04-20T06:37:44Z</time>
      </trkpt>
      <trkpt lat="43.5125" lon="5.89364">
        <ele>384.93</ele>
        <time>2019-04-20T06:37:53Z</time>
      </trkpt>
      <trkpt lat="43.51263" lon="5.89384">
        <ele>384.92</ele>
        <time>2019-04-20T06:38:02Z</time>
      </trkpt>
      <trkpt lat="43.51274" lon="5.89405">
        <ele>384.35</ele>
        <time>2019-04-20T06:38:09Z</time>
      </trkpt>
      <trkpt lat="43.5129" lon="5.89419">
        <ele>385.05</ele>
        <time>2019-04-20T06:38:15Z</time>
      </trkpt>
      <trkpt lat="43.5131" lon="5.89423">
        <ele>384.87</ele>
        <time>2019-04-20T06:38:20Z</time>
      </trkpt>
      <trkpt lat="43.51328" lon="5.89432">
        <ele>384.47</ele>
        <time>2019-04-20T06:38:25Z</time>
      </trkpt>
      <trkpt lat="43.51348" lon="5.89432">
        <ele>383.81</ele>
        <time>2019-04-20T06:38:28Z</time>
      </trkpt>
      <trkpt lat="43.51367" lon="5.89443">
        <ele>384.7</ele>
        <time>2019-04-20T06:38:32Z</time>
      </trkpt>
      <trkpt lat="43.51384" lon="5.8945">
        <ele>385.75</ele>
        <time>2019-04-20T06:38:36Z</time>
      </trkpt>
      <trkpt lat="43.51403" lon="5.89459">
        <ele>386.4</ele>
        <time>2019-04-20T06:38:39Z</time>
      </trkpt>
      <trkpt lat="43.51418" lon="5.89477">
        <ele>386.97</ele>
        <time>2019-04-20T06:38:42Z</time>
      </trkpt>
      <trkpt lat="43.51437" lon="5.89486">
        <ele>388.11</ele>
        <time>2019-04-20T06:38:45Z</time>
      </trkpt>
      <trkpt lat="43.51457" lon="5.89498">
        <ele>387.99</ele>
        <time>2019-04-20T06:38:48Z</time>
      </trkpt>
      <trkpt lat="43.51473" lon="5.89515">
        <ele>387.39</ele>
        <time>2019-04-20T06:38:51Z</time>
      </trkpt>
      <trkpt lat="43.51492" lon="5.89533">
        <ele>387.09</ele>
        <time>2019-04-20T06:38:54Z</time>
      </trkpt>
      <trkpt lat="43.51516" lon="5.89536">
        <ele>387.22</ele>
        <time>2019-04-20T06:38:57Z</time>
      </trkpt>
      <trkpt lat="43.51538" lon="5.89545">
        <ele>387</ele>
        <time>2019-04-20T06:39:01Z</time>
      </trkpt>
      <trkpt lat="43.51554" lon="5.89557">
        <ele>387.02</ele>
        <time>2019-04-20T06:39:03Z</time>
      </trkpt>
      <trkpt lat="43.51572" lon="5.89576">
        <ele>386.81</ele>
        <time>2019-04-20T06:39:06Z</time>
      </trkpt>
      <trkpt lat="43.51588" lon="5.89589">
        <ele>385.51</ele>
        <time>2019-04-20T06:39:10Z</time>
      </trkpt>
      <trkpt lat="43.51585" lon="5.89618">
        <ele>382.92</ele>
        <time>2019-04-20T06:39:14Z</time>
      </trkpt>
      <trkpt lat="43.51598" lon="5.89639">
        <ele>380.97</ele>
        <time>2019-04-20T06:39:19Z</time>
      </trkpt>
      <trkpt lat="43.51618" lon="5.89649">
        <ele>380.39</ele>
        <time>2019-04-20T06:39:23Z</time>
      </trkpt>
      <trkpt lat="43.5164" lon="5.89652">
        <ele>380.09</ele>
        <time>2019-04-20T06:39:26Z</time>
      </trkpt>
      <trkpt lat="43.5166" lon="5.89666">
        <ele>380.37</ele>
        <time>2019-04-20T06:39:30Z</time>
      </trkpt>
      <trkpt lat="43.51679" lon="5.89678">
        <ele>380.83</ele>
        <time>2019-04-20T06:39:34Z</time>
      </trkpt>
      <trkpt lat="43.517" lon="5.89688">
        <ele>381.19</ele>
        <time>2019-04-20T06:39:38Z</time>
      </trkpt>
      <trkpt lat="43.5172" lon="5.89686">
        <ele>380.6</ele>
        <time>2019-04-20T06:39:44Z</time>
      </trkpt>
      <trkpt lat="43.51742" lon="5.89694">
        <ele>380.39</ele>
        <time>2019-04-20T06:39:47Z</time>
      </trkpt>
      <trkpt lat="43.51762" lon="5.89707">
        <ele>380.27</ele>
        <time>2019-04-20T06:39:50Z</time>
      </trkpt>
      <trkpt lat="43.5178" lon="5.89704">
        <ele>379.99</ele>
        <time>2019-04-20T06:39:53Z</time>
      </trkpt>
      <trkpt lat="43.51798" lon="5.89703">
        <ele>379.52</ele>
        <time>2019-04-20T06:39:56Z</time>
      </trkpt>
      <trkpt lat="43.51819" lon="5.89701">
        <ele>379.02</ele>
        <time>2019-04-20T06:40:00Z</time>
      </trkpt>
      <trkpt lat="43.51841" lon="5.89698">
        <ele>378.06</ele>
        <time>2019-04-20T06:40:03Z</time>
      </trkpt>
      <trkpt lat="43.51865" lon="5.89691">
        <ele>377.48</ele>
        <time>2019-04-20T06:40:06Z</time>
      </trkpt>
      <trkpt lat="43.51885" lon="5.89688">
        <ele>377.19</ele>
        <time>2019-04-20T06:40:09Z</time>
      </trkpt>
      <trkpt lat="43.51904" lon="5.89688">
        <ele>376.71</ele>
        <time>2019-04-20T06:40:13Z</time>
      </trkpt>
      <trkpt lat="43.51927" lon="5.89682">
        <ele>376.18</ele>
        <time>2019-04-20T06:40:16Z</time>
      </trkpt>
      <trkpt lat="43.51944" lon="5.89671">
        <ele>376.03</ele>
        <time>2019-04-20T06:40:20Z</time>
      </trkpt>
      <trkpt lat="43.51965" lon="5.89661">
        <ele>375.95</ele>
        <time>2019-04-20T06:40:24Z</time>
      </trkpt>
      <trkpt lat="43.51988" lon="5.89652">
        <ele>374.11</ele>
        <time>2019-04-20T06:40:27Z</time>
      </trkpt>
      <trkpt lat="43.52007" lon="5.89646">
        <ele>371.35</ele>
        <time>2019-04-20T06:40:30Z</time>
      </trkpt>
      <trkpt lat="43.52027" lon="5.89646">
        <ele>369.63</ele>
        <time>2019-04-20T06:40:34Z</time>
      </trkpt>
      <trkpt lat="43.5205" lon="5.89638">
        <ele>368.05</ele>
        <time>2019-04-20T06:40:37Z</time>
      </trkpt>
      <trkpt lat="43.52069" lon="5.89629">
        <ele>367.03</ele>
        <time>2019-04-20T06:40:41Z</time>
      </trkpt>
      <trkpt lat="43.52089" lon="5.89619">
        <ele>365.39</ele>
        <time>2019-04-20T06:40:45Z</time>
      </trkpt>
      <trkpt lat="43.5211" lon="5.8961">
        <ele>363.12</ele>
        <time>2019-04-20T06:40:49Z</time>
      </trkpt>
      <trkpt lat="43.52131" lon="5.89599">
        <ele>362.22</ele>
        <time>2019-04-20T06:40:51Z</time>
      </trkpt>
      <trkpt lat="43.52153" lon="5.89593">
        <ele>361.28</ele>
        <time>2019-04-20T06:40:54Z</time>
      </trkpt>
      <trkpt lat="43.5217" lon="5.89584">
        <ele>360.91</ele>
        <time>2019-04-20T06:40:57Z</time>
      </trkpt>
      <trkpt lat="43.52196" lon="5.89572">
        <ele>361.06</ele>
        <time>2019-04-20T06:41:00Z</time>
      </trkpt>
      <trkpt lat="43.52216" lon="5.89567">
        <ele>361.21</ele>
        <time>2019-04-20T06:41:03Z</time>
      </trkpt>
      <trkpt lat="43.52236" lon="5.89563">
        <ele>360.81</ele>
        <time>2019-04-20T06:41:04Z</time>
      </trkpt>
      <trkpt lat="43.52259" lon="5.89564">
        <ele>360.12</ele>
        <time>2019-04-20T06:41:07Z</time>
      </trkpt>
      <trkpt lat="43.52278" lon="5.89568">
        <ele>358.53</ele>
        <time>2019-04-20T06:41:10Z</time>
      </trkpt>
      <trkpt lat="43.52298" lon="5.89563">
        <ele>356.91</ele>
        <time>2019-04-20T06:41:13Z</time>
      </trkpt>
      <trkpt lat="43.52316" lon="5.89559">
        <ele>355.12</ele>
        <time>2019-04-20T06:41:16Z</time>
      </trkpt>
      <trkpt lat="43.52338" lon="5.89556">
        <ele>352.29</ele>
        <time>2019-04-20T06:41:19Z</time>
      </trkpt>
      <trkpt lat="43.52357" lon="5.89552">
        <ele>349.5</ele>
        <time>2019-04-20T06:41:22Z</time>
      </trkpt>
      <trkpt lat="43.52377" lon="5.89557">
        <ele>346.78</ele>
        <time>2019-04-20T06:41:24Z</time>
      </trkpt>
      <trkpt lat="43.52399" lon="5.89562">
        <ele>344.48</ele>
        <time>2019-04-20T06:41:27Z</time>
      </trkpt>
      <trkpt lat="43.52419" lon="5.89566">
        <ele>342.25</ele>
        <time>2019-04-20T06:41:31Z</time>
      </trkpt>
      <trkpt lat="43.5244" lon="5.89559">
        <ele>339.53</ele>
        <time>2019-04-20T06:41:37Z</time>
      </trkpt>
      <trkpt lat="43.52462" lon="5.89559">
        <ele>336.91</ele>
        <time>2019-04-20T06:41:42Z</time>
      </trkpt>
      <trkpt lat="43.5248" lon="5.89562">
        <ele>334.36</ele>
        <time>2019-04-20T06:41:46Z</time>
      </trkpt>
      <trkpt lat="43.52497" lon="5.89575">
        <ele>331.56</ele>
        <time>2019-04-20T06:41:51Z</time>
      </trkpt>
      <trkpt lat="43.52516" lon="5.89589">
        <ele>329.63</ele>
        <time>2019-04-20T06:41:57Z</time>
      </trkpt>
      <trkpt lat="43.52536" lon="5.89601">
        <ele>327.42</ele>
        <time>2019-04-20T06:42:04Z</time>
      </trkpt>
      <trkpt lat="43.52556" lon="5.89594">
        <ele>326.09</ele>
        <time>2019-04-20T06:42:09Z</time>
      </trkpt>
      <trkpt lat="43.52576" lon="5.89597">
        <ele>325.15</ele>
        <time>2019-04-20T06:42:15Z</time>
      </trkpt>
      <trkpt lat="43.526" lon="5.89598">
        <ele>323.99</ele>
        <time>2019-04-20T06:42:20Z</time>
      </trkpt>
      <trkpt lat="43.52627" lon="5.89595">
        <ele>321.64</ele>
        <time>2019-04-20T06:42:25Z</time>
      </trkpt>
      <trkpt lat="43.52651" lon="5.89591">
        <ele>319.92</ele>
        <time>2019-04-20T06:42:30Z</time>
      </trkpt>
      <trkpt lat="43.52668" lon="5.89576">
        <ele>317.56</ele>
        <time>2019-04-20T06:42:36Z</time>
      </trkpt>
      <trkpt lat="43.52692" lon="5.89571">
        <ele>314.04</ele>
        <time>2019-04-20T06:42:43Z</time>
      </trkpt>
      <trkpt lat="43.52713" lon="5.8957">
        <ele>310.74</ele>
        <time>2019-04-20T06:42:52Z</time>
      </trkpt>
      <trkpt lat="43.52733" lon="5.8957">
        <ele>307.02</ele>
        <time>2019-04-20T06:42:59Z</time>
      </trkpt>
      <trkpt lat="43.52755" lon="5.89567">
        <ele>304.87</ele>
        <time>2019-04-20T06:43:08Z</time>
      </trkpt>
      <trkpt lat="43.52775" lon="5.89558">
        <ele>303.32</ele>
        <time>2019-04-20T06:43:13Z</time>
      </trkpt>
      <trkpt lat="43.52795" lon="5.8955">
        <ele>301.67</ele>
        <time>2019-04-20T06:43:21Z</time>
      </trkpt>
      <trkpt lat="43.52812" lon="5.8954">
        <ele>300.32</ele>
        <time>2019-04-20T06:43:27Z</time>
      </trkpt>
      <trkpt lat="43.52832" lon="5.89533">
        <ele>299.66</ele>
        <time>2019-04-20T06:43:33Z</time>
      </trkpt>
      <trkpt lat="43.52853" lon="5.89521">
        <ele>298.21</ele>
        <time>2019-04-20T06:43:40Z</time>
      </trkpt>
      <trkpt lat="43.52872" lon="5.89511">
        <ele>296.29</ele>
        <time>2019-04-20T06:43:47Z</time>
      </trkpt>
      <trkpt lat="43.52889" lon="5.89504">
        <ele>295.37</ele>
        <time>2019-04-20T06:43:54Z</time>
      </trkpt>
      <trkpt lat="43.52907" lon="5.89501">
        <ele>297.12</ele>
        <time>2019-04-20T06:44:02Z</time>
      </trkpt>
      <trkpt lat="43.52926" lon="5.8949">
        <ele>296.05</ele>
        <time>2019-04-20T06:44:10Z</time>
      </trkpt>
      <trkpt lat="43.52946" lon="5.89481">
        <ele>294.65</ele>
        <time>2019-04-20T06:44:17Z</time>
      </trkpt>
      <trkpt lat="43.52965" lon="5.89471">
        <ele>290.52</ele>
        <time>2019-04-20T06:44:25Z</time>
      </trkpt>
      <trkpt lat="43.52984" lon="5.8946">
        <ele>288.65</ele>
        <time>2019-04-20T06:44:32Z</time>
      </trkpt>
      <trkpt lat="43.53003" lon="5.89455">
        <ele>287.69</ele>
        <time>2019-04-20T06:44:38Z</time>
      </trkpt>
      <trkpt lat="43.53022" lon="5.89451">
        <ele>288.33</ele>
        <time>2019-04-20T06:44:44Z</time>
      </trkpt>
      <trkpt lat="43.5304" lon="5.8944">
        <ele>290.54</ele>
        <time>2019-04-20T06:44:50Z</time>
      </trkpt>
      <trkpt lat="43.53059" lon="5.89427">
        <ele>291.88</ele>
        <time>2019-04-20T06:44:58Z</time>
      </trkpt>
      <trkpt lat="43.53073" lon="5.89411">
        <ele>291.35</ele>
        <time>2019-04-20T06:45:05Z</time>
      </trkpt>
      <trkpt lat="43.53087" lon="5.89394">
        <ele>288.87</ele>
        <time>2019-04-20T06:45:14Z</time>
      </trkpt>
      <trkpt lat="43.53103" lon="5.8938">
        <ele>288.55</ele>
        <time>2019-04-20T06:45:21Z</time>
      </trkpt>
      <trkpt lat="43.53118" lon="5.89365">
        <ele>287.79</ele>
        <time>2019-04-20T06:45:28Z</time>
      </trkpt>
      <trkpt lat="43.53135" lon="5.89354">
        <ele>286.17</ele>
        <time>2019-04-20T06:45:36Z</time>
      </trkpt>
      <trkpt lat="43.53152" lon="5.89339">
        <ele>286.39</ele>
        <time>2019-04-20T06:45:43Z</time>
      </trkpt>
      <trkpt lat="43.53169" lon="5.89333">
        <ele>285.8</ele>
        <time>2019-04-20T06:45:59Z</time>
      </trkpt>
      <trkpt lat="43.53186" lon="5.89322">
        <ele>284.81</ele>
        <time>2019-04-20T06:46:10Z</time>
      </trkpt>
      <trkpt lat="43.53203" lon="5.89309">
        <ele>286.78</ele>
        <time>2019-04-20T06:46:18Z</time>
      </trkpt>
      <trkpt lat="43.53221" lon="5.89294">
        <ele>288.65</ele>
        <time>2019-04-20T06:46:25Z</time>
      </trkpt>
      <trkpt lat="43.53239" lon="5.89282">
        <ele>288.63</ele>
        <time>2019-04-20T06:46:32Z</time>
      </trkpt>
      <trkpt lat="43.53257" lon="5.8927">
        <ele>288.89</ele>
        <time>2019-04-20T06:46:40Z</time>
      </trkpt>
      <trkpt lat="43.53273" lon="5.89255">
        <ele>289.04</ele>
        <time>2019-04-20T06:46:47Z</time>
      </trkpt>
      <trkpt lat="43.5329" lon="5.89241">
        <ele>289.26</ele>
        <time>2019-04-20T06:46:53Z</time>
      </trkpt>
      <trkpt lat="43.53307" lon="5.89228">
        <ele>290.29</ele>
        <time>2019-04-20T06:47:00Z</time>
      </trkpt>
      <trkpt lat="43.53325" lon="5.89213">
        <ele>291.78</ele>
        <time>2019-04-20T06:47:08Z</time>
      </trkpt>
      <trkpt lat="43.53341" lon="5.89198">
        <ele>292.14</ele>
        <time>2019-04-20T06:47:16Z</time>
      </trkpt>
      <trkpt lat="43.53357" lon="5.89184">
        <ele>292.84</ele>
        <time>2019-04-20T06:47:25Z</time>
      </trkpt>
      <trkpt lat="43.53373" lon="5.89169">
        <ele>293.56</ele>
        <time>2019-04-20T06:51:06Z</time>
      </trkpt>
      <trkpt lat="43.53389" lon="5.89154">
        <ele>294.34</ele>
        <time>2019-04-20T06:51:14Z</time>
      </trkpt>
      <trkpt lat="43.53405" lon="5.89138">
        <ele>296.69</ele>
        <time>2019-04-20T06:51:21Z</time>
      </trkpt>
      <trkpt lat="43.5342" lon="5.89123">
        <ele>298.3</ele>
        <time>2019-04-20T06:51:29Z</time>
      </trkpt>
      <trkpt lat="43.53437" lon="5.89106">
        <ele>301.73</ele>
        <time>2019-04-20T06:51:34Z</time>
      </trkpt>
      <trkpt lat="43.53449" lon="5.89084">
        <ele>304.39</ele>
        <time>2019-04-20T06:51:38Z</time>
      </trkpt>
      <trkpt lat="43.53451" lon="5.89059">
        <ele>307.12</ele>
        <time>2019-04-20T06:51:43Z</time>
      </trkpt>
      <trkpt lat="43.53446" lon="5.89032">
        <ele>308.93</ele>
        <time>2019-04-20T06:51:50Z</time>
      </trkpt>
      <trkpt lat="43.53433" lon="5.89014">
        <ele>311.15</ele>
        <time>2019-04-20T06:51:57Z</time>
      </trkpt>
      <trkpt lat="43.53418" lon="5.89">
        <ele>319.24</ele>
        <time>2019-04-20T06:52:04Z</time>
      </trkpt>
      <trkpt lat="43.534" lon="5.8899">
        <ele>324.29</ele>
        <time>2019-04-20T06:52:12Z</time>
      </trkpt>
      <trkpt lat="43.53381" lon="5.88979">
        <ele>326.68</ele>
        <time>2019-04-20T06:52:21Z</time>
      </trkpt>
      <trkpt lat="43.53365" lon="5.88967">
        <ele>328.74</ele>
        <time>2019-04-20T06:52:29Z</time>
      </trkpt>
      <trkpt lat="43.5335" lon="5.88951">
        <ele>330.3</ele>
        <time>2019-04-20T06:52:37Z</time>
      </trkpt>
      <trkpt lat="43.53336" lon="5.88932">
        <ele>331.05</ele>
        <time>2019-04-20T06:52:46Z</time>
      </trkpt>
      <trkpt lat="43.53326" lon="5.88911">
        <ele>332.57</ele>
        <time>2019-04-20T06:52:56Z</time>
      </trkpt>
      <trkpt lat="43.53317" lon="5.88887">
        <ele>335.28</ele>
        <time>2019-04-20T06:53:05Z</time>
      </trkpt>
      <trkpt lat="43.53304" lon="5.88869">
        <ele>336.06</ele>
        <time>2019-04-20T06:53:11Z</time>
      </trkpt>
      <trkpt lat="43.5329" lon="5.88848">
        <ele>337.55</ele>
        <time>2019-04-20T06:53:16Z</time>
      </trkpt>
      <trkpt lat="43.53278" lon="5.88826">
        <ele>339.54</ele>
        <time>2019-04-20T06:53:20Z</time>
      </trkpt>
      <trkpt lat="43.53262" lon="5.88812">
        <ele>341.18</ele>
        <time>2019-04-20T06:53:24Z</time>
      </trkpt>
      <trkpt lat="43.5325" lon="5.88793">
        <ele>363.07</ele>
        <time>2019-04-20T06:53:29Z</time>
      </trkpt>
      <trkpt lat="43.53235" lon="5.88776">
        <ele>363.05</ele>
        <time>2019-04-20T06:53:36Z</time>
      </trkpt>
      <trkpt lat="43.53244" lon="5.88754">
        <ele>363.17</ele>
        <time>2019-04-20T06:53:43Z</time>
      </trkpt>
      <trkpt lat="43.53264" lon="5.88741">
        <ele>364.02</ele>
        <time>2019-04-20T06:53:51Z</time>
      </trkpt>
      <trkpt lat="43.53275" lon="5.88718">
        <ele>364.09</ele>
        <time>2019-04-20T06:53:59Z</time>
      </trkpt>
      <trkpt lat="43.53279" lon="5.88693">
        <ele>363.87</ele>
        <time>2019-04-20T06:54:04Z</time>
      </trkpt>
      <trkpt lat="43.5329" lon="5.8867">
        <ele>364.32</ele>
        <time>2019-04-20T06:54:09Z</time>
      </trkpt>
      <trkpt lat="43.53309" lon="5.88668">
        <ele>364.69</ele>
        <time>2019-04-20T06:54:14Z</time>
      </trkpt>
      <trkpt lat="43.53325" lon="5.88684">
        <ele>365.04</ele>
        <time>2019-04-20T06:54:19Z</time>
      </trkpt>
      <trkpt lat="43.53343" lon="5.88692">
        <ele>366.04</ele>
        <time>2019-04-20T06:54:25Z</time>
      </trkpt>
      <trkpt lat="43.53361" lon="5.887">
        <ele>366.84</ele>
        <time>2019-04-20T06:54:32Z</time>
      </trkpt>
      <trkpt lat="43.5338" lon="5.88706">
        <ele>368.12</ele>
        <time>2019-04-20T06:54:40Z</time>
      </trkpt>
      <trkpt lat="43.53399" lon="5.88717">
        <ele>369.33</ele>
        <time>2019-04-20T06:54:50Z</time>
      </trkpt>
      <trkpt lat="43.53417" lon="5.88727">
        <ele>370.42</ele>
        <time>2019-04-20T06:54:59Z</time>
      </trkpt>
      <trkpt lat="43.53436" lon="5.88731">
        <ele>372.21</ele>
        <time>2019-04-20T06:55:10Z</time>
      </trkpt>
      <trkpt lat="43.53454" lon="5.8873">
        <ele>374.24</ele>
        <time>2019-04-20T06:55:17Z</time>
      </trkpt>
      <trkpt lat="43.53472" lon="5.88727">
        <ele>376.23</ele>
        <time>2019-04-20T06:55:25Z</time>
      </trkpt>
      <trkpt lat="43.53491" lon="5.88722">
        <ele>376.45</ele>
        <time>2019-04-20T06:55:35Z</time>
      </trkpt>
      <trkpt lat="43.53509" lon="5.88707">
        <ele>376.25</ele>
        <time>2019-04-20T06:55:45Z</time>
      </trkpt>
      <trkpt lat="43.53523" lon="5.88688">
        <ele>376.32</ele>
        <time>2019-04-20T06:55:56Z</time>
      </trkpt>
      <trkpt lat="43.53536" lon="5.8867">
        <ele>376.07</ele>
        <time>2019-04-20T06:56:09Z</time>
      </trkpt>
      <trkpt lat="43.53549" lon="5.88652">
        <ele>375.75</ele>
        <time>2019-04-20T06:56:21Z</time>
      </trkpt>
      <trkpt lat="43.53561" lon="5.88632">
        <ele>375.32</ele>
        <time>2019-04-20T06:56:30Z</time>
      </trkpt>
      <trkpt lat="43.5358" lon="5.8863">
        <ele>376.42</ele>
        <time>2019-04-20T06:56:41Z</time>
      </trkpt>
      <trkpt lat="43.53599" lon="5.88627">
        <ele>379.77</ele>
        <time>2019-04-20T06:56:50Z</time>
      </trkpt>
      <trkpt lat="43.53619" lon="5.88617">
        <ele>381.94</ele>
        <time>2019-04-20T06:57:00Z</time>
      </trkpt>
      <trkpt lat="43.53638" lon="5.886">
        <ele>381.56</ele>
        <time>2019-04-20T06:57:09Z</time>
      </trkpt>
      <trkpt lat="43.53654" lon="5.88586">
        <ele>381.45</ele>
        <time>2019-04-20T06:57:19Z</time>
      </trkpt>
      <trkpt lat="43.53672" lon="5.88577">
        <ele>381.76</ele>
        <time>2019-04-20T06:57:28Z</time>
      </trkpt>
      <trkpt lat="43.53687" lon="5.88561">
        <ele>381.85</ele>
        <time>2019-04-20T06:57:40Z</time>
      </trkpt>
      <trkpt lat="43.53703" lon="5.88544">
        <ele>381.89</ele>
        <time>2019-04-20T06:57:46Z</time>
      </trkpt>
      <trkpt lat="43.53717" lon="5.88525">
        <ele>381.11</ele>
        <time>2019-04-20T06:57:53Z</time>
      </trkpt>
      <trkpt lat="43.53731" lon="5.88508">
        <ele>381.39</ele>
        <time>2019-04-20T06:57:58Z</time>
      </trkpt>
      <trkpt lat="43.53742" lon="5.88487">
        <ele>381.37</ele>
        <time>2019-04-20T06:58:04Z</time>
      </trkpt>
      <trkpt lat="43.5375" lon="5.88464">
        <ele>382.14</ele>
        <time>2019-04-20T06:58:11Z</time>
      </trkpt>
      <trkpt lat="43.53758" lon="5.88441">
        <ele>382.56</ele>
        <time>2019-04-20T06:58:18Z</time>
      </trkpt>
      <trkpt lat="43.53776" lon="5.88432">
        <ele>382.67</ele>
        <time>2019-04-20T06:58:25Z</time>
      </trkpt>
      <trkpt lat="43.53795" lon="5.88427">
        <ele>383.02</ele>
        <time>2019-04-20T06:58:33Z</time>
      </trkpt>
      <trkpt lat="43.53813" lon="5.88436">
        <ele>385.28</ele>
        <time>2019-04-20T06:58:42Z</time>
      </trkpt>
      <trkpt lat="43.53832" lon="5.88441">
        <ele>387.06</ele>
        <time>2019-04-20T06:58:52Z</time>
      </trkpt>
      <trkpt lat="43.53851" lon="5.88438">
        <ele>391.13</ele>
        <time>2019-04-20T06:59:02Z</time>
      </trkpt>
      <trkpt lat="43.53868" lon="5.8843">
        <ele>394.12</ele>
        <time>2019-04-20T06:59:09Z</time>
      </trkpt>
      <trkpt lat="43.53888" lon="5.88433">
        <ele>398.85</ele>
        <time>2019-04-20T06:59:16Z</time>
      </trkpt>
      <trkpt lat="43.53906" lon="5.88435">
        <ele>398.41</ele>
        <time>2019-04-20T06:59:24Z</time>
      </trkpt>
      <trkpt lat="43.53926" lon="5.88437">
        <ele>401.1</ele>
        <time>2019-04-20T06:59:32Z</time>
      </trkpt>
      <trkpt lat="43.53943" lon="5.88449">
        <ele>403.23</ele>
        <time>2019-04-20T06:59:40Z</time>
      </trkpt>
      <trkpt lat="43.53961" lon="5.88455">
        <ele>405.39</ele>
        <time>2019-04-20T06:59:49Z</time>
      </trkpt>
      <trkpt lat="43.53979" lon="5.88461">
        <ele>406.81</ele>
        <time>2019-04-20T06:59:56Z</time>
      </trkpt>
      <trkpt lat="43.53998" lon="5.88459">
        <ele>408.77</ele>
        <time>2019-04-20T07:00:03Z</time>
      </trkpt>
      <trkpt lat="43.54014" lon="5.88447">
        <ele>408.3</ele>
        <time>2019-04-20T07:00:10Z</time>
      </trkpt>
      <trkpt lat="43.54033" lon="5.88442">
        <ele>409.77</ele>
        <time>2019-04-20T07:00:17Z</time>
      </trkpt>
      <trkpt lat="43.54049" lon="5.88429">
        <ele>410.16</ele>
        <time>2019-04-20T07:00:24Z</time>
      </trkpt>
      <trkpt lat="43.5407" lon="5.88421">
        <ele>410.14</ele>
        <time>2019-04-20T07:00:32Z</time>
      </trkpt>
      <trkpt lat="43.54087" lon="5.88405">
        <ele>408.96</ele>
        <time>2019-04-20T07:00:40Z</time>
      </trkpt>
      <trkpt lat="43.54102" lon="5.88391">
        <ele>407.6</ele>
        <time>2019-04-20T07:00:50Z</time>
      </trkpt>
      <trkpt lat="43.54118" lon="5.88375">
        <ele>407.27</ele>
        <time>2019-04-20T07:00:58Z</time>
      </trkpt>
      <trkpt lat="43.54135" lon="5.88361">
        <ele>407.19</ele>
        <time>2019-04-20T07:01:05Z</time>
      </trkpt>
      <trkpt lat="43.54152" lon="5.88348">
        <ele>406.67</ele>
        <time>2019-04-20T07:01:12Z</time>
      </trkpt>
      <trkpt lat="43.5417" lon="5.88337">
        <ele>406.35</ele>
        <time>2019-04-20T07:01:19Z</time>
      </trkpt>
      <trkpt lat="43.54189" lon="5.88336">
        <ele>407.21</ele>
        <time>2019-04-20T07:01:26Z</time>
      </trkpt>
      <trkpt lat="43.54208" lon="5.88333">
        <ele>410.41</ele>
        <time>2019-04-20T07:01:32Z</time>
      </trkpt>
      <trkpt lat="43.54226" lon="5.8833">
        <ele>414.43</ele>
        <time>2019-04-20T07:01:37Z</time>
      </trkpt>
      <trkpt lat="43.54243" lon="5.88318">
        <ele>414.37</ele>
        <time>2019-04-20T07:01:42Z</time>
      </trkpt>
      <trkpt lat="43.5426" lon="5.88305">
        <ele>414.91</ele>
        <time>2019-04-20T07:02:50Z</time>
      </trkpt>
      <trkpt lat="43.54278" lon="5.88292">
        <ele>415.23</ele>
        <time>2019-04-20T07:03:24Z</time>
      </trkpt>
      <trkpt lat="43.54295" lon="5.88279">
        <ele>415.19</ele>
        <time>2019-04-20T07:03:35Z</time>
      </trkpt>
      <trkpt lat="43.54312" lon="5.88267">
        <ele>414.49</ele>
        <time>2019-04-20T07:03:44Z</time>
      </trkpt>
      <trkpt lat="43.54331" lon="5.88257">
        <ele>414.75</ele>
        <time>2019-04-20T07:03:54Z</time>
      </trkpt>
      <trkpt lat="43.54348" lon="5.88243">
        <ele>414.71</ele>
        <time>2019-04-20T07:04:02Z</time>
      </trkpt>
      <trkpt lat="43.54366" lon="5.88233">
        <ele>413.99</ele>
        <time>2019-04-20T07:04:10Z</time>
      </trkpt>
      <trkpt lat="43.54383" lon="5.88219">
        <ele>414.26</ele>
        <time>2019-04-20T07:04:38Z</time>
      </trkpt>
      <trkpt lat="43.54398" lon="5.88204">
        <ele>414.37</ele>
        <time>2019-04-20T07:04:47Z</time>
      </trkpt>
      <trkpt lat="43.54413" lon="5.88189">
        <ele>414.67</ele>
        <time>2019-04-20T07:04:55Z</time>
      </trkpt>
      <trkpt lat="43.54431" lon="5.88182">
        <ele>415.32</ele>
        <time>2019-04-20T07:05:01Z</time>
      </trkpt>
      <trkpt lat="43.54446" lon="5.88167">
        <ele>415.97</ele>
        <time>2019-04-20T07:05:08Z</time>
      </trkpt>
      <trkpt lat="43.54447" lon="5.88142">
        <ele>415.39</ele>
        <time>2019-04-20T07:05:13Z</time>
      </trkpt>
      <trkpt lat="43.5446" lon="5.88121">
        <ele>415.55</ele>
        <time>2019-04-20T07:05:18Z</time>
      </trkpt>
      <trkpt lat="43.54473" lon="5.88103">
        <ele>415.77</ele>
        <time>2019-04-20T07:05:24Z</time>
      </trkpt>
      <trkpt lat="43.54487" lon="5.88084">
        <ele>415.95</ele>
        <time>2019-04-20T07:05:29Z</time>
      </trkpt>
      <trkpt lat="43.54499" lon="5.88062">
        <ele>415.61</ele>
        <time>2019-04-20T07:05:34Z</time>
      </trkpt>
      <trkpt lat="43.54512" lon="5.88043">
        <ele>414.5</ele>
        <time>2019-04-20T07:05:39Z</time>
      </trkpt>
      <trkpt lat="43.54528" lon="5.88023">
        <ele>413.91</ele>
        <time>2019-04-20T07:05:44Z</time>
      </trkpt>
      <trkpt lat="43.54538" lon="5.88001">
        <ele>413.69</ele>
        <time>2019-04-20T07:05:49Z</time>
      </trkpt>
      <trkpt lat="43.54551" lon="5.87983">
        <ele>413.49</ele>
        <time>2019-04-20T07:05:54Z</time>
      </trkpt>
      <trkpt lat="43.54568" lon="5.87977">
        <ele>411.45</ele>
        <time>2019-04-20T07:05:58Z</time>
      </trkpt>
      <trkpt lat="43.54584" lon="5.87964">
        <ele>412.07</ele>
        <time>2019-04-20T07:06:02Z</time>
      </trkpt>
      <trkpt lat="43.54599" lon="5.87948">
        <ele>413.34</ele>
        <time>2019-04-20T07:06:06Z</time>
      </trkpt>
      <trkpt lat="43.54614" lon="5.87932">
        <ele>413.45</ele>
        <time>2019-04-20T07:06:10Z</time>
      </trkpt>
      <trkpt lat="43.5463" lon="5.87917">
        <ele>413.57</ele>
        <time>2019-04-20T07:06:13Z</time>
      </trkpt>
      <trkpt lat="43.54643" lon="5.879">
        <ele>413.44</ele>
        <time>2019-04-20T07:06:16Z</time>
      </trkpt>
      <trkpt lat="43.54657" lon="5.87878">
        <ele>413.87</ele>
        <time>2019-04-20T07:06:19Z</time>
      </trkpt>
      <trkpt lat="43.54672" lon="5.87861">
        <ele>414.17</ele>
        <time>2019-04-20T07:06:22Z</time>
      </trkpt>
      <trkpt lat="43.54682" lon="5.87882">
        <ele>415.24</ele>
        <time>2019-04-20T07:06:25Z</time>
      </trkpt>
      <trkpt lat="43.54698" lon="5.87899">
        <ele>415.76</ele>
        <time>2019-04-20T07:06:28Z</time>
      </trkpt>
      <trkpt lat="43.54711" lon="5.87919">
        <ele>415.97</ele>
        <time>2019-04-20T07:06:33Z</time>
      </trkpt>
      <trkpt lat="43.54727" lon="5.87938">
        <ele>416.25</ele>
        <time>2019-04-20T07:06:39Z</time>
      </trkpt>
      <trkpt lat="43.5474" lon="5.87955">
        <ele>416.54</ele>
        <time>2019-04-20T07:06:43Z</time>
      </trkpt>
      <trkpt lat="43.54751" lon="5.87975">
        <ele>416.39</ele>
        <time>2019-04-20T07:06:48Z</time>
      </trkpt>
      <trkpt lat="43.54752" lon="5.88004">
        <ele>416.37</ele>
        <time>2019-04-20T07:06:52Z</time>
      </trkpt>
      <trkpt lat="43.54758" lon="5.88029">
        <ele>416.19</ele>
        <time>2019-04-20T07:06:56Z</time>
      </trkpt>
      <trkpt lat="43.5476" lon="5.88056">
        <ele>415.75</ele>
        <time>2019-04-20T07:06:59Z</time>
      </trkpt>
      <trkpt lat="43.54759" lon="5.88084">
        <ele>415.79</ele>
        <time>2019-04-20T07:07:02Z</time>
      </trkpt>
      <trkpt lat="43.54761" lon="5.88115">
        <ele>415.47</ele>
        <time>2019-04-20T07:07:05Z</time>
      </trkpt>
      <trkpt lat="43.54759" lon="5.88145">
        <ele>415.74</ele>
        <time>2019-04-20T07:07:09Z</time>
      </trkpt>
      <trkpt lat="43.54766" lon="5.88175">
        <ele>415.77</ele>
        <time>2019-04-20T07:07:12Z</time>
      </trkpt>
      <trkpt lat="43.54768" lon="5.88204">
        <ele>415.47</ele>
        <time>2019-04-20T07:07:15Z</time>
      </trkpt>
      <trkpt lat="43.54763" lon="5.88232">
        <ele>415.65</ele>
        <time>2019-04-20T07:07:18Z</time>
      </trkpt>
      <trkpt lat="43.54759" lon="5.8826">
        <ele>415.8</ele>
        <time>2019-04-20T07:07:21Z</time>
      </trkpt>
      <trkpt lat="43.54768" lon="5.8829">
        <ele>414.65</ele>
        <time>2019-04-20T07:07:24Z</time>
      </trkpt>
      <trkpt lat="43.54776" lon="5.88313">
        <ele>413.2</ele>
        <time>2019-04-20T07:08:32Z</time>
      </trkpt>
      <trkpt lat="43.54788" lon="5.88337">
        <ele>411.75</ele>
        <time>2019-04-20T07:08:42Z</time>
      </trkpt>
      <trkpt lat="43.548" lon="5.88361">
        <ele>410.29</ele>
        <time>2019-04-20T07:08:49Z</time>
      </trkpt>
      <trkpt lat="43.5481" lon="5.88386">
        <ele>408.62</ele>
        <time>2019-04-20T07:08:55Z</time>
      </trkpt>
      <trkpt lat="43.5482" lon="5.88407">
        <ele>406.74</ele>
        <time>2019-04-20T07:09:01Z</time>
      </trkpt>
      <trkpt lat="43.54831" lon="5.88428">
        <ele>404.29</ele>
        <time>2019-04-20T07:09:10Z</time>
      </trkpt>
      <trkpt lat="43.54842" lon="5.8845">
        <ele>400.45</ele>
        <time>2019-04-20T07:10:33Z</time>
      </trkpt>
      <trkpt lat="43.54838" lon="5.8848">
        <ele>395.92</ele>
        <time>2019-04-20T07:10:41Z</time>
      </trkpt>
      <trkpt lat="43.54824" lon="5.88503">
        <ele>393.7</ele>
        <time>2019-04-20T07:10:48Z</time>
      </trkpt>
      <trkpt lat="43.54834" lon="5.88526">
        <ele>390.5</ele>
        <time>2019-04-20T07:10:55Z</time>
      </trkpt>
      <trkpt lat="43.5485" lon="5.88538">
        <ele>387.85</ele>
        <time>2019-04-20T07:11:02Z</time>
      </trkpt>
      <trkpt lat="43.54862" lon="5.88565">
        <ele>383.84</ele>
        <time>2019-04-20T07:11:07Z</time>
      </trkpt>
      <trkpt lat="43.54869" lon="5.88593">
        <ele>380.98</ele>
        <time>2019-04-20T07:11:13Z</time>
      </trkpt>
      <trkpt lat="43.54874" lon="5.88621">
        <ele>378.04</ele>
        <time>2019-04-20T07:11:18Z</time>
      </trkpt>
      <trkpt lat="43.54881" lon="5.88645">
        <ele>375.2</ele>
        <time>2019-04-20T07:11:22Z</time>
      </trkpt>
      <trkpt lat="43.54885" lon="5.88677">
        <ele>371.87</ele>
        <time>2019-04-20T07:11:26Z</time>
      </trkpt>
      <trkpt lat="43.54893" lon="5.88705">
        <ele>369.21</ele>
        <time>2019-04-20T07:11:30Z</time>
      </trkpt>
      <trkpt lat="43.54905" lon="5.88733">
        <ele>366.38</ele>
        <time>2019-04-20T07:11:35Z</time>
      </trkpt>
      <trkpt lat="43.54909" lon="5.88758">
        <ele>363.7</ele>
        <time>2019-04-20T07:11:39Z</time>
      </trkpt>
      <trkpt lat="43.54914" lon="5.88785">
        <ele>360.8</ele>
        <time>2019-04-20T07:11:44Z</time>
      </trkpt>
      <trkpt lat="43.54918" lon="5.8881">
        <ele>358.4</ele>
        <time>2019-04-20T07:11:50Z</time>
      </trkpt>
      <trkpt lat="43.5492" lon="5.88836">
        <ele>357.77</ele>
        <time>2019-04-20T07:11:55Z</time>
      </trkpt>
      <trkpt lat="43.5491" lon="5.88856">
        <ele>358.34</ele>
        <time>2019-04-20T07:12:00Z</time>
      </trkpt>
      <trkpt lat="43.54898" lon="5.88878">
        <ele>359.24</ele>
        <time>2019-04-20T07:12:05Z</time>
      </trkpt>
      <trkpt lat="43.54881" lon="5.88894">
        <ele>360.24</ele>
        <time>2019-04-20T07:12:10Z</time>
      </trkpt>
      <trkpt lat="43.54861" lon="5.88904">
        <ele>361.05</ele>
        <time>2019-04-20T07:12:15Z</time>
      </trkpt>
      <trkpt lat="43.54843" lon="5.88909">
        <ele>360.51</ele>
        <time>2019-04-20T07:12:20Z</time>
      </trkpt>
      <trkpt lat="43.54821" lon="5.8891">
        <ele>355.67</ele>
        <time>2019-04-20T07:12:25Z</time>
      </trkpt>
      <trkpt lat="43.54803" lon="5.88914">
        <ele>354.3</ele>
        <time>2019-04-20T07:12:31Z</time>
      </trkpt>
      <trkpt lat="43.54785" lon="5.88915">
        <ele>353.63</ele>
        <time>2019-04-20T07:12:36Z</time>
      </trkpt>
      <trkpt lat="43.54766" lon="5.8891">
        <ele>352.48</ele>
        <time>2019-04-20T07:12:40Z</time>
      </trkpt>
      <trkpt lat="43.54747" lon="5.88909">
        <ele>352.46</ele>
        <time>2019-04-20T07:12:45Z</time>
      </trkpt>
      <trkpt lat="43.54727" lon="5.8891">
        <ele>353.67</ele>
        <time>2019-04-20T07:12:50Z</time>
      </trkpt>
      <trkpt lat="43.54706" lon="5.88918">
        <ele>355.52</ele>
        <time>2019-04-20T07:12:55Z</time>
      </trkpt>
      <trkpt lat="43.54684" lon="5.88919">
        <ele>355.81</ele>
        <time>2019-04-20T07:13:00Z</time>
      </trkpt>
      <trkpt lat="43.54665" lon="5.88923">
        <ele>356.66</ele>
        <time>2019-04-20T07:13:05Z</time>
      </trkpt>
      <trkpt lat="43.54646" lon="5.88924">
        <ele>355.85</ele>
        <time>2019-04-20T07:13:10Z</time>
      </trkpt>
      <trkpt lat="43.54627" lon="5.88927">
        <ele>355.58</ele>
        <time>2019-04-20T07:13:15Z</time>
      </trkpt>
      <trkpt lat="43.54607" lon="5.88941">
        <ele>354.6</ele>
        <time>2019-04-20T07:13:21Z</time>
      </trkpt>
      <trkpt lat="43.54588" lon="5.88948">
        <ele>355.61</ele>
        <time>2019-04-20T07:13:29Z</time>
      </trkpt>
      <trkpt lat="43.54568" lon="5.88953">
        <ele>355.58</ele>
        <time>2019-04-20T07:13:36Z</time>
      </trkpt>
      <trkpt lat="43.54552" lon="5.88967">
        <ele>356.82</ele>
        <time>2019-04-20T07:13:43Z</time>
      </trkpt>
      <trkpt lat="43.54532" lon="5.88974">
        <ele>356.84</ele>
        <time>2019-04-20T07:13:51Z</time>
      </trkpt>
      <trkpt lat="43.54512" lon="5.88983">
        <ele>356.97</ele>
        <time>2019-04-20T07:14:02Z</time>
      </trkpt>
      <trkpt lat="43.54494" lon="5.88991">
        <ele>355.77</ele>
        <time>2019-04-20T07:14:13Z</time>
      </trkpt>
      <trkpt lat="43.54474" lon="5.88995">
        <ele>355.67</ele>
        <time>2019-04-20T07:14:24Z</time>
      </trkpt>
      <trkpt lat="43.54455" lon="5.89007">
        <ele>356.78</ele>
        <time>2019-04-20T07:14:35Z</time>
      </trkpt>
      <trkpt lat="43.54436" lon="5.89019">
        <ele>357.89</ele>
        <time>2019-04-20T07:14:45Z</time>
      </trkpt>
      <trkpt lat="43.5442" lon="5.89038">
        <ele>359.35</ele>
        <time>2019-04-20T07:14:56Z</time>
      </trkpt>
      <trkpt lat="43.54414" lon="5.89065">
        <ele>361.05</ele>
        <time>2019-04-20T07:15:06Z</time>
      </trkpt>
      <trkpt lat="43.54414" lon="5.8909">
        <ele>360.97</ele>
        <time>2019-04-20T07:15:16Z</time>
      </trkpt>
      <trkpt lat="43.54421" lon="5.89114">
        <ele>359.85</ele>
        <time>2019-04-20T07:15:26Z</time>
      </trkpt>
      <trkpt lat="43.54428" lon="5.89143">
        <ele>357.24</ele>
        <time>2019-04-20T07:15:35Z</time>
      </trkpt>
      <trkpt lat="43.54439" lon="5.89169">
        <ele>354.55</ele>
        <time>2019-04-20T07:15:44Z</time>
      </trkpt>
      <trkpt lat="43.54447" lon="5.89197">
        <ele>352.22</ele>
        <time>2019-04-20T07:15:51Z</time>
      </trkpt>
      <trkpt lat="43.54452" lon="5.89222">
        <ele>351.93</ele>
        <time>2019-04-20T07:15:58Z</time>
      </trkpt>
      <trkpt lat="43.54442" lon="5.89242">
        <ele>351.32</ele>
        <time>2019-04-20T07:16:05Z</time>
      </trkpt>
      <trkpt lat="43.54433" lon="5.89268">
        <ele>351.57</ele>
        <time>2019-04-20T07:16:12Z</time>
      </trkpt>
      <trkpt lat="43.54428" lon="5.89297">
        <ele>350.62</ele>
        <time>2019-04-20T07:16:19Z</time>
      </trkpt>
      <trkpt lat="43.54427" lon="5.89325">
        <ele>349.8</ele>
        <time>2019-04-20T07:16:26Z</time>
      </trkpt>
      <trkpt lat="43.54443" lon="5.89336">
        <ele>348.22</ele>
        <time>2019-04-20T07:16:33Z</time>
      </trkpt>
      <trkpt lat="43.54463" lon="5.89328">
        <ele>347.49</ele>
        <time>2019-04-20T07:16:39Z</time>
      </trkpt>
      <trkpt lat="43.54481" lon="5.89316">
        <ele>347.25</ele>
        <time>2019-04-20T07:16:45Z</time>
      </trkpt>
      <trkpt lat="43.54499" lon="5.89307">
        <ele>348.2</ele>
        <time>2019-04-20T07:16:51Z</time>
      </trkpt>
      <trkpt lat="43.54519" lon="5.8931">
        <ele>351.35</ele>
        <time>2019-04-20T07:16:58Z</time>
      </trkpt>
      <trkpt lat="43.54536" lon="5.89318">
        <ele>356.4</ele>
        <time>2019-04-20T07:17:03Z</time>
      </trkpt>
      <trkpt lat="43.54555" lon="5.89321">
        <ele>360.59</ele>
        <time>2019-04-20T07:17:07Z</time>
      </trkpt>
      <trkpt lat="43.54574" lon="5.89323">
        <ele>365.55</ele>
        <time>2019-04-20T07:17:11Z</time>
      </trkpt>
      <trkpt lat="43.54593" lon="5.89326">
        <ele>368.21</ele>
        <time>2019-04-20T07:17:16Z</time>
      </trkpt>
      <trkpt lat="43.54612" lon="5.89321">
        <ele>371.49</ele>
        <time>2019-04-20T07:17:20Z</time>
      </trkpt>
      <trkpt lat="43.5463" lon="5.89313">
        <ele>372.8</ele>
        <time>2019-04-20T07:17:25Z</time>
      </trkpt>
      <trkpt lat="43.54648" lon="5.89304">
        <ele>375.54</ele>
        <time>2019-04-20T07:17:30Z</time>
      </trkpt>
      <trkpt lat="43.54665" lon="5.89294">
        <ele>377.82</ele>
        <time>2019-04-20T07:17:36Z</time>
      </trkpt>
      <trkpt lat="43.54682" lon="5.89282">
        <ele>380.37</ele>
        <time>2019-04-20T07:17:42Z</time>
      </trkpt>
      <trkpt lat="43.54701" lon="5.89274">
        <ele>382.64</ele>
        <time>2019-04-20T07:17:48Z</time>
      </trkpt>
      <trkpt lat="43.54719" lon="5.89268">
        <ele>383.22</ele>
        <time>2019-04-20T07:17:54Z</time>
      </trkpt>
      <trkpt lat="43.54738" lon="5.89264">
        <ele>384.24</ele>
        <time>2019-04-20T07:18:01Z</time>
      </trkpt>
      <trkpt lat="43.54756" lon="5.8926">
        <ele>382.98</ele>
        <time>2019-04-20T07:18:08Z</time>
      </trkpt>
      <trkpt lat="43.54776" lon="5.89255">
        <ele>379.8</ele>
        <time>2019-04-20T07:18:16Z</time>
      </trkpt>
      <trkpt lat="43.54795" lon="5.8925">
        <ele>377.3</ele>
        <time>2019-04-20T07:18:24Z</time>
      </trkpt>
      <trkpt lat="43.54814" lon="5.89247">
        <ele>376.59</ele>
        <time>2019-04-20T07:18:32Z</time>
      </trkpt>
      <trkpt lat="43.54834" lon="5.89242">
        <ele>378.84</ele>
        <time>2019-04-20T07:18:40Z</time>
      </trkpt>
      <trkpt lat="43.54853" lon="5.8924">
        <ele>379.43</ele>
        <time>2019-04-20T07:18:48Z</time>
      </trkpt>
      <trkpt lat="43.54873" lon="5.89239">
        <ele>378.6</ele>
        <time>2019-04-20T07:18:56Z</time>
      </trkpt>
      <trkpt lat="43.54892" lon="5.89242">
        <ele>376.53</ele>
        <time>2019-04-20T07:19:05Z</time>
      </trkpt>
      <trkpt lat="43.54913" lon="5.89246">
        <ele>374.56</ele>
        <time>2019-04-20T07:19:15Z</time>
      </trkpt>
      <trkpt lat="43.54932" lon="5.89243">
        <ele>373.42</ele>
        <time>2019-04-20T07:19:25Z</time>
      </trkpt>
      <trkpt lat="43.5495" lon="5.89238">
        <ele>373</ele>
        <time>2019-04-20T07:19:35Z</time>
      </trkpt>
      <trkpt lat="43.5497" lon="5.89237">
        <ele>373.14</ele>
        <time>2019-04-20T07:19:45Z</time>
      </trkpt>
      <trkpt lat="43.54991" lon="5.89237">
        <ele>375.91</ele>
        <time>2019-04-20T07:19:54Z</time>
      </trkpt>
      <trkpt lat="43.55009" lon="5.89247">
        <ele>376</ele>
        <time>2019-04-20T07:20:03Z</time>
      </trkpt>
      <trkpt lat="43.55029" lon="5.89257">
        <ele>377.74</ele>
        <time>2019-04-20T07:20:12Z</time>
      </trkpt>
      <trkpt lat="43.55047" lon="5.89266">
        <ele>377.88</ele>
        <time>2019-04-20T07:20:20Z</time>
      </trkpt>
      <trkpt lat="43.55066" lon="5.89274">
        <ele>378.4</ele>
        <time>2019-04-20T07:20:27Z</time>
      </trkpt>
      <trkpt lat="43.55083" lon="5.89281">
        <ele>380.99</ele>
        <time>2019-04-20T07:20:34Z</time>
      </trkpt>
      <trkpt lat="43.55101" lon="5.89291">
        <ele>382.39</ele>
        <time>2019-04-20T07:20:41Z</time>
      </trkpt>
      <trkpt lat="43.55118" lon="5.89299">
        <ele>382.23</ele>
        <time>2019-04-20T07:20:47Z</time>
      </trkpt>
      <trkpt lat="43.55137" lon="5.89306">
        <ele>383</ele>
        <time>2019-04-20T07:20:54Z</time>
      </trkpt>
      <trkpt lat="43.55155" lon="5.89317">
        <ele>385.47</ele>
        <time>2019-04-20T07:21:03Z</time>
      </trkpt>
      <trkpt lat="43.55174" lon="5.89327">
        <ele>388.37</ele>
        <time>2019-04-20T07:21:08Z</time>
      </trkpt>
      <trkpt lat="43.55192" lon="5.89337">
        <ele>391.66</ele>
        <time>2019-04-20T07:21:13Z</time>
      </trkpt>
      <trkpt lat="43.5521" lon="5.89343">
        <ele>394.75</ele>
        <time>2019-04-20T07:21:18Z</time>
      </trkpt>
      <trkpt lat="43.55229" lon="5.89346">
        <ele>395.22</ele>
        <time>2019-04-20T07:21:23Z</time>
      </trkpt>
      <trkpt lat="43.55248" lon="5.89346">
        <ele>392.88</ele>
        <time>2019-04-20T07:21:28Z</time>
      </trkpt>
      <trkpt lat="43.55266" lon="5.8935">
        <ele>394.3</ele>
        <time>2019-04-20T07:21:33Z</time>
      </trkpt>
      <trkpt lat="43.55284" lon="5.89353">
        <ele>394.45</ele>
        <time>2019-04-20T07:21:38Z</time>
      </trkpt>
      <trkpt lat="43.55303" lon="5.89349">
        <ele>394.25</ele>
        <time>2019-04-20T07:21:44Z</time>
      </trkpt>
      <trkpt lat="43.55321" lon="5.89344">
        <ele>395.21</ele>
        <time>2019-04-20T07:21:51Z</time>
      </trkpt>
      <trkpt lat="43.55339" lon="5.89333">
        <ele>397.6</ele>
        <time>2019-04-20T07:21:58Z</time>
      </trkpt>
      <trkpt lat="43.55357" lon="5.8933">
        <ele>401.26</ele>
        <time>2019-04-20T07:22:04Z</time>
      </trkpt>
      <trkpt lat="43.55376" lon="5.89325">
        <ele>406.27</ele>
        <time>2019-04-20T07:22:10Z</time>
      </trkpt>
      <trkpt lat="43.55395" lon="5.89316">
        <ele>408.5</ele>
        <time>2019-04-20T07:22:16Z</time>
      </trkpt>
      <trkpt lat="43.55414" lon="5.89309">
        <ele>409.72</ele>
        <time>2019-04-20T07:22:23Z</time>
      </trkpt>
      <trkpt lat="43.55431" lon="5.89302">
        <ele>411.25</ele>
        <time>2019-04-20T07:23:07Z</time>
      </trkpt>
      <trkpt lat="43.5545" lon="5.89292">
        <ele>412.16</ele>
        <time>2019-04-20T07:23:17Z</time>
      </trkpt>
      <trkpt lat="43.55468" lon="5.89281">
        <ele>413.64</ele>
        <time>2019-04-20T07:23:25Z</time>
      </trkpt>
      <trkpt lat="43.55487" lon="5.89273">
        <ele>415.1</ele>
        <time>2019-04-20T07:23:32Z</time>
      </trkpt>
      <trkpt lat="43.55505" lon="5.89266">
        <ele>416.35</ele>
        <time>2019-04-20T07:23:38Z</time>
      </trkpt>
      <trkpt lat="43.55524" lon="5.89258">
        <ele>418.1</ele>
        <time>2019-04-20T07:23:44Z</time>
      </trkpt>
      <trkpt lat="43.55543" lon="5.89251">
        <ele>420.04</ele>
        <time>2019-04-20T07:23:50Z</time>
      </trkpt>
      <trkpt lat="43.55561" lon="5.89243">
        <ele>419.7</ele>
        <time>2019-04-20T07:23:56Z</time>
      </trkpt>
      <trkpt lat="43.55579" lon="5.89233">
        <ele>419.47</ele>
        <time>2019-04-20T07:24:02Z</time>
      </trkpt>
      <trkpt lat="43.55596" lon="5.89221">
        <ele>419.37</ele>
        <time>2019-04-20T07:24:08Z</time>
      </trkpt>
      <trkpt lat="43.55613" lon="5.89209">
        <ele>419.05</ele>
        <time>2019-04-20T07:24:14Z</time>
      </trkpt>
      <trkpt lat="43.55632" lon="5.892">
        <ele>419.53</ele>
        <time>2019-04-20T07:24:20Z</time>
      </trkpt>
      <trkpt lat="43.5565" lon="5.89192">
        <ele>419.61</ele>
        <time>2019-04-20T07:24:27Z</time>
      </trkpt>
      <trkpt lat="43.55668" lon="5.89186">
        <ele>419.89</ele>
        <time>2019-04-20T07:24:33Z</time>
      </trkpt>
      <trkpt lat="43.55687" lon="5.89175">
        <ele>420.14</ele>
        <time>2019-04-20T07:24:39Z</time>
      </trkpt>
      <trkpt lat="43.55705" lon="5.89163">
        <ele>420.47</ele>
        <time>2019-04-20T07:24:45Z</time>
      </trkpt>
      <trkpt lat="43.55724" lon="5.89153">
        <ele>421.64</ele>
        <time>2019-04-20T07:24:51Z</time>
      </trkpt>
      <trkpt lat="43.55741" lon="5.89145">
        <ele>422.37</ele>
        <time>2019-04-20T07:24:57Z</time>
      </trkpt>
      <trkpt lat="43.55758" lon="5.89136">
        <ele>423.1</ele>
        <time>2019-04-20T07:25:03Z</time>
      </trkpt>
      <trkpt lat="43.55776" lon="5.8913">
        <ele>424.42</ele>
        <time>2019-04-20T07:25:09Z</time>
      </trkpt>
      <trkpt lat="43.55797" lon="5.89122">
        <ele>424.87</ele>
        <time>2019-04-20T07:25:15Z</time>
      </trkpt>
      <trkpt lat="43.55814" lon="5.89108">
        <ele>416.95</ele>
        <time>2019-04-20T07:25:21Z</time>
      </trkpt>
      <trkpt lat="43.55833" lon="5.89102">
        <ele>415.47</ele>
        <time>2019-04-20T07:25:27Z</time>
      </trkpt>
      <trkpt lat="43.55852" lon="5.89094">
        <ele>415.86</ele>
        <time>2019-04-20T07:25:33Z</time>
      </trkpt>
      <trkpt lat="43.55871" lon="5.89087">
        <ele>416.52</ele>
        <time>2019-04-20T07:25:39Z</time>
      </trkpt>
      <trkpt lat="43.55889" lon="5.89077">
        <ele>417.04</ele>
        <time>2019-04-20T07:25:46Z</time>
      </trkpt>
      <trkpt lat="43.55908" lon="5.89068">
        <ele>417.82</ele>
        <time>2019-04-20T07:25:52Z</time>
      </trkpt>
      <trkpt lat="43.55926" lon="5.89063">
        <ele>418.9</ele>
        <time>2019-04-20T07:25:58Z</time>
      </trkpt>
      <trkpt lat="43.55944" lon="5.89053">
        <ele>420.31</ele>
        <time>2019-04-20T07:26:04Z</time>
      </trkpt>
      <trkpt lat="43.55962" lon="5.89043">
        <ele>422.19</ele>
        <time>2019-04-20T07:26:10Z</time>
      </trkpt>
      <trkpt lat="43.55979" lon="5.89035">
        <ele>424.37</ele>
        <time>2019-04-20T07:26:16Z</time>
      </trkpt>
      <trkpt lat="43.55998" lon="5.89025">
        <ele>425.54</ele>
        <time>2019-04-20T07:26:22Z</time>
      </trkpt>
      <trkpt lat="43.56017" lon="5.89015">
        <ele>427.2</ele>
        <time>2019-04-20T07:26:29Z</time>
      </trkpt>
      <trkpt lat="43.56036" lon="5.89007">
        <ele>427.92</ele>
        <time>2019-04-20T07:26:36Z</time>
      </trkpt>
      <trkpt lat="43.56054" lon="5.88997">
        <ele>428.74</ele>
        <time>2019-04-20T07:26:43Z</time>
      </trkpt>
      <trkpt lat="43.56072" lon="5.88989">
        <ele>429.62</ele>
        <time>2019-04-20T07:26:50Z</time>
      </trkpt>
      <trkpt lat="43.5609" lon="5.88976">
        <ele>430.64</ele>
        <time>2019-04-20T07:26:57Z</time>
      </trkpt>
      <trkpt lat="43.56107" lon="5.88959">
        <ele>431.22</ele>
        <time>2019-04-20T07:27:04Z</time>
      </trkpt>
      <trkpt lat="43.56122" lon="5.8894">
        <ele>431.2</ele>
        <time>2019-04-20T07:27:10Z</time>
      </trkpt>
      <trkpt lat="43.56138" lon="5.88925">
        <ele>431.56</ele>
        <time>2019-04-20T07:27:15Z</time>
      </trkpt>
      <trkpt lat="43.56156" lon="5.88914">
        <ele>432.16</ele>
        <time>2019-04-20T07:27:23Z</time>
      </trkpt>
      <trkpt lat="43.56173" lon="5.88905">
        <ele>433.04</ele>
        <time>2019-04-20T07:27:30Z</time>
      </trkpt>
      <trkpt lat="43.56189" lon="5.8889">
        <ele>434.24</ele>
        <time>2019-04-20T07:27:36Z</time>
      </trkpt>
      <trkpt lat="43.56204" lon="5.88873">
        <ele>435.06</ele>
        <time>2019-04-20T07:27:42Z</time>
      </trkpt>
      <trkpt lat="43.5622" lon="5.88853">
        <ele>435.14</ele>
        <time>2019-04-20T07:27:47Z</time>
      </trkpt>
      <trkpt lat="43.56235" lon="5.88835">
        <ele>435.23</ele>
        <time>2019-04-20T07:27:57Z</time>
      </trkpt>
      <trkpt lat="43.56251" lon="5.88818">
        <ele>435.77</ele>
        <time>2019-04-20T07:28:02Z</time>
      </trkpt>
      <trkpt lat="43.56266" lon="5.88803">
        <ele>435.59</ele>
        <time>2019-04-20T07:28:06Z</time>
      </trkpt>
      <trkpt lat="43.56281" lon="5.88789">
        <ele>435.79</ele>
        <time>2019-04-20T07:28:10Z</time>
      </trkpt>
      <trkpt lat="43.56296" lon="5.88775">
        <ele>436.34</ele>
        <time>2019-04-20T07:28:15Z</time>
      </trkpt>
      <trkpt lat="43.56309" lon="5.88758">
        <ele>436.54</ele>
        <time>2019-04-20T07:28:20Z</time>
      </trkpt>
      <trkpt lat="43.56322" lon="5.8874">
        <ele>437.37</ele>
        <time>2019-04-20T07:28:24Z</time>
      </trkpt>
      <trkpt lat="43.56332" lon="5.88719">
        <ele>438.4</ele>
        <time>2019-04-20T07:28:28Z</time>
      </trkpt>
      <trkpt lat="43.56345" lon="5.88702">
        <ele>438.87</ele>
        <time>2019-04-20T07:28:33Z</time>
      </trkpt>
      <trkpt lat="43.56362" lon="5.88694">
        <ele>440.04</ele>
        <time>2019-04-20T07:28:38Z</time>
      </trkpt>
      <trkpt lat="43.5638" lon="5.88684">
        <ele>440.7</ele>
        <time>2019-04-20T07:28:43Z</time>
      </trkpt>
      <trkpt lat="43.56399" lon="5.88678">
        <ele>442.09</ele>
        <time>2019-04-20T07:28:50Z</time>
      </trkpt>
      <trkpt lat="43.56418" lon="5.88675">
        <ele>440.92</ele>
        <time>2019-04-20T07:28:56Z</time>
      </trkpt>
      <trkpt lat="43.56436" lon="5.88671">
        <ele>442.41</ele>
        <time>2019-04-20T07:29:02Z</time>
      </trkpt>
      <trkpt lat="43.56453" lon="5.88657">
        <ele>440.95</ele>
        <time>2019-04-20T07:29:08Z</time>
      </trkpt>
      <trkpt lat="43.56466" lon="5.88638">
        <ele>440.65</ele>
        <time>2019-04-20T07:29:14Z</time>
      </trkpt>
      <trkpt lat="43.56455" lon="5.88614">
        <ele>444.42</ele>
        <time>2019-04-20T07:29:20Z</time>
      </trkpt>
      <trkpt lat="43.56448" lon="5.88591">
        <ele>446.16</ele>
        <time>2019-04-20T07:29:26Z</time>
      </trkpt>
      <trkpt lat="43.56429" lon="5.88579">
        <ele>445.37</ele>
        <time>2019-04-20T07:29:32Z</time>
      </trkpt>
      <trkpt lat="43.56418" lon="5.88556">
        <ele>444.53</ele>
        <time>2019-04-20T07:29:39Z</time>
      </trkpt>
      <trkpt lat="43.56411" lon="5.88531">
        <ele>443.53</ele>
        <time>2019-04-20T07:29:48Z</time>
      </trkpt>
      <trkpt lat="43.56405" lon="5.88509">
        <ele>477</ele>
        <time>2019-04-20T07:32:39Z</time>
      </trkpt>
      <trkpt lat="43.56404" lon="5.88478">
        <ele>440.2</ele>
        <time>2019-04-20T07:32:50Z</time>
      </trkpt>
      <trkpt lat="43.56411" lon="5.88451">
        <ele>439.16</ele>
        <time>2019-04-20T07:33:01Z</time>
      </trkpt>
      <trkpt lat="43.56416" lon="5.88425">
        <ele>437.37</ele>
        <time>2019-04-20T07:33:07Z</time>
      </trkpt>
      <trkpt lat="43.56422" lon="5.88399">
        <ele>435.47</ele>
        <time>2019-04-20T07:33:13Z</time>
      </trkpt>
      <trkpt lat="43.56436" lon="5.88375">
        <ele>433.92</ele>
        <time>2019-04-20T07:33:21Z</time>
      </trkpt>
      <trkpt lat="43.56447" lon="5.88347">
        <ele>433.49</ele>
        <time>2019-04-20T07:33:30Z</time>
      </trkpt>
      <trkpt lat="43.56454" lon="5.88322">
        <ele>433.74</ele>
        <time>2019-04-20T07:33:38Z</time>
      </trkpt>
      <trkpt lat="43.56464" lon="5.88299">
        <ele>434.32</ele>
        <time>2019-04-20T07:33:46Z</time>
      </trkpt>
      <trkpt lat="43.56472" lon="5.88275">
        <ele>435.44</ele>
        <time>2019-04-20T07:33:53Z</time>
      </trkpt>
      <trkpt lat="43.56473" lon="5.88247">
        <ele>436.01</ele>
        <time>2019-04-20T07:34:00Z</time>
      </trkpt>
      <trkpt lat="43.56476" lon="5.88219">
        <ele>434.46</ele>
        <time>2019-04-20T07:34:06Z</time>
      </trkpt>
      <trkpt lat="43.56472" lon="5.88193">
        <ele>432.2</ele>
        <time>2019-04-20T07:34:12Z</time>
      </trkpt>
      <trkpt lat="43.56454" lon="5.8818">
        <ele>432.79</ele>
        <time>2019-04-20T07:34:18Z</time>
      </trkpt>
      <trkpt lat="43.56444" lon="5.88156">
        <ele>434.26</ele>
        <time>2019-04-20T07:34:24Z</time>
      </trkpt>
      <trkpt lat="43.56447" lon="5.88128">
        <ele>433.65</ele>
        <time>2019-04-20T07:34:29Z</time>
      </trkpt>
      <trkpt lat="43.56454" lon="5.88105">
        <ele>433.95</ele>
        <time>2019-04-20T07:34:33Z</time>
      </trkpt>
      <trkpt lat="43.56463" lon="5.88083">
        <ele>433.7</ele>
        <time>2019-04-20T07:34:38Z</time>
      </trkpt>
      <trkpt lat="43.56479" lon="5.88063">
        <ele>434.24</ele>
        <time>2019-04-20T07:34:46Z</time>
      </trkpt>
      <trkpt lat="43.56494" lon="5.88049">
        <ele>435.06</ele>
        <time>2019-04-20T07:34:51Z</time>
      </trkpt>
      <trkpt lat="43.56514" lon="5.88047">
        <ele>436.61</ele>
        <time>2019-04-20T07:34:56Z</time>
      </trkpt>
      <trkpt lat="43.56532" lon="5.88044">
        <ele>437.33</ele>
        <time>2019-04-20T07:35:01Z</time>
      </trkpt>
      <trkpt lat="43.56551" lon="5.88048">
        <ele>431.86</ele>
        <time>2019-04-20T07:35:06Z</time>
      </trkpt>
      <trkpt lat="43.56563" lon="5.88068">
        <ele>434.08</ele>
        <time>2019-04-20T07:35:13Z</time>
      </trkpt>
      <trkpt lat="43.56556" lon="5.88091">
        <ele>438.48</ele>
        <time>2019-04-20T07:35:21Z</time>
      </trkpt>
      <trkpt lat="43.56557" lon="5.88119">
        <ele>442.65</ele>
        <time>2019-04-20T07:35:28Z</time>
      </trkpt>
      <trkpt lat="43.56564" lon="5.88146">
        <ele>445.2</ele>
        <time>2019-04-20T07:35:34Z</time>
      </trkpt>
      <trkpt lat="43.56582" lon="5.88155">
        <ele>445.86</ele>
        <time>2019-04-20T07:35:39Z</time>
      </trkpt>
      <trkpt lat="43.56599" lon="5.88162">
        <ele>448.74</ele>
        <time>2019-04-20T07:35:43Z</time>
      </trkpt>
      <trkpt lat="43.56615" lon="5.88178">
        <ele>449.79</ele>
        <time>2019-04-20T07:35:47Z</time>
      </trkpt>
      <trkpt lat="43.56616" lon="5.88206">
        <ele>451.19</ele>
        <time>2019-04-20T07:35:51Z</time>
      </trkpt>
      <trkpt lat="43.56616" lon="5.88232">
        <ele>451.42</ele>
        <time>2019-04-20T07:35:55Z</time>
      </trkpt>
      <trkpt lat="43.56613" lon="5.88261">
        <ele>452.7</ele>
        <time>2019-04-20T07:35:59Z</time>
      </trkpt>
      <trkpt lat="43.56608" lon="5.88289">
        <ele>452.59</ele>
        <time>2019-04-20T07:36:03Z</time>
      </trkpt>
      <trkpt lat="43.56603" lon="5.88314">
        <ele>452.46</ele>
        <time>2019-04-20T07:36:08Z</time>
      </trkpt>
      <trkpt lat="43.56604" lon="5.88341">
        <ele>453.7</ele>
        <time>2019-04-20T07:36:12Z</time>
      </trkpt>
      <trkpt lat="43.56608" lon="5.88367">
        <ele>447.1</ele>
        <time>2019-04-20T07:36:16Z</time>
      </trkpt>
      <trkpt lat="43.56608" lon="5.88394">
        <ele>443.35</ele>
        <time>2019-04-20T07:37:22Z</time>
      </trkpt>
      <trkpt lat="43.56613" lon="5.88419">
        <ele>440.21</ele>
        <time>2019-04-20T07:37:28Z</time>
      </trkpt>
      <trkpt lat="43.56624" lon="5.88441">
        <ele>439.2</ele>
        <time>2019-04-20T07:37:34Z</time>
      </trkpt>
      <trkpt lat="43.56621" lon="5.88468">
        <ele>436.04</ele>
        <time>2019-04-20T07:37:41Z</time>
      </trkpt>
      <trkpt lat="43.56618" lon="5.88497">
        <ele>434.37</ele>
        <time>2019-04-20T07:37:47Z</time>
      </trkpt>
      <trkpt lat="43.56617" lon="5.88525">
        <ele>432.47</ele>
        <time>2019-04-20T07:37:54Z</time>
      </trkpt>
      <trkpt lat="43.56624" lon="5.88549">
        <ele>431</ele>
        <time>2019-04-20T07:38:00Z</time>
      </trkpt>
      <trkpt lat="43.56641" lon="5.88561">
        <ele>430.55</ele>
        <time>2019-04-20T07:38:06Z</time>
      </trkpt>
      <trkpt lat="43.56661" lon="5.88566">
        <ele>432.9</ele>
        <time>2019-04-20T07:38:12Z</time>
      </trkpt>
      <trkpt lat="43.5668" lon="5.88566">
        <ele>437.54</ele>
        <time>2019-04-20T07:38:18Z</time>
      </trkpt>
      <trkpt lat="43.56699" lon="5.88557">
        <ele>440.94</ele>
        <time>2019-04-20T07:38:24Z</time>
      </trkpt>
      <trkpt lat="43.5672" lon="5.88548">
        <ele>443.48</ele>
        <time>2019-04-20T07:38:30Z</time>
      </trkpt>
      <trkpt lat="43.56741" lon="5.88537">
        <ele>444.77</ele>
        <time>2019-04-20T07:38:37Z</time>
      </trkpt>
      <trkpt lat="43.56761" lon="5.88526">
        <ele>446.39</ele>
        <time>2019-04-20T07:38:45Z</time>
      </trkpt>
      <trkpt lat="43.5678" lon="5.88516">
        <ele>448.07</ele>
        <time>2019-04-20T07:38:53Z</time>
      </trkpt>
      <trkpt lat="43.56799" lon="5.88508">
        <ele>449.65</ele>
        <time>2019-04-20T07:39:00Z</time>
      </trkpt>
      <trkpt lat="43.56817" lon="5.88499">
        <ele>451.01</ele>
        <time>2019-04-20T07:39:05Z</time>
      </trkpt>
      <trkpt lat="43.56835" lon="5.8849">
        <ele>451.82</ele>
        <time>2019-04-20T07:39:10Z</time>
      </trkpt>
      <trkpt lat="43.56852" lon="5.88482">
        <ele>452.88</ele>
        <time>2019-04-20T07:39:17Z</time>
      </trkpt>
      <trkpt lat="43.56872" lon="5.88473">
        <ele>453.93</ele>
        <time>2019-04-20T07:39:41Z</time>
      </trkpt>
      <trkpt lat="43.56892" lon="5.88459">
        <ele>454.46</ele>
        <time>2019-04-20T07:40:28Z</time>
      </trkpt>
      <trkpt lat="43.56912" lon="5.88447">
        <ele>454.49</ele>
        <time>2019-04-20T07:40:41Z</time>
      </trkpt>
      <trkpt lat="43.56898" lon="5.88427">
        <ele>442.22</ele>
        <time>2019-04-20T07:40:51Z</time>
      </trkpt>
      <trkpt lat="43.56883" lon="5.88409">
        <ele>444.14</ele>
        <time>2019-04-20T07:41:01Z</time>
      </trkpt>
      <trkpt lat="43.56868" lon="5.88394">
        <ele>448.51</ele>
        <time>2019-04-20T07:41:09Z</time>
      </trkpt>
      <trkpt lat="43.5685" lon="5.88379">
        <ele>451.79</ele>
        <time>2019-04-20T07:41:17Z</time>
      </trkpt>
      <trkpt lat="43.56834" lon="5.88365">
        <ele>454.43</ele>
        <time>2019-04-20T07:43:25Z</time>
      </trkpt>
      <trkpt lat="43.5683" lon="5.88339">
        <ele>456.67</ele>
        <time>2019-04-20T07:43:34Z</time>
      </trkpt>
      <trkpt lat="43.56829" lon="5.88312">
        <ele>456.76</ele>
        <time>2019-04-20T07:43:44Z</time>
      </trkpt>
      <trkpt lat="43.56826" lon="5.88284">
        <ele>456.02</ele>
        <time>2019-04-20T07:43:52Z</time>
      </trkpt>
      <trkpt lat="43.56824" lon="5.88255">
        <ele>455.84</ele>
        <time>2019-04-20T07:44:00Z</time>
      </trkpt>
      <trkpt lat="43.56824" lon="5.8823">
        <ele>456.72</ele>
        <time>2019-04-20T07:44:09Z</time>
      </trkpt>
      <trkpt lat="43.56828" lon="5.88205">
        <ele>457.13</ele>
        <time>2019-04-20T07:44:16Z</time>
      </trkpt>
      <trkpt lat="43.56828" lon="5.88179">
        <ele>456.72</ele>
        <time>2019-04-20T07:44:24Z</time>
      </trkpt>
      <trkpt lat="43.56829" lon="5.88154">
        <ele>456.84</ele>
        <time>2019-04-20T07:44:31Z</time>
      </trkpt>
      <trkpt lat="43.56827" lon="5.88128">
        <ele>456.16</ele>
        <time>2019-04-20T07:44:38Z</time>
      </trkpt>
      <trkpt lat="43.56825" lon="5.88102">
        <ele>452.97</ele>
        <time>2019-04-20T07:44:45Z</time>
      </trkpt>
      <trkpt lat="43.56824" lon="5.88073">
        <ele>451</ele>
        <time>2019-04-20T07:44:51Z</time>
      </trkpt>
      <trkpt lat="43.5682" lon="5.88049">
        <ele>450.6</ele>
        <time>2019-04-20T07:44:58Z</time>
      </trkpt>
      <trkpt lat="43.5681" lon="5.88025">
        <ele>450.66</ele>
        <time>2019-04-20T07:45:04Z</time>
      </trkpt>
      <trkpt lat="43.56793" lon="5.8801">
        <ele>453.7</ele>
        <time>2019-04-20T07:45:11Z</time>
      </trkpt>
      <trkpt lat="43.56773" lon="5.87995">
        <ele>454.59</ele>
        <time>2019-04-20T07:45:17Z</time>
      </trkpt>
      <trkpt lat="43.56765" lon="5.87972">
        <ele>452.67</ele>
        <time>2019-04-20T07:45:22Z</time>
      </trkpt>
      <trkpt lat="43.5676" lon="5.87947">
        <ele>452.45</ele>
        <time>2019-04-20T07:45:27Z</time>
      </trkpt>
      <trkpt lat="43.56762" lon="5.87923">
        <ele>453.94</ele>
        <time>2019-04-20T07:45:31Z</time>
      </trkpt>
      <trkpt lat="43.56762" lon="5.87896">
        <ele>458.13</ele>
        <time>2019-04-20T07:45:36Z</time>
      </trkpt>
      <trkpt lat="43.56758" lon="5.87868">
        <ele>459.64</ele>
        <time>2019-04-20T07:45:41Z</time>
      </trkpt>
      <trkpt lat="43.5676" lon="5.87842">
        <ele>459.16</ele>
        <time>2019-04-20T07:45:47Z</time>
      </trkpt>
      <trkpt lat="43.56776" lon="5.87829">
        <ele>458.62</ele>
        <time>2019-04-20T07:45:52Z</time>
      </trkpt>
      <trkpt lat="43.56794" lon="5.87825">
        <ele>462.71</ele>
        <time>2019-04-20T07:45:57Z</time>
      </trkpt>
      <trkpt lat="43.56814" lon="5.87823">
        <ele>467.92</ele>
        <time>2019-04-20T07:46:02Z</time>
      </trkpt>
      <trkpt lat="43.56834" lon="5.87817">
        <ele>469.74</ele>
        <time>2019-04-20T07:46:07Z</time>
      </trkpt>
      <trkpt lat="43.56852" lon="5.87817">
        <ele>470.97</ele>
        <time>2019-04-20T07:46:12Z</time>
      </trkpt>
      <trkpt lat="43.5687" lon="5.87808">
        <ele>474.4</ele>
        <time>2019-04-20T07:46:17Z</time>
      </trkpt>
      <trkpt lat="43.56886" lon="5.87796">
        <ele>474.66</ele>
        <time>2019-04-20T07:46:22Z</time>
      </trkpt>
      <trkpt lat="43.56905" lon="5.87788">
        <ele>477.29</ele>
        <time>2019-04-20T07:46:28Z</time>
      </trkpt>
      <trkpt lat="43.56922" lon="5.8778">
        <ele>479.48</ele>
        <time>2019-04-20T07:46:34Z</time>
      </trkpt>
      <trkpt lat="43.56943" lon="5.87775">
        <ele>479.66</ele>
        <time>2019-04-20T07:47:20Z</time>
      </trkpt>
      <trkpt lat="43.56964" lon="5.8777">
        <ele>480.67</ele>
        <time>2019-04-20T07:47:28Z</time>
      </trkpt>
      <trkpt lat="43.56982" lon="5.87761">
        <ele>480.48</ele>
        <time>2019-04-20T07:47:35Z</time>
      </trkpt>
      <trkpt lat="43.57003" lon="5.87758">
        <ele>482.91</ele>
        <time>2019-04-20T07:47:42Z</time>
      </trkpt>
      <trkpt lat="43.57021" lon="5.87754">
        <ele>482.25</ele>
        <time>2019-04-20T07:47:48Z</time>
      </trkpt>
      <trkpt lat="43.57041" lon="5.87751">
        <ele>482.3</ele>
        <time>2019-04-20T07:47:55Z</time>
      </trkpt>
      <trkpt lat="43.57059" lon="5.87744">
        <ele>479.99</ele>
        <time>2019-04-20T07:48:02Z</time>
      </trkpt>
      <trkpt lat="43.57077" lon="5.87734">
        <ele>478.75</ele>
        <time>2019-04-20T07:48:09Z</time>
      </trkpt>
      <trkpt lat="43.57097" lon="5.87727">
        <ele>479.06</ele>
        <time>2019-04-20T07:48:24Z</time>
      </trkpt>
      <trkpt lat="43.57115" lon="5.87724">
        <ele>478.4</ele>
        <time>2019-04-20T07:52:00Z</time>
      </trkpt>
      <trkpt lat="43.57136" lon="5.87721">
        <ele>478.98</ele>
        <time>2019-04-20T07:52:08Z</time>
      </trkpt>
      <trkpt lat="43.57155" lon="5.87732">
        <ele>480.58</ele>
        <time>2019-04-20T07:52:15Z</time>
      </trkpt>
      <trkpt lat="43.5717" lon="5.87716">
        <ele>476.55</ele>
        <time>2019-04-20T07:52:22Z</time>
      </trkpt>
      <trkpt lat="43.57176" lon="5.87689">
        <ele>471.95</ele>
        <time>2019-04-20T07:52:28Z</time>
      </trkpt>
      <trkpt lat="43.57175" lon="5.87664">
        <ele>468.25</ele>
        <time>2019-04-20T07:52:35Z</time>
      </trkpt>
      <trkpt lat="43.57171" lon="5.87638">
        <ele>465.2</ele>
        <time>2019-04-20T07:52:43Z</time>
      </trkpt>
      <trkpt lat="43.57169" lon="5.87609">
        <ele>463.25</ele>
        <time>2019-04-20T07:52:50Z</time>
      </trkpt>
      <trkpt lat="43.57162" lon="5.87583">
        <ele>461.6</ele>
        <time>2019-04-20T07:52:58Z</time>
      </trkpt>
      <trkpt lat="43.57152" lon="5.87559">
        <ele>460.52</ele>
        <time>2019-04-20T07:53:06Z</time>
      </trkpt>
      <trkpt lat="43.5714" lon="5.87536">
        <ele>459.32</ele>
        <time>2019-04-20T07:53:14Z</time>
      </trkpt>
      <trkpt lat="43.57128" lon="5.8751">
        <ele>459.25</ele>
        <time>2019-04-20T07:53:23Z</time>
      </trkpt>
      <trkpt lat="43.57119" lon="5.87486">
        <ele>460.31</ele>
        <time>2019-04-20T07:53:32Z</time>
      </trkpt>
      <trkpt lat="43.57115" lon="5.87462">
        <ele>458.55</ele>
        <time>2019-04-20T07:53:48Z</time>
      </trkpt>
      <trkpt lat="43.57122" lon="5.87436">
        <ele>460.97</ele>
        <time>2019-04-20T07:53:54Z</time>
      </trkpt>
      <trkpt lat="43.5713" lon="5.8741">
        <ele>462.42</ele>
        <time>2019-04-20T07:53:58Z</time>
      </trkpt>
      <trkpt lat="43.57145" lon="5.87391">
        <ele>464.69</ele>
        <time>2019-04-20T07:54:02Z</time>
      </trkpt>
      <trkpt lat="43.57157" lon="5.87372">
        <ele>466.65</ele>
        <time>2019-04-20T07:54:06Z</time>
      </trkpt>
      <trkpt lat="43.57164" lon="5.87348">
        <ele>469.87</ele>
        <time>2019-04-20T07:54:10Z</time>
      </trkpt>
      <trkpt lat="43.57169" lon="5.87322">
        <ele>471.35</ele>
        <time>2019-04-20T07:54:13Z</time>
      </trkpt>
      <trkpt lat="43.57175" lon="5.87298">
        <ele>472.57</ele>
        <time>2019-04-20T07:54:17Z</time>
      </trkpt>
      <trkpt lat="43.57182" lon="5.87272">
        <ele>509.9</ele>
        <time>2019-04-20T07:54:23Z</time>
      </trkpt>
      <trkpt lat="43.57178" lon="5.87252">
        <ele>476.16</ele>
        <time>2019-04-20T07:54:29Z</time>
      </trkpt>
      <trkpt lat="43.57196" lon="5.87254">
        <ele>477.69</ele>
        <time>2019-04-20T07:54:36Z</time>
      </trkpt>
      <trkpt lat="43.57213" lon="5.87262">
        <ele>480.47</ele>
        <time>2019-04-20T07:54:42Z</time>
      </trkpt>
      <trkpt lat="43.5723" lon="5.87273">
        <ele>482.45</ele>
        <time>2019-04-20T07:54:48Z</time>
      </trkpt>
      <trkpt lat="43.5725" lon="5.87272">
        <ele>485.61</ele>
        <time>2019-04-20T07:54:53Z</time>
      </trkpt>
      <trkpt lat="43.57269" lon="5.87271">
        <ele>488.48</ele>
        <time>2019-04-20T07:54:58Z</time>
      </trkpt>
      <trkpt lat="43.57288" lon="5.8727">
        <ele>489.91</ele>
        <time>2019-04-20T07:55:02Z</time>
      </trkpt>
      <trkpt lat="43.57308" lon="5.87266">
        <ele>491.98</ele>
        <time>2019-04-20T07:55:07Z</time>
      </trkpt>
      <trkpt lat="43.57327" lon="5.87265">
        <ele>491.63</ele>
        <time>2019-04-20T07:55:12Z</time>
      </trkpt>
      <trkpt lat="43.57346" lon="5.8727">
        <ele>494.78</ele>
        <time>2019-04-20T07:55:16Z</time>
      </trkpt>
      <trkpt lat="43.57365" lon="5.87265">
        <ele>493.42</ele>
        <time>2019-04-20T07:55:21Z</time>
      </trkpt>
      <trkpt lat="43.57383" lon="5.87261">
        <ele>493.34</ele>
        <time>2019-04-20T07:55:26Z</time>
      </trkpt>
      <trkpt lat="43.57402" lon="5.87255">
        <ele>493.71</ele>
        <time>2019-04-20T07:55:31Z</time>
      </trkpt>
      <trkpt lat="43.5742" lon="5.87251">
        <ele>494.83</ele>
        <time>2019-04-20T07:55:36Z</time>
      </trkpt>
      <trkpt lat="43.57439" lon="5.87251">
        <ele>490.46</ele>
        <time>2019-04-20T07:56:13Z</time>
      </trkpt>
      <trkpt lat="43.57458" lon="5.87258">
        <ele>490.65</ele>
        <time>2019-04-20T07:56:19Z</time>
      </trkpt>
      <trkpt lat="43.57477" lon="5.87259">
        <ele>490.34</ele>
        <time>2019-04-20T07:56:25Z</time>
      </trkpt>
      <trkpt lat="43.57497" lon="5.87266">
        <ele>489.01</ele>
        <time>2019-04-20T07:56:31Z</time>
      </trkpt>
      <trkpt lat="43.57519" lon="5.87261">
        <ele>486.89</ele>
        <time>2019-04-20T07:56:36Z</time>
      </trkpt>
      <trkpt lat="43.57537" lon="5.87241">
        <ele>481.71</ele>
        <time>2019-04-20T07:56:41Z</time>
      </trkpt>
      <trkpt lat="43.57546" lon="5.87218">
        <ele>479.44</ele>
        <time>2019-04-20T07:56:46Z</time>
      </trkpt>
      <trkpt lat="43.5755" lon="5.87188">
        <ele>477.26</ele>
        <time>2019-04-20T07:56:52Z</time>
      </trkpt>
      <trkpt lat="43.57571" lon="5.87179">
        <ele>473.98</ele>
        <time>2019-04-20T07:56:58Z</time>
      </trkpt>
      <trkpt lat="43.57584" lon="5.87158">
        <ele>472.87</ele>
        <time>2019-04-20T07:57:03Z</time>
      </trkpt>
      <trkpt lat="43.57594" lon="5.87135">
        <ele>472.67</ele>
        <time>2019-04-20T07:57:09Z</time>
      </trkpt>
      <trkpt lat="43.57609" lon="5.87116">
        <ele>471.47</ele>
        <time>2019-04-20T07:57:46Z</time>
      </trkpt>
      <trkpt lat="43.57621" lon="5.87093">
        <ele>469.98</ele>
        <time>2019-04-20T07:57:58Z</time>
      </trkpt>
      <trkpt lat="43.57634" lon="5.87071">
        <ele>468.15</ele>
        <time>2019-04-20T07:58:09Z</time>
      </trkpt>
      <trkpt lat="43.57646" lon="5.87044">
        <ele>466.88</ele>
        <time>2019-04-20T07:58:20Z</time>
      </trkpt>
      <trkpt lat="43.57653" lon="5.8702">
        <ele>466.34</ele>
        <time>2019-04-20T07:58:31Z</time>
      </trkpt>
      <trkpt lat="43.57661" lon="5.86995">
        <ele>465.78</ele>
        <time>2019-04-20T07:58:44Z</time>
      </trkpt>
      <trkpt lat="43.57676" lon="5.86972">
        <ele>465.38</ele>
        <time>2019-04-20T07:59:01Z</time>
      </trkpt>
      <trkpt lat="43.57687" lon="5.86951">
        <ele>464.45</ele>
        <time>2019-04-20T07:59:13Z</time>
      </trkpt>
      <trkpt lat="43.57695" lon="5.86925">
        <ele>464.74</ele>
        <time>2019-04-20T07:59:24Z</time>
      </trkpt>
      <trkpt lat="43.57703" lon="5.869">
        <ele>464</ele>
        <time>2019-04-20T07:59:34Z</time>
      </trkpt>
      <trkpt lat="43.57717" lon="5.86876">
        <ele>463.55</ele>
        <time>2019-04-20T07:59:47Z</time>
      </trkpt>
      <trkpt lat="43.57725" lon="5.86854">
        <ele>463.67</ele>
        <time>2019-04-20T08:00:09Z</time>
      </trkpt>
      <trkpt lat="43.57734" lon="5.8683">
        <ele>463.56</ele>
        <time>2019-04-20T08:00:26Z</time>
      </trkpt>
      <trkpt lat="43.57742" lon="5.86807">
        <ele>464.42</ele>
        <time>2019-04-20T08:00:39Z</time>
      </trkpt>
      <trkpt lat="43.5775" lon="5.8678">
        <ele>465.51</ele>
        <time>2019-04-20T08:00:49Z</time>
      </trkpt>
      <trkpt lat="43.57758" lon="5.86757">
        <ele>467.11</ele>
        <time>2019-04-20T08:00:54Z</time>
      </trkpt>
      <trkpt lat="43.57766" lon="5.86734">
        <ele>466.55</ele>
        <time>2019-04-20T08:00:59Z</time>
      </trkpt>
      <trkpt lat="43.57775" lon="5.86712">
        <ele>465.84</ele>
        <time>2019-04-20T08:01:05Z</time>
      </trkpt>
      <trkpt lat="43.5778" lon="5.86688">
        <ele>465.04</ele>
        <time>2019-04-20T08:01:13Z</time>
      </trkpt>
      <trkpt lat="43.57789" lon="5.86662">
        <ele>464.42</ele>
        <time>2019-04-20T08:01:20Z</time>
      </trkpt>
      <trkpt lat="43.57798" lon="5.86637">
        <ele>465.76</ele>
        <time>2019-04-20T08:01:28Z</time>
      </trkpt>
      <trkpt lat="43.57806" lon="5.86615">
        <ele>464.97</ele>
        <time>2019-04-20T08:01:37Z</time>
      </trkpt>
      <trkpt lat="43.57817" lon="5.86593">
        <ele>464.09</ele>
        <time>2019-04-20T08:01:40Z</time>
      </trkpt>
      <trkpt lat="43.57808" lon="5.8657">
        <ele>462.52</ele>
        <time>2019-04-20T08:01:44Z</time>
      </trkpt>
      <trkpt lat="43.57791" lon="5.86561">
        <ele>466.53</ele>
        <time>2019-04-20T08:01:50Z</time>
      </trkpt>
      <trkpt lat="43.57782" lon="5.86538">
        <ele>468.42</ele>
        <time>2019-04-20T08:02:55Z</time>
      </trkpt>
      <trkpt lat="43.57769" lon="5.8652">
        <ele>470.66</ele>
        <time>2019-04-20T08:04:10Z</time>
      </trkpt>
      <trkpt lat="43.57759" lon="5.86499">
        <ele>473.22</ele>
        <time>2019-04-20T08:04:17Z</time>
      </trkpt>
      <trkpt lat="43.5775" lon="5.86477">
        <ele>476.19</ele>
        <time>2019-04-20T08:04:23Z</time>
      </trkpt>
      <trkpt lat="43.57733" lon="5.86466">
        <ele>484.14</ele>
        <time>2019-04-20T08:04:28Z</time>
      </trkpt>
      <trkpt lat="43.57716" lon="5.86454">
        <ele>489.84</ele>
        <time>2019-04-20T08:04:32Z</time>
      </trkpt>
      <trkpt lat="43.57698" lon="5.86447">
        <ele>494.61</ele>
        <time>2019-04-20T08:04:36Z</time>
      </trkpt>
      <trkpt lat="43.57682" lon="5.86433">
        <ele>496.74</ele>
        <time>2019-04-20T08:04:40Z</time>
      </trkpt>
      <trkpt lat="43.57671" lon="5.86413">
        <ele>498.69</ele>
        <time>2019-04-20T08:04:44Z</time>
      </trkpt>
      <trkpt lat="43.57652" lon="5.86408">
        <ele>503.61</ele>
        <time>2019-04-20T08:04:49Z</time>
      </trkpt>
      <trkpt lat="43.57633" lon="5.86413">
        <ele>508.21</ele>
        <time>2019-04-20T08:04:54Z</time>
      </trkpt>
      <trkpt lat="43.57614" lon="5.86422">
        <ele>511.92</ele>
        <time>2019-04-20T08:04:59Z</time>
      </trkpt>
      <trkpt lat="43.57598" lon="5.8644">
        <ele>514.96</ele>
        <time>2019-04-20T08:07:49Z</time>
      </trkpt>
      <trkpt lat="43.57584" lon="5.86457">
        <ele>515.04</ele>
        <time>2019-04-20T08:08:16Z</time>
      </trkpt>
      <trkpt lat="43.57572" lon="5.86476">
        <ele>511.52</ele>
        <time>2019-04-20T08:08:22Z</time>
      </trkpt>
      <trkpt lat="43.5756" lon="5.86496">
        <ele>506.67</ele>
        <time>2019-04-20T08:08:27Z</time>
      </trkpt>
      <trkpt lat="43.57546" lon="5.86511">
        <ele>501.88</ele>
        <time>2019-04-20T08:08:31Z</time>
      </trkpt>
      <trkpt lat="43.57532" lon="5.86528">
        <ele>499.56</ele>
        <time>2019-04-20T08:08:35Z</time>
      </trkpt>
      <trkpt lat="43.57522" lon="5.8655">
        <ele>501.41</ele>
        <time>2019-04-20T08:08:39Z</time>
      </trkpt>
      <trkpt lat="43.57511" lon="5.86572">
        <ele>504.1</ele>
        <time>2019-04-20T08:08:44Z</time>
      </trkpt>
      <trkpt lat="43.57492" lon="5.86578">
        <ele>503.84</ele>
        <time>2019-04-20T08:08:48Z</time>
      </trkpt>
      <trkpt lat="43.57478" lon="5.86596">
        <ele>500.93</ele>
        <time>2019-04-20T08:08:52Z</time>
      </trkpt>
      <trkpt lat="43.5747" lon="5.86619">
        <ele>496.2</ele>
        <time>2019-04-20T08:08:55Z</time>
      </trkpt>
      <trkpt lat="43.57456" lon="5.86639">
        <ele>480.15</ele>
        <time>2019-04-20T08:08:59Z</time>
      </trkpt>
      <trkpt lat="43.57447" lon="5.86615">
        <ele>477.51</ele>
        <time>2019-04-20T08:09:02Z</time>
      </trkpt>
      <trkpt lat="43.5744" lon="5.8659">
        <ele>476.7</ele>
        <time>2019-04-20T08:09:05Z</time>
      </trkpt>
      <trkpt lat="43.57434" lon="5.86563">
        <ele>475.83</ele>
        <time>2019-04-20T08:09:08Z</time>
      </trkpt>
      <trkpt lat="43.57428" lon="5.86538">
        <ele>475.21</ele>
        <time>2019-04-20T08:09:11Z</time>
      </trkpt>
      <trkpt lat="43.57423" lon="5.86511">
        <ele>475.14</ele>
        <time>2019-04-20T08:09:14Z</time>
      </trkpt>
      <trkpt lat="43.57415" lon="5.86484">
        <ele>475.2</ele>
        <time>2019-04-20T08:09:19Z</time>
      </trkpt>
      <trkpt lat="43.57407" lon="5.86459">
        <ele>475.91</ele>
        <time>2019-04-20T08:09:23Z</time>
      </trkpt>
      <trkpt lat="43.57401" lon="5.86435">
        <ele>477.37</ele>
        <time>2019-04-20T08:09:27Z</time>
      </trkpt>
      <trkpt lat="43.57394" lon="5.86407">
        <ele>479.03</ele>
        <time>2019-04-20T08:09:30Z</time>
      </trkpt>
      <trkpt lat="43.57387" lon="5.86382">
        <ele>479.46</ele>
        <time>2019-04-20T08:09:33Z</time>
      </trkpt>
      <trkpt lat="43.57379" lon="5.86358">
        <ele>480.32</ele>
        <time>2019-04-20T08:09:36Z</time>
      </trkpt>
      <trkpt lat="43.5737" lon="5.86337">
        <ele>480.77</ele>
        <time>2019-04-20T08:09:39Z</time>
      </trkpt>
      <trkpt lat="43.57357" lon="5.86318">
        <ele>481.18</ele>
        <time>2019-04-20T08:09:45Z</time>
      </trkpt>
      <trkpt lat="43.57347" lon="5.86294">
        <ele>482.51</ele>
        <time>2019-04-20T08:09:51Z</time>
      </trkpt>
      <trkpt lat="43.57335" lon="5.8627">
        <ele>483.97</ele>
        <time>2019-04-20T08:09:55Z</time>
      </trkpt>
      <trkpt lat="43.57325" lon="5.86247">
        <ele>483.28</ele>
        <time>2019-04-20T08:09:59Z</time>
      </trkpt>
      <trkpt lat="43.57315" lon="5.86224">
        <ele>482.85</ele>
        <time>2019-04-20T08:10:06Z</time>
      </trkpt>
      <trkpt lat="43.57305" lon="5.86203">
        <ele>482.87</ele>
        <time>2019-04-20T08:10:10Z</time>
      </trkpt>
      <trkpt lat="43.57293" lon="5.86176">
        <ele>481.87</ele>
        <time>2019-04-20T08:10:14Z</time>
      </trkpt>
      <trkpt lat="43.57281" lon="5.86152">
        <ele>480.8</ele>
        <time>2019-04-20T08:10:19Z</time>
      </trkpt>
      <trkpt lat="43.57268" lon="5.86125">
        <ele>479.48</ele>
        <time>2019-04-20T08:10:24Z</time>
      </trkpt>
      <trkpt lat="43.57257" lon="5.86103">
        <ele>478.25</ele>
        <time>2019-04-20T08:10:30Z</time>
      </trkpt>
      <trkpt lat="43.57243" lon="5.86075">
        <ele>477.07</ele>
        <time>2019-04-20T08:10:36Z</time>
      </trkpt>
      <trkpt lat="43.57232" lon="5.86051">
        <ele>475.61</ele>
        <time>2019-04-20T08:12:12Z</time>
      </trkpt>
      <trkpt lat="43.57221" lon="5.86027">
        <ele>473.93</ele>
        <time>2019-04-20T08:12:21Z</time>
      </trkpt>
      <trkpt lat="43.5721" lon="5.86005">
        <ele>472.98</ele>
        <time>2019-04-20T08:12:28Z</time>
      </trkpt>
      <trkpt lat="43.57199" lon="5.85983">
        <ele>472.38</ele>
        <time>2019-04-20T08:12:34Z</time>
      </trkpt>
      <trkpt lat="43.57189" lon="5.85958">
        <ele>471.08</ele>
        <time>2019-04-20T08:12:39Z</time>
      </trkpt>
      <trkpt lat="43.57172" lon="5.85943">
        <ele>469.44</ele>
        <time>2019-04-20T08:12:44Z</time>
      </trkpt>
      <trkpt lat="43.57154" lon="5.85955">
        <ele>466.96</ele>
        <time>2019-04-20T08:13:02Z</time>
      </trkpt>
      <trkpt lat="43.57136" lon="5.85974">
        <ele>464.44</ele>
        <time>2019-04-20T08:13:10Z</time>
      </trkpt>
      <trkpt lat="43.57126" lon="5.85995">
        <ele>462.48</ele>
        <time>2019-04-20T08:13:15Z</time>
      </trkpt>
      <trkpt lat="43.57122" lon="5.8602">
        <ele>460.25</ele>
        <time>2019-04-20T08:13:20Z</time>
      </trkpt>
      <trkpt lat="43.57112" lon="5.86042">
        <ele>457.63</ele>
        <time>2019-04-20T08:13:24Z</time>
      </trkpt>
      <trkpt lat="43.57101" lon="5.86061">
        <ele>454.93</ele>
        <time>2019-04-20T08:13:28Z</time>
      </trkpt>
      <trkpt lat="43.57086" lon="5.86077">
        <ele>452.61</ele>
        <time>2019-04-20T08:13:33Z</time>
      </trkpt>
      <trkpt lat="43.57076" lon="5.8605">
        <ele>451.6</ele>
        <time>2019-04-20T08:13:38Z</time>
      </trkpt>
      <trkpt lat="43.57071" lon="5.86024">
        <ele>450.58</ele>
        <time>2019-04-20T08:13:47Z</time>
      </trkpt>
      <trkpt lat="43.57065" lon="5.85997">
        <ele>448.24</ele>
        <time>2019-04-20T08:13:59Z</time>
      </trkpt>
      <trkpt lat="43.57043" lon="5.85993">
        <ele>443.58</ele>
        <time>2019-04-20T08:14:08Z</time>
      </trkpt>
      <trkpt lat="43.57023" lon="5.86002">
        <ele>440.5</ele>
        <time>2019-04-20T08:14:15Z</time>
      </trkpt>
      <trkpt lat="43.57003" lon="5.86012">
        <ele>437.64</ele>
        <time>2019-04-20T08:14:20Z</time>
      </trkpt>
      <trkpt lat="43.56983" lon="5.86022">
        <ele>436.04</ele>
        <time>2019-04-20T08:14:27Z</time>
      </trkpt>
      <trkpt lat="43.56967" lon="5.86037">
        <ele>436.32</ele>
        <time>2019-04-20T08:14:32Z</time>
      </trkpt>
      <trkpt lat="43.56954" lon="5.86059">
        <ele>437.6</ele>
        <time>2019-04-20T08:14:38Z</time>
      </trkpt>
      <trkpt lat="43.56942" lon="5.86078">
        <ele>438.05</ele>
        <time>2019-04-20T08:14:44Z</time>
      </trkpt>
      <trkpt lat="43.56931" lon="5.861">
        <ele>437.37</ele>
        <time>2019-04-20T08:14:48Z</time>
      </trkpt>
      <trkpt lat="43.56912" lon="5.86109">
        <ele>438.39</ele>
        <time>2019-04-20T08:14:56Z</time>
      </trkpt>
      <trkpt lat="43.56894" lon="5.86113">
        <ele>440.04</ele>
        <time>2019-04-20T08:15:03Z</time>
      </trkpt>
      <trkpt lat="43.56875" lon="5.86124">
        <ele>440.31</ele>
        <time>2019-04-20T08:15:10Z</time>
      </trkpt>
      <trkpt lat="43.56858" lon="5.86137">
        <ele>441.55</ele>
        <time>2019-04-20T08:15:16Z</time>
      </trkpt>
      <trkpt lat="43.56847" lon="5.8616">
        <ele>442.16</ele>
        <time>2019-04-20T08:15:21Z</time>
      </trkpt>
      <trkpt lat="43.56834" lon="5.8618">
        <ele>442.73</ele>
        <time>2019-04-20T08:15:26Z</time>
      </trkpt>
      <trkpt lat="43.56815" lon="5.86183">
        <ele>445.12</ele>
        <time>2019-04-20T08:15:31Z</time>
      </trkpt>
      <trkpt lat="43.56796" lon="5.86185">
        <ele>445.35</ele>
        <time>2019-04-20T08:16:23Z</time>
      </trkpt>
      <trkpt lat="43.56777" lon="5.86187">
        <ele>446.28</ele>
        <time>2019-04-20T08:16:29Z</time>
      </trkpt>
      <trkpt lat="43.56759" lon="5.86187">
        <ele>446.58</ele>
        <time>2019-04-20T08:16:34Z</time>
      </trkpt>
      <trkpt lat="43.56741" lon="5.86181">
        <ele>446.92</ele>
        <time>2019-04-20T08:16:38Z</time>
      </trkpt>
      <trkpt lat="43.56722" lon="5.86177">
        <ele>448.29</ele>
        <time>2019-04-20T08:16:44Z</time>
      </trkpt>
      <trkpt lat="43.56703" lon="5.86171">
        <ele>451.11</ele>
        <time>2019-04-20T08:16:58Z</time>
      </trkpt>
      <trkpt lat="43.56683" lon="5.86172">
        <ele>449.52</ele>
        <time>2019-04-20T08:17:10Z</time>
      </trkpt>
      <trkpt lat="43.56664" lon="5.86167">
        <ele>449.86</ele>
        <time>2019-04-20T08:17:17Z</time>
      </trkpt>
      <trkpt lat="43.56644" lon="5.86169">
        <ele>452.13</ele>
        <time>2019-04-20T08:17:24Z</time>
      </trkpt>
      <trkpt lat="43.56625" lon="5.86182">
        <ele>455.89</ele>
        <time>2019-04-20T08:17:32Z</time>
      </trkpt>
      <trkpt lat="43.56606" lon="5.86187">
        <ele>458.5</ele>
        <time>2019-04-20T08:17:38Z</time>
      </trkpt>
      <trkpt lat="43.56583" lon="5.8619">
        <ele>462.34</ele>
        <time>2019-04-20T08:17:42Z</time>
      </trkpt>
      <trkpt lat="43.56564" lon="5.86198">
        <ele>462.4</ele>
        <time>2019-04-20T08:17:46Z</time>
      </trkpt>
      <trkpt lat="43.56546" lon="5.86208">
        <ele>462.35</ele>
        <time>2019-04-20T08:17:50Z</time>
      </trkpt>
      <trkpt lat="43.56527" lon="5.86217">
        <ele>463.45</ele>
        <time>2019-04-20T08:17:53Z</time>
      </trkpt>
      <trkpt lat="43.56507" lon="5.86231">
        <ele>461.94</ele>
        <time>2019-04-20T08:17:57Z</time>
      </trkpt>
      <trkpt lat="43.56491" lon="5.86246">
        <ele>457.38</ele>
        <time>2019-04-20T08:18:01Z</time>
      </trkpt>
      <trkpt lat="43.56474" lon="5.86256">
        <ele>454.38</ele>
        <time>2019-04-20T08:18:04Z</time>
      </trkpt>
      <trkpt lat="43.56456" lon="5.86269">
        <ele>452.38</ele>
        <time>2019-04-20T08:18:07Z</time>
      </trkpt>
      <trkpt lat="43.56436" lon="5.86276">
        <ele>450.9</ele>
        <time>2019-04-20T08:18:10Z</time>
      </trkpt>
      <trkpt lat="43.56417" lon="5.86285">
        <ele>450.98</ele>
        <time>2019-04-20T08:18:14Z</time>
      </trkpt>
      <trkpt lat="43.56396" lon="5.86288">
        <ele>450.73</ele>
        <time>2019-04-20T08:18:18Z</time>
      </trkpt>
      <trkpt lat="43.56375" lon="5.86285">
        <ele>449.81</ele>
        <time>2019-04-20T08:18:23Z</time>
      </trkpt>
      <trkpt lat="43.56357" lon="5.8629">
        <ele>440.8</ele>
        <time>2019-04-20T08:18:32Z</time>
      </trkpt>
      <trkpt lat="43.56335" lon="5.86291">
        <ele>440.93</ele>
        <time>2019-04-20T08:18:38Z</time>
      </trkpt>
      <trkpt lat="43.56315" lon="5.86291">
        <ele>441.31</ele>
        <time>2019-04-20T08:18:44Z</time>
      </trkpt>
      <trkpt lat="43.56297" lon="5.86288">
        <ele>441.41</ele>
        <time>2019-04-20T08:18:49Z</time>
      </trkpt>
      <trkpt lat="43.56279" lon="5.86284">
        <ele>440.38</ele>
        <time>2019-04-20T08:18:54Z</time>
      </trkpt>
      <trkpt lat="43.56261" lon="5.86287">
        <ele>438.95</ele>
        <time>2019-04-20T08:18:58Z</time>
      </trkpt>
      <trkpt lat="43.56242" lon="5.86288">
        <ele>438.77</ele>
        <time>2019-04-20T08:19:02Z</time>
      </trkpt>
      <trkpt lat="43.56223" lon="5.8629">
        <ele>439.73</ele>
        <time>2019-04-20T08:19:06Z</time>
      </trkpt>
      <trkpt lat="43.56204" lon="5.86295">
        <ele>438.92</ele>
        <time>2019-04-20T08:19:10Z</time>
      </trkpt>
      <trkpt lat="43.56185" lon="5.863">
        <ele>438.19</ele>
        <time>2019-04-20T08:19:14Z</time>
      </trkpt>
      <trkpt lat="43.56167" lon="5.86306">
        <ele>438.6</ele>
        <time>2019-04-20T08:19:18Z</time>
      </trkpt>
      <trkpt lat="43.56149" lon="5.86312">
        <ele>438.8</ele>
        <time>2019-04-20T08:19:22Z</time>
      </trkpt>
      <trkpt lat="43.5613" lon="5.86316">
        <ele>437.22</ele>
        <time>2019-04-20T08:19:34Z</time>
      </trkpt>
      <trkpt lat="43.56109" lon="5.86314">
        <ele>432.21</ele>
        <time>2019-04-20T08:19:44Z</time>
      </trkpt>
      <trkpt lat="43.5609" lon="5.8631">
        <ele>429.77</ele>
        <time>2019-04-20T08:19:52Z</time>
      </trkpt>
      <trkpt lat="43.56068" lon="5.86303">
        <ele>424.12</ele>
        <time>2019-04-20T08:19:58Z</time>
      </trkpt>
      <trkpt lat="43.56045" lon="5.86294">
        <ele>417.78</ele>
        <time>2019-04-20T08:20:04Z</time>
      </trkpt>
      <trkpt lat="43.56025" lon="5.86284">
        <ele>415.72</ele>
        <time>2019-04-20T08:20:09Z</time>
      </trkpt>
      <trkpt lat="43.56005" lon="5.86277">
        <ele>413.86</ele>
        <time>2019-04-20T08:20:14Z</time>
      </trkpt>
      <trkpt lat="43.55988" lon="5.86271">
        <ele>410.92</ele>
        <time>2019-04-20T08:20:19Z</time>
      </trkpt>
      <trkpt lat="43.5597" lon="5.86264">
        <ele>407.93</ele>
        <time>2019-04-20T08:20:24Z</time>
      </trkpt>
      <trkpt lat="43.55952" lon="5.8626">
        <ele>404.87</ele>
        <time>2019-04-20T08:20:29Z</time>
      </trkpt>
      <trkpt lat="43.55932" lon="5.86254">
        <ele>400.83</ele>
        <time>2019-04-20T08:20:34Z</time>
      </trkpt>
      <trkpt lat="43.55913" lon="5.86258">
        <ele>396.96</ele>
        <time>2019-04-20T08:20:39Z</time>
      </trkpt>
      <trkpt lat="43.55905" lon="5.86281">
        <ele>396.74</ele>
        <time>2019-04-20T08:20:45Z</time>
      </trkpt>
      <trkpt lat="43.55904" lon="5.86309">
        <ele>397.38</ele>
        <time>2019-04-20T08:20:52Z</time>
      </trkpt>
      <trkpt lat="43.55907" lon="5.86336">
        <ele>396.34</ele>
        <time>2019-04-20T08:20:57Z</time>
      </trkpt>
      <trkpt lat="43.55915" lon="5.86364">
        <ele>393.88</ele>
        <time>2019-04-20T08:21:02Z</time>
      </trkpt>
      <trkpt lat="43.55926" lon="5.86384">
        <ele>392.78</ele>
        <time>2019-04-20T08:21:07Z</time>
      </trkpt>
      <trkpt lat="43.55939" lon="5.86404">
        <ele>392.37</ele>
        <time>2019-04-20T08:21:11Z</time>
      </trkpt>
      <trkpt lat="43.5595" lon="5.86426">
        <ele>390.75</ele>
        <time>2019-04-20T08:21:16Z</time>
      </trkpt>
      <trkpt lat="43.55967" lon="5.86441">
        <ele>390.07</ele>
        <time>2019-04-20T08:21:21Z</time>
      </trkpt>
      <trkpt lat="43.55985" lon="5.86457">
        <ele>390.64</ele>
        <time>2019-04-20T08:21:27Z</time>
      </trkpt>
      <trkpt lat="43.56002" lon="5.86466">
        <ele>391.46</ele>
        <time>2019-04-20T08:21:33Z</time>
      </trkpt>
      <trkpt lat="43.56019" lon="5.86475">
        <ele>391.88</ele>
        <time>2019-04-20T08:21:37Z</time>
      </trkpt>
      <trkpt lat="43.56032" lon="5.86492">
        <ele>394.28</ele>
        <time>2019-04-20T08:21:41Z</time>
      </trkpt>
      <trkpt lat="43.56035" lon="5.86517">
        <ele>395.98</ele>
        <time>2019-04-20T08:21:45Z</time>
      </trkpt>
      <trkpt lat="43.56053" lon="5.86531">
        <ele>395.13</ele>
        <time>2019-04-20T08:21:50Z</time>
      </trkpt>
      <trkpt lat="43.56069" lon="5.86547">
        <ele>392.41</ele>
        <time>2019-04-20T08:21:54Z</time>
      </trkpt>
      <trkpt lat="43.56081" lon="5.86571">
        <ele>390.41</ele>
        <time>2019-04-20T08:21:58Z</time>
      </trkpt>
      <trkpt lat="43.56086" lon="5.86597">
        <ele>388.25</ele>
        <time>2019-04-20T08:22:02Z</time>
      </trkpt>
      <trkpt lat="43.5608" lon="5.86624">
        <ele>388.19</ele>
        <time>2019-04-20T08:22:06Z</time>
      </trkpt>
      <trkpt lat="43.56061" lon="5.8663">
        <ele>388.94</ele>
        <time>2019-04-20T08:22:10Z</time>
      </trkpt>
      <trkpt lat="43.5604" lon="5.86624">
        <ele>389.54</ele>
        <time>2019-04-20T08:22:14Z</time>
      </trkpt>
      <trkpt lat="43.56022" lon="5.86625">
        <ele>391.13</ele>
        <time>2019-04-20T08:22:19Z</time>
      </trkpt>
      <trkpt lat="43.56002" lon="5.86618">
        <ele>392.98</ele>
        <time>2019-04-20T08:22:24Z</time>
      </trkpt>
      <trkpt lat="43.55982" lon="5.86617">
        <ele>394.47</ele>
        <time>2019-04-20T08:22:29Z</time>
      </trkpt>
      <trkpt lat="43.55963" lon="5.86628">
        <ele>396.37</ele>
        <time>2019-04-20T08:22:34Z</time>
      </trkpt>
      <trkpt lat="43.55946" lon="5.86639">
        <ele>399.25</ele>
        <time>2019-04-20T08:22:38Z</time>
      </trkpt>
      <trkpt lat="43.5593" lon="5.86652">
        <ele>400.97</ele>
        <time>2019-04-20T08:22:42Z</time>
      </trkpt>
      <trkpt lat="43.55913" lon="5.8666">
        <ele>402.83</ele>
        <time>2019-04-20T08:22:47Z</time>
      </trkpt>
      <trkpt lat="43.55896" lon="5.8667">
        <ele>404.57</ele>
        <time>2019-04-20T08:22:52Z</time>
      </trkpt>
      <trkpt lat="43.5588" lon="5.86686">
        <ele>406.21</ele>
        <time>2019-04-20T08:22:59Z</time>
      </trkpt>
      <trkpt lat="43.55873" lon="5.86714">
        <ele>405.3</ele>
        <time>2019-04-20T08:23:13Z</time>
      </trkpt>
      <trkpt lat="43.55856" lon="5.86725">
        <ele>404.87</ele>
        <time>2019-04-20T08:23:24Z</time>
      </trkpt>
      <trkpt lat="43.55835" lon="5.86729">
        <ele>405.29</ele>
        <time>2019-04-20T08:23:37Z</time>
      </trkpt>
      <trkpt lat="43.55816" lon="5.86731">
        <ele>406.71</ele>
        <time>2019-04-20T08:23:49Z</time>
      </trkpt>
      <trkpt lat="43.55799" lon="5.86744">
        <ele>406.37</ele>
        <time>2019-04-20T08:24:03Z</time>
      </trkpt>
      <trkpt lat="43.55791" lon="5.8677">
        <ele>405.09</ele>
        <time>2019-04-20T08:24:16Z</time>
      </trkpt>
      <trkpt lat="43.55775" lon="5.86789">
        <ele>402.22</ele>
        <time>2019-04-20T08:24:30Z</time>
      </trkpt>
      <trkpt lat="43.55762" lon="5.86813">
        <ele>399.72</ele>
        <time>2019-04-20T08:24:43Z</time>
      </trkpt>
      <trkpt lat="43.55755" lon="5.86836">
        <ele>397.27</ele>
        <time>2019-04-20T08:24:56Z</time>
      </trkpt>
      <trkpt lat="43.55752" lon="5.86864">
        <ele>394.05</ele>
        <time>2019-04-20T08:25:10Z</time>
      </trkpt>
      <trkpt lat="43.5575" lon="5.86889">
        <ele>392.57</ele>
        <time>2019-04-20T08:25:23Z</time>
      </trkpt>
      <trkpt lat="43.55748" lon="5.86915">
        <ele>390.91</ele>
        <time>2019-04-20T08:25:38Z</time>
      </trkpt>
      <trkpt lat="43.55749" lon="5.86941">
        <ele>388.62</ele>
        <time>2019-04-20T08:25:53Z</time>
      </trkpt>
      <trkpt lat="43.5575" lon="5.86971">
        <ele>386.91</ele>
        <time>2019-04-20T08:26:08Z</time>
      </trkpt>
      <trkpt lat="43.55749" lon="5.87001">
        <ele>383.87</ele>
        <time>2019-04-20T08:26:23Z</time>
      </trkpt>
      <trkpt lat="43.5576" lon="5.87026">
        <ele>383.12</ele>
        <time>2019-04-20T08:26:43Z</time>
      </trkpt>
      <trkpt lat="43.55777" lon="5.87045">
        <ele>383.42</ele>
        <time>2019-04-20T08:26:59Z</time>
      </trkpt>
      <trkpt lat="43.55789" lon="5.87067">
        <ele>383.16</ele>
        <time>2019-04-20T08:27:14Z</time>
      </trkpt>
      <trkpt lat="43.55803" lon="5.87082">
        <ele>383.26</ele>
        <time>2019-04-20T08:27:28Z</time>
      </trkpt>
      <trkpt lat="43.55817" lon="5.87098">
        <ele>381.98</ele>
        <time>2019-04-20T08:27:43Z</time>
      </trkpt>
      <trkpt lat="43.55823" lon="5.87123">
        <ele>381.5</ele>
        <time>2019-04-20T08:27:57Z</time>
      </trkpt>
      <trkpt lat="43.55809" lon="5.8714">
        <ele>382.27</ele>
        <time>2019-04-20T08:28:12Z</time>
      </trkpt>
      <trkpt lat="43.55791" lon="5.87141">
        <ele>384.39</ele>
        <time>2019-04-20T08:28:25Z</time>
      </trkpt>
      <trkpt lat="43.55778" lon="5.87124">
        <ele>383.25</ele>
        <time>2019-04-20T08:28:38Z</time>
      </trkpt>
      <trkpt lat="43.55763" lon="5.87108">
        <ele>385.89</ele>
        <time>2019-04-20T08:31:13Z</time>
      </trkpt>
      <trkpt lat="43.55748" lon="5.87093">
        <ele>388.24</ele>
        <time>2019-04-20T08:33:05Z</time>
      </trkpt>
      <trkpt lat="43.55735" lon="5.87077">
        <ele>390.32</ele>
        <time>2019-04-20T08:33:14Z</time>
      </trkpt>
      <trkpt lat="43.55727" lon="5.87054">
        <ele>394.11</ele>
        <time>2019-04-20T08:33:24Z</time>
      </trkpt>
      <trkpt lat="43.55716" lon="5.87034">
        <ele>397.89</ele>
        <time>2019-04-20T08:33:32Z</time>
      </trkpt>
      <trkpt lat="43.55704" lon="5.87015">
        <ele>402.42</ele>
        <time>2019-04-20T08:33:39Z</time>
      </trkpt>
      <trkpt lat="43.55693" lon="5.86993">
        <ele>404.54</ele>
        <time>2019-04-20T08:33:45Z</time>
      </trkpt>
      <trkpt lat="43.55683" lon="5.86973">
        <ele>406.32</ele>
        <time>2019-04-20T08:33:51Z</time>
      </trkpt>
      <trkpt lat="43.55671" lon="5.86952">
        <ele>408.56</ele>
        <time>2019-04-20T08:33:55Z</time>
      </trkpt>
      <trkpt lat="43.5566" lon="5.8693">
        <ele>411.54</ele>
        <time>2019-04-20T08:34:01Z</time>
      </trkpt>
      <trkpt lat="43.55649" lon="5.86909">
        <ele>413.5</ele>
        <time>2019-04-20T08:34:07Z</time>
      </trkpt>
      <trkpt lat="43.55646" lon="5.86883">
        <ele>416.9</ele>
        <time>2019-04-20T08:34:14Z</time>
      </trkpt>
      <trkpt lat="43.55646" lon="5.86857">
        <ele>421.21</ele>
        <time>2019-04-20T08:34:20Z</time>
      </trkpt>
      <trkpt lat="43.5564" lon="5.86833">
        <ele>425.09</ele>
        <time>2019-04-20T08:34:26Z</time>
      </trkpt>
      <trkpt lat="43.55632" lon="5.8681">
        <ele>430.2</ele>
        <time>2019-04-20T08:34:33Z</time>
      </trkpt>
      <trkpt lat="43.55623" lon="5.86787">
        <ele>435.59</ele>
        <time>2019-04-20T08:34:40Z</time>
      </trkpt>
      <trkpt lat="43.55619" lon="5.86761">
        <ele>438.37</ele>
        <time>2019-04-20T08:34:47Z</time>
      </trkpt>
      <trkpt lat="43.55605" lon="5.86743">
        <ele>439.26</ele>
        <time>2019-04-20T08:34:52Z</time>
      </trkpt>
      <trkpt lat="43.55588" lon="5.86733">
        <ele>440.87</ele>
        <time>2019-04-20T08:34:58Z</time>
      </trkpt>
      <trkpt lat="43.55575" lon="5.86713">
        <ele>442.28</ele>
        <time>2019-04-20T08:35:05Z</time>
      </trkpt>
      <trkpt lat="43.55558" lon="5.86702">
        <ele>443.22</ele>
        <time>2019-04-20T08:35:12Z</time>
      </trkpt>
      <trkpt lat="43.55542" lon="5.86686">
        <ele>444.08</ele>
        <time>2019-04-20T08:35:20Z</time>
      </trkpt>
      <trkpt lat="43.55527" lon="5.86671">
        <ele>445.16</ele>
        <time>2019-04-20T08:36:20Z</time>
      </trkpt>
      <trkpt lat="43.55511" lon="5.86661">
        <ele>434.39</ele>
        <time>2019-04-20T08:36:29Z</time>
      </trkpt>
      <trkpt lat="43.55522" lon="5.86638">
        <ele>431.44</ele>
        <time>2019-04-20T08:36:34Z</time>
      </trkpt>
      <trkpt lat="43.55539" lon="5.86628">
        <ele>435.36</ele>
        <time>2019-04-20T08:36:38Z</time>
      </trkpt>
      <trkpt lat="43.55552" lon="5.8661">
        <ele>439.01</ele>
        <time>2019-04-20T08:36:42Z</time>
      </trkpt>
      <trkpt lat="43.55536" lon="5.86598">
        <ele>440.62</ele>
        <time>2019-04-20T08:36:47Z</time>
      </trkpt>
      <trkpt lat="43.55519" lon="5.86583">
        <ele>439.04</ele>
        <time>2019-04-20T08:36:52Z</time>
      </trkpt>
      <trkpt lat="43.55501" lon="5.86569">
        <ele>436.25</ele>
        <time>2019-04-20T08:36:57Z</time>
      </trkpt>
      <trkpt lat="43.55478" lon="5.8657">
        <ele>433.64</ele>
        <time>2019-04-20T08:37:02Z</time>
      </trkpt>
      <trkpt lat="43.55461" lon="5.86558">
        <ele>434.12</ele>
        <time>2019-04-20T08:37:06Z</time>
      </trkpt>
      <trkpt lat="43.55446" lon="5.86538">
        <ele>436.35</ele>
        <time>2019-04-20T08:37:11Z</time>
      </trkpt>
      <trkpt lat="43.55443" lon="5.86512">
        <ele>438.45</ele>
        <time>2019-04-20T08:37:15Z</time>
      </trkpt>
      <trkpt lat="43.55431" lon="5.86488">
        <ele>439.17</ele>
        <time>2019-04-20T08:37:20Z</time>
      </trkpt>
      <trkpt lat="43.55418" lon="5.8647">
        <ele>439.93</ele>
        <time>2019-04-20T08:37:25Z</time>
      </trkpt>
      <trkpt lat="43.55407" lon="5.8645">
        <ele>440.68</ele>
        <time>2019-04-20T08:37:30Z</time>
      </trkpt>
      <trkpt lat="43.55393" lon="5.8643">
        <ele>441.97</ele>
        <time>2019-04-20T08:37:35Z</time>
      </trkpt>
      <trkpt lat="43.55384" lon="5.86407">
        <ele>441.93</ele>
        <time>2019-04-20T08:37:40Z</time>
      </trkpt>
      <trkpt lat="43.55371" lon="5.86385">
        <ele>442.48</ele>
        <time>2019-04-20T08:37:45Z</time>
      </trkpt>
      <trkpt lat="43.55358" lon="5.86366">
        <ele>441.71</ele>
        <time>2019-04-20T08:37:50Z</time>
      </trkpt>
      <trkpt lat="43.55345" lon="5.86345">
        <ele>441.26</ele>
        <time>2019-04-20T08:37:55Z</time>
      </trkpt>
      <trkpt lat="43.55329" lon="5.86332">
        <ele>439.4</ele>
        <time>2019-04-20T08:38:00Z</time>
      </trkpt>
      <trkpt lat="43.55309" lon="5.86334">
        <ele>440.1</ele>
        <time>2019-04-20T08:38:06Z</time>
      </trkpt>
      <trkpt lat="43.55289" lon="5.86328">
        <ele>442.81</ele>
        <time>2019-04-20T08:38:14Z</time>
      </trkpt>
      <trkpt lat="43.5527" lon="5.86326">
        <ele>445.23</ele>
        <time>2019-04-20T08:38:22Z</time>
      </trkpt>
      <trkpt lat="43.55251" lon="5.86331">
        <ele>444.29</ele>
        <time>2019-04-20T08:38:27Z</time>
      </trkpt>
      <trkpt lat="43.55229" lon="5.86334">
        <ele>442.35</ele>
        <time>2019-04-20T08:38:32Z</time>
      </trkpt>
      <trkpt lat="43.55207" lon="5.86338">
        <ele>440.39</ele>
        <time>2019-04-20T08:38:37Z</time>
      </trkpt>
      <trkpt lat="43.55195" lon="5.86356">
        <ele>438.59</ele>
        <time>2019-04-20T08:38:41Z</time>
      </trkpt>
      <trkpt lat="43.55187" lon="5.86383">
        <ele>436.13</ele>
        <time>2019-04-20T08:38:45Z</time>
      </trkpt>
      <trkpt lat="43.55179" lon="5.86408">
        <ele>435.22</ele>
        <time>2019-04-20T08:38:50Z</time>
      </trkpt>
      <trkpt lat="43.55166" lon="5.86428">
        <ele>435.05</ele>
        <time>2019-04-20T08:38:54Z</time>
      </trkpt>
      <trkpt lat="43.55151" lon="5.8645">
        <ele>433.92</ele>
        <time>2019-04-20T08:38:59Z</time>
      </trkpt>
      <trkpt lat="43.55135" lon="5.86466">
        <ele>432.48</ele>
        <time>2019-04-20T08:39:05Z</time>
      </trkpt>
      <trkpt lat="43.55122" lon="5.8649">
        <ele>432.48</ele>
        <time>2019-04-20T08:39:12Z</time>
      </trkpt>
      <trkpt lat="43.55112" lon="5.86511">
        <ele>433.11</ele>
        <time>2019-04-20T08:39:19Z</time>
      </trkpt>
      <trkpt lat="43.55097" lon="5.86531">
        <ele>433.9</ele>
        <time>2019-04-20T08:39:26Z</time>
      </trkpt>
      <trkpt lat="43.55086" lon="5.86552">
        <ele>434.34</ele>
        <time>2019-04-20T08:39:34Z</time>
      </trkpt>
      <trkpt lat="43.55073" lon="5.8657">
        <ele>434.9</ele>
        <time>2019-04-20T08:39:42Z</time>
      </trkpt>
      <trkpt lat="43.55057" lon="5.86588">
        <ele>435.21</ele>
        <time>2019-04-20T08:39:49Z</time>
      </trkpt>
      <trkpt lat="43.5504" lon="5.86606">
        <ele>436.06</ele>
        <time>2019-04-20T08:39:56Z</time>
      </trkpt>
      <trkpt lat="43.55022" lon="5.86623">
        <ele>436.57</ele>
        <time>2019-04-20T08:40:03Z</time>
      </trkpt>
      <trkpt lat="43.55006" lon="5.86636">
        <ele>437.25</ele>
        <time>2019-04-20T08:40:10Z</time>
      </trkpt>
      <trkpt lat="43.5499" lon="5.86653">
        <ele>436.54</ele>
        <time>2019-04-20T08:40:16Z</time>
      </trkpt>
      <trkpt lat="43.54974" lon="5.86665">
        <ele>436.92</ele>
        <time>2019-04-20T08:40:22Z</time>
      </trkpt>
      <trkpt lat="43.54953" lon="5.86669">
        <ele>436.97</ele>
        <time>2019-04-20T08:40:28Z</time>
      </trkpt>
      <trkpt lat="43.54938" lon="5.86653">
        <ele>436.37</ele>
        <time>2019-04-20T08:40:35Z</time>
      </trkpt>
      <trkpt lat="43.5492" lon="5.86645">
        <ele>436.09</ele>
        <time>2019-04-20T08:40:40Z</time>
      </trkpt>
      <trkpt lat="43.54903" lon="5.86637">
        <ele>433.77</ele>
        <time>2019-04-20T08:40:46Z</time>
      </trkpt>
      <trkpt lat="43.54884" lon="5.8662">
        <ele>431.18</ele>
        <time>2019-04-20T08:40:51Z</time>
      </trkpt>
      <trkpt lat="43.54865" lon="5.86608">
        <ele>428.96</ele>
        <time>2019-04-20T08:40:55Z</time>
      </trkpt>
      <trkpt lat="43.54848" lon="5.8662">
        <ele>426.93</ele>
        <time>2019-04-20T08:41:00Z</time>
      </trkpt>
      <trkpt lat="43.5484" lon="5.86643">
        <ele>426.48</ele>
        <time>2019-04-20T08:41:04Z</time>
      </trkpt>
      <trkpt lat="43.54834" lon="5.86672">
        <ele>427.11</ele>
        <time>2019-04-20T08:41:09Z</time>
      </trkpt>
      <trkpt lat="43.54832" lon="5.86698">
        <ele>427.29</ele>
        <time>2019-04-20T08:41:14Z</time>
      </trkpt>
      <trkpt lat="43.54824" lon="5.86725">
        <ele>427.56</ele>
        <time>2019-04-20T08:41:19Z</time>
      </trkpt>
      <trkpt lat="43.54816" lon="5.86748">
        <ele>429.99</ele>
        <time>2019-04-20T08:41:26Z</time>
      </trkpt>
      <trkpt lat="43.54818" lon="5.86773">
        <ele>432.73</ele>
        <time>2019-04-20T08:41:37Z</time>
      </trkpt>
      <trkpt lat="43.54817" lon="5.86799">
        <ele>434.67</ele>
        <time>2019-04-20T08:41:49Z</time>
      </trkpt>
      <trkpt lat="43.54822" lon="5.86825">
        <ele>435.45</ele>
        <time>2019-04-20T08:42:02Z</time>
      </trkpt>
      <trkpt lat="43.54814" lon="5.8685">
        <ele>434.6</ele>
        <time>2019-04-20T08:42:14Z</time>
      </trkpt>
      <trkpt lat="43.54804" lon="5.86875">
        <ele>435</ele>
        <time>2019-04-20T08:42:26Z</time>
      </trkpt>
      <trkpt lat="43.54794" lon="5.86898">
        <ele>435.78</ele>
        <time>2019-04-20T08:42:37Z</time>
      </trkpt>
      <trkpt lat="43.54782" lon="5.86921">
        <ele>436.72</ele>
        <time>2019-04-20T08:42:48Z</time>
      </trkpt>
      <trkpt lat="43.54769" lon="5.86943">
        <ele>437.93</ele>
        <time>2019-04-20T08:42:58Z</time>
      </trkpt>
      <trkpt lat="43.54755" lon="5.86963">
        <ele>438.54</ele>
        <time>2019-04-20T08:43:06Z</time>
      </trkpt>
      <trkpt lat="43.54742" lon="5.86982">
        <ele>438.09</ele>
        <time>2019-04-20T08:43:12Z</time>
      </trkpt>
      <trkpt lat="43.54727" lon="5.87">
        <ele>437.95</ele>
        <time>2019-04-20T08:43:18Z</time>
      </trkpt>
      <trkpt lat="43.54711" lon="5.87016">
        <ele>437.95</ele>
        <time>2019-04-20T08:43:24Z</time>
      </trkpt>
      <trkpt lat="43.54693" lon="5.87031">
        <ele>437.49</ele>
        <time>2019-04-20T08:43:29Z</time>
      </trkpt>
      <trkpt lat="43.54677" lon="5.87041">
        <ele>436.59</ele>
        <time>2019-04-20T08:43:34Z</time>
      </trkpt>
      <trkpt lat="43.54659" lon="5.87055">
        <ele>436.35</ele>
        <time>2019-04-20T08:43:39Z</time>
      </trkpt>
      <trkpt lat="43.54641" lon="5.87069">
        <ele>435.41</ele>
        <time>2019-04-20T08:43:44Z</time>
      </trkpt>
      <trkpt lat="43.54623" lon="5.87079">
        <ele>434.76</ele>
        <time>2019-04-20T08:43:49Z</time>
      </trkpt>
      <trkpt lat="43.54605" lon="5.87083">
        <ele>432.94</ele>
        <time>2019-04-20T08:43:54Z</time>
      </trkpt>
      <trkpt lat="43.54586" lon="5.8709">
        <ele>433.04</ele>
        <time>2019-04-20T08:43:59Z</time>
      </trkpt>
      <trkpt lat="43.54568" lon="5.87077">
        <ele>434.19</ele>
        <time>2019-04-20T08:44:03Z</time>
      </trkpt>
      <trkpt lat="43.54557" lon="5.87055">
        <ele>435.75</ele>
        <time>2019-04-20T08:44:08Z</time>
      </trkpt>
      <trkpt lat="43.54541" lon="5.8704">
        <ele>437.71</ele>
        <time>2019-04-20T08:44:14Z</time>
      </trkpt>
      <trkpt lat="43.54532" lon="5.87017">
        <ele>441.12</ele>
        <time>2019-04-20T08:44:19Z</time>
      </trkpt>
      <trkpt lat="43.54535" lon="5.86991">
        <ele>449.84</ele>
        <time>2019-04-20T08:44:24Z</time>
      </trkpt>
      <trkpt lat="43.54533" lon="5.86966">
        <ele>457.69</ele>
        <time>2019-04-20T08:44:29Z</time>
      </trkpt>
      <trkpt lat="43.54535" lon="5.8694">
        <ele>464.26</ele>
        <time>2019-04-20T08:44:35Z</time>
      </trkpt>
      <trkpt lat="43.54539" lon="5.86916">
        <ele>466.95</ele>
        <time>2019-04-20T08:47:29Z</time>
      </trkpt>
      <trkpt lat="43.5455" lon="5.86896">
        <ele>466.59</ele>
        <time>2019-04-20T08:47:36Z</time>
      </trkpt>
      <trkpt lat="43.54563" lon="5.86877">
        <ele>466.09</ele>
        <time>2019-04-20T08:47:43Z</time>
      </trkpt>
      <trkpt lat="43.54565" lon="5.86851">
        <ele>466.24</ele>
        <time>2019-04-20T08:47:50Z</time>
      </trkpt>
      <trkpt lat="43.54569" lon="5.86825">
        <ele>465.8</ele>
        <time>2019-04-20T08:47:56Z</time>
      </trkpt>
      <trkpt lat="43.54584" lon="5.86806">
        <ele>465.38</ele>
        <time>2019-04-20T08:48:02Z</time>
      </trkpt>
      <trkpt lat="43.54596" lon="5.86788">
        <ele>466.57</ele>
        <time>2019-04-20T08:48:08Z</time>
      </trkpt>
      <trkpt lat="43.54608" lon="5.86767">
        <ele>466.55</ele>
        <time>2019-04-20T08:48:14Z</time>
      </trkpt>
      <trkpt lat="43.54619" lon="5.86742">
        <ele>467.58</ele>
        <time>2019-04-20T08:48:20Z</time>
      </trkpt>
      <trkpt lat="43.54631" lon="5.86719">
        <ele>467.92</ele>
        <time>2019-04-20T08:48:26Z</time>
      </trkpt>
      <trkpt lat="43.54641" lon="5.86697">
        <ele>466.55</ele>
        <time>2019-04-20T08:48:31Z</time>
      </trkpt>
      <trkpt lat="43.54652" lon="5.86673">
        <ele>465.9</ele>
        <time>2019-04-20T08:48:36Z</time>
      </trkpt>
      <trkpt lat="43.54661" lon="5.86647">
        <ele>465.96</ele>
        <time>2019-04-20T08:48:41Z</time>
      </trkpt>
      <trkpt lat="43.54667" lon="5.86618">
        <ele>466.18</ele>
        <time>2019-04-20T08:48:46Z</time>
      </trkpt>
      <trkpt lat="43.54673" lon="5.86595">
        <ele>467.12</ele>
        <time>2019-04-20T08:48:51Z</time>
      </trkpt>
      <trkpt lat="43.54683" lon="5.86569">
        <ele>465.23</ele>
        <time>2019-04-20T08:48:56Z</time>
      </trkpt>
      <trkpt lat="43.54692" lon="5.86545">
        <ele>463.75</ele>
        <time>2019-04-20T08:49:01Z</time>
      </trkpt>
      <trkpt lat="43.54691" lon="5.86514">
        <ele>463.29</ele>
        <time>2019-04-20T08:49:06Z</time>
      </trkpt>
      <trkpt lat="43.54676" lon="5.86496">
        <ele>463.2</ele>
        <time>2019-04-20T08:49:10Z</time>
      </trkpt>
      <trkpt lat="43.54657" lon="5.86497">
        <ele>462.5</ele>
        <time>2019-04-20T08:49:14Z</time>
      </trkpt>
      <trkpt lat="43.54641" lon="5.86481">
        <ele>462.76</ele>
        <time>2019-04-20T08:49:19Z</time>
      </trkpt>
      <trkpt lat="43.54628" lon="5.86462">
        <ele>462.66</ele>
        <time>2019-04-20T08:49:24Z</time>
      </trkpt>
      <trkpt lat="43.54612" lon="5.86449">
        <ele>461.97</ele>
        <time>2019-04-20T08:49:29Z</time>
      </trkpt>
      <trkpt lat="43.54608" lon="5.86424">
        <ele>461.24</ele>
        <time>2019-04-20T08:49:34Z</time>
      </trkpt>
      <trkpt lat="43.54617" lon="5.86403">
        <ele>463.55</ele>
        <time>2019-04-20T08:49:39Z</time>
      </trkpt>
      <trkpt lat="43.54628" lon="5.86381">
        <ele>466.8</ele>
        <time>2019-04-20T08:49:44Z</time>
      </trkpt>
      <trkpt lat="43.54634" lon="5.86353">
        <ele>470.08</ele>
        <time>2019-04-20T08:50:10Z</time>
      </trkpt>
      <trkpt lat="43.54636" lon="5.86327">
        <ele>470.05</ele>
        <time>2019-04-20T08:50:16Z</time>
      </trkpt>
      <trkpt lat="43.54645" lon="5.86301">
        <ele>469.88</ele>
        <time>2019-04-20T08:50:21Z</time>
      </trkpt>
      <trkpt lat="43.54653" lon="5.86278">
        <ele>471.74</ele>
        <time>2019-04-20T08:50:26Z</time>
      </trkpt>
      <trkpt lat="43.54653" lon="5.8625">
        <ele>473.17</ele>
        <time>2019-04-20T08:50:31Z</time>
      </trkpt>
      <trkpt lat="43.54654" lon="5.86222">
        <ele>475.73</ele>
        <time>2019-04-20T08:50:36Z</time>
      </trkpt>
      <trkpt lat="43.54653" lon="5.86194">
        <ele>479.4</ele>
        <time>2019-04-20T08:50:41Z</time>
      </trkpt>
      <trkpt lat="43.54654" lon="5.86167">
        <ele>478.83</ele>
        <time>2019-04-20T08:50:45Z</time>
      </trkpt>
      <trkpt lat="43.54654" lon="5.86141">
        <ele>477.68</ele>
        <time>2019-04-20T08:51:13Z</time>
      </trkpt>
      <trkpt lat="43.54658" lon="5.86115">
        <ele>474.97</ele>
        <time>2019-04-20T08:51:19Z</time>
      </trkpt>
      <trkpt lat="43.54659" lon="5.86089">
        <ele>472.73</ele>
        <time>2019-04-20T08:51:24Z</time>
      </trkpt>
      <trkpt lat="43.54655" lon="5.86062">
        <ele>471.98</ele>
        <time>2019-04-20T08:51:29Z</time>
      </trkpt>
      <trkpt lat="43.54662" lon="5.86036">
        <ele>471.51</ele>
        <time>2019-04-20T08:51:34Z</time>
      </trkpt>
      <trkpt lat="43.54672" lon="5.86013">
        <ele>471.05</ele>
        <time>2019-04-20T08:51:39Z</time>
      </trkpt>
      <trkpt lat="43.5468" lon="5.85984">
        <ele>469.55</ele>
        <time>2019-04-20T08:51:44Z</time>
      </trkpt>
      <trkpt lat="43.54686" lon="5.8596">
        <ele>466.98</ele>
        <time>2019-04-20T08:51:49Z</time>
      </trkpt>
      <trkpt lat="43.5469" lon="5.85936">
        <ele>465.54</ele>
        <time>2019-04-20T08:51:53Z</time>
      </trkpt>
      <trkpt lat="43.54698" lon="5.85908">
        <ele>463.81</ele>
        <time>2019-04-20T08:51:58Z</time>
      </trkpt>
      <trkpt lat="43.54701" lon="5.85878">
        <ele>463.68</ele>
        <time>2019-04-20T08:52:19Z</time>
      </trkpt>
      <trkpt lat="43.54694" lon="5.85854">
        <ele>463.2</ele>
        <time>2019-04-20T08:52:29Z</time>
      </trkpt>
      <trkpt lat="43.54681" lon="5.85829">
        <ele>462.01</ele>
        <time>2019-04-20T08:52:36Z</time>
      </trkpt>
      <trkpt lat="43.54682" lon="5.858">
        <ele>460.7</ele>
        <time>2019-04-20T08:52:42Z</time>
      </trkpt>
      <trkpt lat="43.54684" lon="5.85773">
        <ele>459.41</ele>
        <time>2019-04-20T08:52:48Z</time>
      </trkpt>
      <trkpt lat="43.54684" lon="5.85747">
        <ele>458.56</ele>
        <time>2019-04-20T08:52:53Z</time>
      </trkpt>
      <trkpt lat="43.54684" lon="5.85719">
        <ele>458.8</ele>
        <time>2019-04-20T08:52:58Z</time>
      </trkpt>
      <trkpt lat="43.54677" lon="5.85695">
        <ele>457.11</ele>
        <time>2019-04-20T08:53:03Z</time>
      </trkpt>
      <trkpt lat="43.54663" lon="5.85672">
        <ele>454.97</ele>
        <time>2019-04-20T08:53:08Z</time>
      </trkpt>
      <trkpt lat="43.54647" lon="5.85657">
        <ele>453.15</ele>
        <time>2019-04-20T08:53:12Z</time>
      </trkpt>
      <trkpt lat="43.54627" lon="5.85653">
        <ele>451.34</ele>
        <time>2019-04-20T08:53:16Z</time>
      </trkpt>
      <trkpt lat="43.54606" lon="5.85642">
        <ele>446.46</ele>
        <time>2019-04-20T08:53:20Z</time>
      </trkpt>
      <trkpt lat="43.54585" lon="5.85636">
        <ele>443.88</ele>
        <time>2019-04-20T08:53:24Z</time>
      </trkpt>
      <trkpt lat="43.54565" lon="5.85637">
        <ele>444.25</ele>
        <time>2019-04-20T08:53:28Z</time>
      </trkpt>
      <trkpt lat="43.5455" lon="5.85655">
        <ele>444.23</ele>
        <time>2019-04-20T08:53:32Z</time>
      </trkpt>
      <trkpt lat="43.54538" lon="5.85676">
        <ele>444.55</ele>
        <time>2019-04-20T08:53:36Z</time>
      </trkpt>
      <trkpt lat="43.54525" lon="5.85698">
        <ele>443.4</ele>
        <time>2019-04-20T08:53:40Z</time>
      </trkpt>
      <trkpt lat="43.54512" lon="5.85718">
        <ele>442.54</ele>
        <time>2019-04-20T08:53:44Z</time>
      </trkpt>
      <trkpt lat="43.54498" lon="5.85736">
        <ele>441.88</ele>
        <time>2019-04-20T08:53:48Z</time>
      </trkpt>
      <trkpt lat="43.5448" lon="5.85749">
        <ele>441.57</ele>
        <time>2019-04-20T08:53:52Z</time>
      </trkpt>
      <trkpt lat="43.5446" lon="5.8576">
        <ele>441.29</ele>
        <time>2019-04-20T08:53:56Z</time>
      </trkpt>
      <trkpt lat="43.54443" lon="5.85769">
        <ele>440.62</ele>
        <time>2019-04-20T08:54:00Z</time>
      </trkpt>
      <trkpt lat="43.54424" lon="5.85776">
        <ele>439.32</ele>
        <time>2019-04-20T08:54:04Z</time>
      </trkpt>
      <trkpt lat="43.54407" lon="5.85784">
        <ele>438.22</ele>
        <time>2019-04-20T08:54:08Z</time>
      </trkpt>
      <trkpt lat="43.54388" lon="5.85793">
        <ele>438.15</ele>
        <time>2019-04-20T08:54:12Z</time>
      </trkpt>
      <trkpt lat="43.54371" lon="5.85806">
        <ele>437.99</ele>
        <time>2019-04-20T08:54:15Z</time>
      </trkpt>
      <trkpt lat="43.54354" lon="5.85817">
        <ele>439.41</ele>
        <time>2019-04-20T08:54:18Z</time>
      </trkpt>
      <trkpt lat="43.54334" lon="5.8583">
        <ele>440.08</ele>
        <time>2019-04-20T08:54:22Z</time>
      </trkpt>
      <trkpt lat="43.54315" lon="5.85844">
        <ele>440.08</ele>
        <time>2019-04-20T08:54:26Z</time>
      </trkpt>
      <trkpt lat="43.54295" lon="5.85856">
        <ele>439.48</ele>
        <time>2019-04-20T08:54:29Z</time>
      </trkpt>
      <trkpt lat="43.54273" lon="5.85861">
        <ele>437.35</ele>
        <time>2019-04-20T08:54:32Z</time>
      </trkpt>
      <trkpt lat="43.54256" lon="5.85845">
        <ele>434.76</ele>
        <time>2019-04-20T08:54:35Z</time>
      </trkpt>
      <trkpt lat="43.54238" lon="5.85849">
        <ele>433.81</ele>
        <time>2019-04-20T08:54:38Z</time>
      </trkpt>
      <trkpt lat="43.54216" lon="5.85858">
        <ele>433.49</ele>
        <time>2019-04-20T08:54:41Z</time>
      </trkpt>
      <trkpt lat="43.54196" lon="5.85873">
        <ele>433.61</ele>
        <time>2019-04-20T08:54:45Z</time>
      </trkpt>
      <trkpt lat="43.54177" lon="5.8589">
        <ele>434.47</ele>
        <time>2019-04-20T08:54:48Z</time>
      </trkpt>
      <trkpt lat="43.54157" lon="5.85903">
        <ele>434.27</ele>
        <time>2019-04-20T08:54:51Z</time>
      </trkpt>
      <trkpt lat="43.54137" lon="5.85918">
        <ele>434.92</ele>
        <time>2019-04-20T08:54:54Z</time>
      </trkpt>
      <trkpt lat="43.54117" lon="5.85932">
        <ele>435.01</ele>
        <time>2019-04-20T08:54:57Z</time>
      </trkpt>
      <trkpt lat="43.54097" lon="5.85944">
        <ele>434.93</ele>
        <time>2019-04-20T08:55:01Z</time>
      </trkpt>
      <trkpt lat="43.54077" lon="5.8596">
        <ele>434.57</ele>
        <time>2019-04-20T08:55:05Z</time>
      </trkpt>
      <trkpt lat="43.54056" lon="5.85974">
        <ele>434</ele>
        <time>2019-04-20T08:55:10Z</time>
      </trkpt>
      <trkpt lat="43.54034" lon="5.85973">
        <ele>432.8</ele>
        <time>2019-04-20T08:55:15Z</time>
      </trkpt>
      <trkpt lat="43.54016" lon="5.85954">
        <ele>432.46</ele>
        <time>2019-04-20T08:55:19Z</time>
      </trkpt>
      <trkpt lat="43.53998" lon="5.85937">
        <ele>431.78</ele>
        <time>2019-04-20T08:55:24Z</time>
      </trkpt>
      <trkpt lat="43.53979" lon="5.85935">
        <ele>431.59</ele>
        <time>2019-04-20T08:55:28Z</time>
      </trkpt>
      <trkpt lat="43.53956" lon="5.85935">
        <ele>430.8</ele>
        <time>2019-04-20T08:55:32Z</time>
      </trkpt>
      <trkpt lat="43.53932" lon="5.85939">
        <ele>430.02</ele>
        <time>2019-04-20T08:55:36Z</time>
      </trkpt>
      <trkpt lat="43.53915" lon="5.85943">
        <ele>429.58</ele>
        <time>2019-04-20T08:55:40Z</time>
      </trkpt>
      <trkpt lat="43.53895" lon="5.85949">
        <ele>429.2</ele>
        <time>2019-04-20T08:55:44Z</time>
      </trkpt>
      <trkpt lat="43.53871" lon="5.85956">
        <ele>428.7</ele>
        <time>2019-04-20T08:55:48Z</time>
      </trkpt>
      <trkpt lat="43.53852" lon="5.8597">
        <ele>428.37</ele>
        <time>2019-04-20T08:55:51Z</time>
      </trkpt>
      <trkpt lat="43.53836" lon="5.85986">
        <ele>428.56</ele>
        <time>2019-04-20T08:55:55Z</time>
      </trkpt>
      <trkpt lat="43.53819" lon="5.85999">
        <ele>427.98</ele>
        <time>2019-04-20T08:55:58Z</time>
      </trkpt>
      <trkpt lat="43.53801" lon="5.86009">
        <ele>427.43</ele>
        <time>2019-04-20T08:56:01Z</time>
      </trkpt>
      <trkpt lat="43.53783" lon="5.8602">
        <ele>426.84</ele>
        <time>2019-04-20T08:56:05Z</time>
      </trkpt>
      <trkpt lat="43.53766" lon="5.86031">
        <ele>426.26</ele>
        <time>2019-04-20T08:56:08Z</time>
      </trkpt>
      <trkpt lat="43.53745" lon="5.86047">
        <ele>425.43</ele>
        <time>2019-04-20T08:56:12Z</time>
      </trkpt>
      <trkpt lat="43.53729" lon="5.8606">
        <ele>424.37</ele>
        <time>2019-04-20T08:56:15Z</time>
      </trkpt>
      <trkpt lat="43.53713" lon="5.86075">
        <ele>423.53</ele>
        <time>2019-04-20T08:56:18Z</time>
      </trkpt>
      <trkpt lat="43.53698" lon="5.86091">
        <ele>421.88</ele>
        <time>2019-04-20T08:56:21Z</time>
      </trkpt>
      <trkpt lat="43.53686" lon="5.86113">
        <ele>420.86</ele>
        <time>2019-04-20T08:56:24Z</time>
      </trkpt>
      <trkpt lat="43.53672" lon="5.86139">
        <ele>419.73</ele>
        <time>2019-04-20T08:56:27Z</time>
      </trkpt>
      <trkpt lat="43.53664" lon="5.86161">
        <ele>419.32</ele>
        <time>2019-04-20T08:56:30Z</time>
      </trkpt>
      <trkpt lat="43.53652" lon="5.86182">
        <ele>419.2</ele>
        <time>2019-04-20T08:56:33Z</time>
      </trkpt>
      <trkpt lat="43.53631" lon="5.8617">
        <ele>419.07</ele>
        <time>2019-04-20T08:56:36Z</time>
      </trkpt>
      <trkpt lat="43.53616" lon="5.86148">
        <ele>418.2</ele>
        <time>2019-04-20T08:56:39Z</time>
      </trkpt>
      <trkpt lat="43.53599" lon="5.86132">
        <ele>416.94</ele>
        <time>2019-04-20T08:56:42Z</time>
      </trkpt>
      <trkpt lat="43.5358" lon="5.86131">
        <ele>415.55</ele>
        <time>2019-04-20T08:56:46Z</time>
      </trkpt>
      <trkpt lat="43.53561" lon="5.86146">
        <ele>415.4</ele>
        <time>2019-04-20T09:00:49Z</time>
      </trkpt>
      <trkpt lat="43.53545" lon="5.86167">
        <ele>414.41</ele>
        <time>2019-04-20T09:00:55Z</time>
      </trkpt>
      <trkpt lat="43.53533" lon="5.86189">
        <ele>414.01</ele>
        <time>2019-04-20T09:01:03Z</time>
      </trkpt>
      <trkpt lat="43.53511" lon="5.86194">
        <ele>413.38</ele>
        <time>2019-04-20T09:01:09Z</time>
      </trkpt>
      <trkpt lat="43.53495" lon="5.86173">
        <ele>412.64</ele>
        <time>2019-04-20T09:01:13Z</time>
      </trkpt>
      <trkpt lat="43.53482" lon="5.86154">
        <ele>411.9</ele>
        <time>2019-04-20T09:01:17Z</time>
      </trkpt>
      <trkpt lat="43.53459" lon="5.86154">
        <ele>410.96</ele>
        <time>2019-04-20T09:01:21Z</time>
      </trkpt>
      <trkpt lat="43.53442" lon="5.86165">
        <ele>409.4</ele>
        <time>2019-04-20T09:01:24Z</time>
      </trkpt>
      <trkpt lat="43.53426" lon="5.86182">
        <ele>408.26</ele>
        <time>2019-04-20T09:01:27Z</time>
      </trkpt>
      <trkpt lat="43.53404" lon="5.86195">
        <ele>406.43</ele>
        <time>2019-04-20T09:01:31Z</time>
      </trkpt>
      <trkpt lat="43.53387" lon="5.86205">
        <ele>405.44</ele>
        <time>2019-04-20T09:01:35Z</time>
      </trkpt>
      <trkpt lat="43.53365" lon="5.8621">
        <ele>404.93</ele>
        <time>2019-04-20T09:01:38Z</time>
      </trkpt>
      <trkpt lat="43.53347" lon="5.86201">
        <ele>404.79</ele>
        <time>2019-04-20T09:01:41Z</time>
      </trkpt>
      <trkpt lat="43.53333" lon="5.86185">
        <ele>404.63</ele>
        <time>2019-04-20T09:01:44Z</time>
      </trkpt>
      <trkpt lat="43.53316" lon="5.86172">
        <ele>404.76</ele>
        <time>2019-04-20T09:01:47Z</time>
      </trkpt>
      <trkpt lat="43.53301" lon="5.86156">
        <ele>404.77</ele>
        <time>2019-04-20T09:01:50Z</time>
      </trkpt>
      <trkpt lat="43.53284" lon="5.86145">
        <ele>404.75</ele>
        <time>2019-04-20T09:01:53Z</time>
      </trkpt>
      <trkpt lat="43.53267" lon="5.86129">
        <ele>404.33</ele>
        <time>2019-04-20T09:01:56Z</time>
      </trkpt>
      <trkpt lat="43.53253" lon="5.86112">
        <ele>403.72</ele>
        <time>2019-04-20T09:01:59Z</time>
      </trkpt>
      <trkpt lat="43.53235" lon="5.86104">
        <ele>403.05</ele>
        <time>2019-04-20T09:02:02Z</time>
      </trkpt>
      <trkpt lat="43.53219" lon="5.8609">
        <ele>402.24</ele>
        <time>2019-04-20T09:02:05Z</time>
      </trkpt>
      <trkpt lat="43.53203" lon="5.86077">
        <ele>401.35</ele>
        <time>2019-04-20T09:02:08Z</time>
      </trkpt>
      <trkpt lat="43.53188" lon="5.86057">
        <ele>400.95</ele>
        <time>2019-04-20T09:02:11Z</time>
      </trkpt>
      <trkpt lat="43.53169" lon="5.86063">
        <ele>403.26</ele>
        <time>2019-04-20T09:02:14Z</time>
      </trkpt>
      <trkpt lat="43.53152" lon="5.86074">
        <ele>403.76</ele>
        <time>2019-04-20T09:02:17Z</time>
      </trkpt>
      <trkpt lat="43.53132" lon="5.86082">
        <ele>403.75</ele>
        <time>2019-04-20T09:02:21Z</time>
      </trkpt>
      <trkpt lat="43.53114" lon="5.8609">
        <ele>403.79</ele>
        <time>2019-04-20T09:02:24Z</time>
      </trkpt>
      <trkpt lat="43.531" lon="5.86108">
        <ele>402.64</ele>
        <time>2019-04-20T09:02:27Z</time>
      </trkpt>
      <trkpt lat="43.53087" lon="5.86129">
        <ele>401.8</ele>
        <time>2019-04-20T09:02:30Z</time>
      </trkpt>
      <trkpt lat="43.53072" lon="5.86151">
        <ele>399.76</ele>
        <time>2019-04-20T09:02:33Z</time>
      </trkpt>
      <trkpt lat="43.53057" lon="5.86166">
        <ele>398.57</ele>
        <time>2019-04-20T09:02:36Z</time>
      </trkpt>
      <trkpt lat="43.5304" lon="5.86176">
        <ele>397.64</ele>
        <time>2019-04-20T09:02:40Z</time>
      </trkpt>
      <trkpt lat="43.53019" lon="5.86188">
        <ele>395.56</ele>
        <time>2019-04-20T09:02:43Z</time>
      </trkpt>
      <trkpt lat="43.53001" lon="5.86205">
        <ele>393.71</ele>
        <time>2019-04-20T09:02:46Z</time>
      </trkpt>
      <trkpt lat="43.52996" lon="5.8623">
        <ele>392.09</ele>
        <time>2019-04-20T09:02:49Z</time>
      </trkpt>
      <trkpt lat="43.52992" lon="5.86257">
        <ele>390.51</ele>
        <time>2019-04-20T09:02:52Z</time>
      </trkpt>
      <trkpt lat="43.52988" lon="5.86286">
        <ele>389.18</ele>
        <time>2019-04-20T09:02:55Z</time>
      </trkpt>
      <trkpt lat="43.52982" lon="5.86315">
        <ele>387.42</ele>
        <time>2019-04-20T09:02:58Z</time>
      </trkpt>
      <trkpt lat="43.52972" lon="5.86337">
        <ele>386.24</ele>
        <time>2019-04-20T09:03:01Z</time>
      </trkpt>
      <trkpt lat="43.52958" lon="5.86356">
        <ele>385.71</ele>
        <time>2019-04-20T09:03:04Z</time>
      </trkpt>
      <trkpt lat="43.52941" lon="5.8637">
        <ele>384.68</ele>
        <time>2019-04-20T09:03:07Z</time>
      </trkpt>
      <trkpt lat="43.52924" lon="5.86384">
        <ele>382.82</ele>
        <time>2019-04-20T09:03:10Z</time>
      </trkpt>
      <trkpt lat="43.52907" lon="5.86398">
        <ele>381.47</ele>
        <time>2019-04-20T09:03:13Z</time>
      </trkpt>
      <trkpt lat="43.52892" lon="5.86416">
        <ele>380.45</ele>
        <time>2019-04-20T09:03:16Z</time>
      </trkpt>
      <trkpt lat="43.52876" lon="5.86433">
        <ele>379</ele>
        <time>2019-04-20T09:03:19Z</time>
      </trkpt>
      <trkpt lat="43.52862" lon="5.8645">
        <ele>377.51</ele>
        <time>2019-04-20T09:03:22Z</time>
      </trkpt>
      <trkpt lat="43.52846" lon="5.86465">
        <ele>375.99</ele>
        <time>2019-04-20T09:03:25Z</time>
      </trkpt>
      <trkpt lat="43.52828" lon="5.8648">
        <ele>374.3</ele>
        <time>2019-04-20T09:03:28Z</time>
      </trkpt>
      <trkpt lat="43.52811" lon="5.865">
        <ele>371.82</ele>
        <time>2019-04-20T09:03:31Z</time>
      </trkpt>
      <trkpt lat="43.52803" lon="5.86525">
        <ele>370.02</ele>
        <time>2019-04-20T09:03:34Z</time>
      </trkpt>
      <trkpt lat="43.52801" lon="5.86554">
        <ele>368.38</ele>
        <time>2019-04-20T09:03:38Z</time>
      </trkpt>
      <trkpt lat="43.52807" lon="5.86582">
        <ele>366.99</ele>
        <time>2019-04-20T09:03:42Z</time>
      </trkpt>
      <trkpt lat="43.5282" lon="5.86611">
        <ele>366.81</ele>
        <time>2019-04-20T09:03:45Z</time>
      </trkpt>
      <trkpt lat="43.5283" lon="5.86637">
        <ele>366.07</ele>
        <time>2019-04-20T09:03:48Z</time>
      </trkpt>
      <trkpt lat="43.52822" lon="5.86665">
        <ele>364.25</ele>
        <time>2019-04-20T09:03:51Z</time>
      </trkpt>
      <trkpt lat="43.5281" lon="5.86686">
        <ele>362.89</ele>
        <time>2019-04-20T09:03:55Z</time>
      </trkpt>
      <trkpt lat="43.52795" lon="5.86703">
        <ele>361.39</ele>
        <time>2019-04-20T09:03:58Z</time>
      </trkpt>
      <trkpt lat="43.52777" lon="5.86723">
        <ele>359.97</ele>
        <time>2019-04-20T09:04:01Z</time>
      </trkpt>
      <trkpt lat="43.52761" lon="5.8674">
        <ele>358.95</ele>
        <time>2019-04-20T09:04:04Z</time>
      </trkpt>
      <trkpt lat="43.52749" lon="5.8676">
        <ele>357.87</ele>
        <time>2019-04-20T09:04:07Z</time>
      </trkpt>
      <trkpt lat="43.52735" lon="5.86777">
        <ele>356.77</ele>
        <time>2019-04-20T09:04:10Z</time>
      </trkpt>
      <trkpt lat="43.52724" lon="5.86798">
        <ele>355.59</ele>
        <time>2019-04-20T09:04:13Z</time>
      </trkpt>
      <trkpt lat="43.52714" lon="5.86822">
        <ele>354.71</ele>
        <time>2019-04-20T09:04:16Z</time>
      </trkpt>
      <trkpt lat="43.5272" lon="5.86855">
        <ele>354.03</ele>
        <time>2019-04-20T09:04:19Z</time>
      </trkpt>
      <trkpt lat="43.52728" lon="5.86883">
        <ele>353.76</ele>
        <time>2019-04-20T09:04:23Z</time>
      </trkpt>
      <trkpt lat="43.52738" lon="5.86908">
        <ele>353.72</ele>
        <time>2019-04-20T09:04:26Z</time>
      </trkpt>
      <trkpt lat="43.52747" lon="5.86934">
        <ele>353.3</ele>
        <time>2019-04-20T09:04:31Z</time>
      </trkpt>
      <trkpt lat="43.52755" lon="5.86961">
        <ele>353.06</ele>
        <time>2019-04-20T09:04:34Z</time>
      </trkpt>
      <trkpt lat="43.5276" lon="5.86989">
        <ele>352.94</ele>
        <time>2019-04-20T09:04:37Z</time>
      </trkpt>
      <trkpt lat="43.52757" lon="5.87016">
        <ele>352.17</ele>
        <time>2019-04-20T09:04:40Z</time>
      </trkpt>
      <trkpt lat="43.52746" lon="5.8704">
        <ele>350.69</ele>
        <time>2019-04-20T09:04:43Z</time>
      </trkpt>
      <trkpt lat="43.52732" lon="5.8706">
        <ele>349.29</ele>
        <time>2019-04-20T09:04:47Z</time>
      </trkpt>
      <trkpt lat="43.52716" lon="5.87074">
        <ele>348.26</ele>
        <time>2019-04-20T09:04:50Z</time>
      </trkpt>
      <trkpt lat="43.52705" lon="5.87104">
        <ele>346.39</ele>
        <time>2019-04-20T09:04:52Z</time>
      </trkpt>
      <trkpt lat="43.52698" lon="5.87132">
        <ele>346.19</ele>
        <time>2019-04-20T09:04:55Z</time>
      </trkpt>
      <trkpt lat="43.52704" lon="5.87161">
        <ele>346.07</ele>
        <time>2019-04-20T09:04:58Z</time>
      </trkpt>
      <trkpt lat="43.5271" lon="5.87189">
        <ele>345.71</ele>
        <time>2019-04-20T09:05:01Z</time>
      </trkpt>
      <trkpt lat="43.52714" lon="5.87215">
        <ele>345.1</ele>
        <time>2019-04-20T09:05:04Z</time>
      </trkpt>
      <trkpt lat="43.52709" lon="5.87246">
        <ele>343.94</ele>
        <time>2019-04-20T09:05:07Z</time>
      </trkpt>
      <trkpt lat="43.52699" lon="5.8727">
        <ele>342.87</ele>
        <time>2019-04-20T09:05:10Z</time>
      </trkpt>
      <trkpt lat="43.52685" lon="5.87293">
        <ele>341.57</ele>
        <time>2019-04-20T09:05:13Z</time>
      </trkpt>
      <trkpt lat="43.52669" lon="5.87315">
        <ele>340.63</ele>
        <time>2019-04-20T09:05:16Z</time>
      </trkpt>
      <trkpt lat="43.52647" lon="5.87331">
        <ele>342.02</ele>
        <time>2019-04-20T09:05:19Z</time>
      </trkpt>
      <trkpt lat="43.5263" lon="5.87351">
        <ele>342.07</ele>
        <time>2019-04-20T09:05:22Z</time>
      </trkpt>
      <trkpt lat="43.52618" lon="5.87372">
        <ele>341.84</ele>
        <time>2019-04-20T09:05:25Z</time>
      </trkpt>
      <trkpt lat="43.52621" lon="5.87398">
        <ele>341.93</ele>
        <time>2019-04-20T09:05:28Z</time>
      </trkpt>
      <trkpt lat="43.52635" lon="5.8742">
        <ele>342.74</ele>
        <time>2019-04-20T09:05:31Z</time>
      </trkpt>
      <trkpt lat="43.52643" lon="5.87446">
        <ele>342.43</ele>
        <time>2019-04-20T09:05:35Z</time>
      </trkpt>
      <trkpt lat="43.52634" lon="5.87468">
        <ele>341.45</ele>
        <time>2019-04-20T09:05:39Z</time>
      </trkpt>
      <trkpt lat="43.52612" lon="5.87478">
        <ele>340.43</ele>
        <time>2019-04-20T09:05:42Z</time>
      </trkpt>
      <trkpt lat="43.52591" lon="5.87485">
        <ele>339.54</ele>
        <time>2019-04-20T09:05:45Z</time>
      </trkpt>
      <trkpt lat="43.5257" lon="5.87498">
        <ele>338.38</ele>
        <time>2019-04-20T09:05:48Z</time>
      </trkpt>
      <trkpt lat="43.52547" lon="5.87513">
        <ele>337.09</ele>
        <time>2019-04-20T09:05:51Z</time>
      </trkpt>
      <trkpt lat="43.52527" lon="5.87525">
        <ele>335.51</ele>
        <time>2019-04-20T09:05:54Z</time>
      </trkpt>
      <trkpt lat="43.52516" lon="5.8755">
        <ele>333.83</ele>
        <time>2019-04-20T09:05:57Z</time>
      </trkpt>
      <trkpt lat="43.52523" lon="5.8758">
        <ele>332.86</ele>
        <time>2019-04-20T09:06:00Z</time>
      </trkpt>
      <trkpt lat="43.52531" lon="5.87605">
        <ele>332.15</ele>
        <time>2019-04-20T09:06:03Z</time>
      </trkpt>
      <trkpt lat="43.52541" lon="5.87636">
        <ele>330.79</ele>
        <time>2019-04-20T09:06:06Z</time>
      </trkpt>
      <trkpt lat="43.5255" lon="5.87665">
        <ele>329.57</ele>
        <time>2019-04-20T09:06:09Z</time>
      </trkpt>
      <trkpt lat="43.52559" lon="5.87689">
        <ele>328.92</ele>
        <time>2019-04-20T09:06:12Z</time>
      </trkpt>
      <trkpt lat="43.52565" lon="5.87714">
        <ele>328.59</ele>
        <time>2019-04-20T09:06:15Z</time>
      </trkpt>
      <trkpt lat="43.52567" lon="5.87741">
        <ele>328.34</ele>
        <time>2019-04-20T09:06:18Z</time>
      </trkpt>
      <trkpt lat="43.52563" lon="5.87767">
        <ele>327.87</ele>
        <time>2019-04-20T09:06:21Z</time>
      </trkpt>
      <trkpt lat="43.52555" lon="5.87794">
        <ele>327.36</ele>
        <time>2019-04-20T09:06:24Z</time>
      </trkpt>
      <trkpt lat="43.52552" lon="5.8782">
        <ele>327.01</ele>
        <time>2019-04-20T09:06:27Z</time>
      </trkpt>
      <trkpt lat="43.52557" lon="5.87844">
        <ele>326.14</ele>
        <time>2019-04-20T09:06:30Z</time>
      </trkpt>
      <trkpt lat="43.52559" lon="5.87869">
        <ele>325.23</ele>
        <time>2019-04-20T09:06:33Z</time>
      </trkpt>
      <trkpt lat="43.52551" lon="5.87893">
        <ele>324.16</ele>
        <time>2019-04-20T09:06:36Z</time>
      </trkpt>
      <trkpt lat="43.52538" lon="5.87916">
        <ele>322.69</ele>
        <time>2019-04-20T09:06:39Z</time>
      </trkpt>
      <trkpt lat="43.52524" lon="5.87937">
        <ele>322.4</ele>
        <time>2019-04-20T09:06:42Z</time>
      </trkpt>
      <trkpt lat="43.52502" lon="5.87947">
        <ele>321.32</ele>
        <time>2019-04-20T09:06:45Z</time>
      </trkpt>
      <trkpt lat="43.52482" lon="5.87929">
        <ele>320.9</ele>
        <time>2019-04-20T09:06:48Z</time>
      </trkpt>
      <trkpt lat="43.52466" lon="5.87909">
        <ele>319.86</ele>
        <time>2019-04-20T09:06:51Z</time>
      </trkpt>
      <trkpt lat="43.52448" lon="5.87902">
        <ele>319.22</ele>
        <time>2019-04-20T09:06:54Z</time>
      </trkpt>
      <trkpt lat="43.52428" lon="5.879">
        <ele>318.52</ele>
        <time>2019-04-20T09:06:57Z</time>
      </trkpt>
      <trkpt lat="43.52411" lon="5.87912">
        <ele>317.58</ele>
        <time>2019-04-20T09:07:00Z</time>
      </trkpt>
      <trkpt lat="43.52404" lon="5.87939">
        <ele>316.55</ele>
        <time>2019-04-20T09:07:03Z</time>
      </trkpt>
      <trkpt lat="43.52404" lon="5.87975">
        <ele>316.19</ele>
        <time>2019-04-20T09:07:06Z</time>
      </trkpt>
      <trkpt lat="43.52408" lon="5.88006">
        <ele>316.13</ele>
        <time>2019-04-20T09:07:09Z</time>
      </trkpt>
      <trkpt lat="43.52407" lon="5.88034">
        <ele>316.19</ele>
        <time>2019-04-20T09:07:12Z</time>
      </trkpt>
      <trkpt lat="43.52393" lon="5.88051">
        <ele>316.66</ele>
        <time>2019-04-20T09:07:15Z</time>
      </trkpt>
      <trkpt lat="43.52375" lon="5.88049">
        <ele>316.75</ele>
        <time>2019-04-20T09:07:19Z</time>
      </trkpt>
      <trkpt lat="43.52354" lon="5.88041">
        <ele>316.39</ele>
        <time>2019-04-20T09:07:22Z</time>
      </trkpt>
      <trkpt lat="43.52333" lon="5.88029">
        <ele>316.21</ele>
        <time>2019-04-20T09:07:25Z</time>
      </trkpt>
      <trkpt lat="43.52312" lon="5.88016">
        <ele>315.98</ele>
        <time>2019-04-20T09:07:28Z</time>
      </trkpt>
      <trkpt lat="43.52288" lon="5.88012">
        <ele>315.79</ele>
        <time>2019-04-20T09:07:31Z</time>
      </trkpt>
      <trkpt lat="43.52266" lon="5.88014">
        <ele>315.41</ele>
        <time>2019-04-20T09:07:34Z</time>
      </trkpt>
      <trkpt lat="43.52246" lon="5.88024">
        <ele>314.82</ele>
        <time>2019-04-20T09:07:37Z</time>
      </trkpt>
      <trkpt lat="43.52236" lon="5.88048">
        <ele>313.94</ele>
        <time>2019-04-20T09:07:40Z</time>
      </trkpt>
      <trkpt lat="43.52232" lon="5.88081">
        <ele>313.64</ele>
        <time>2019-04-20T09:07:43Z</time>
      </trkpt>
      <trkpt lat="43.52226" lon="5.88113">
        <ele>313.68</ele>
        <time>2019-04-20T09:07:46Z</time>
      </trkpt>
      <trkpt lat="43.52217" lon="5.88139">
        <ele>313.47</ele>
        <time>2019-04-20T09:07:49Z</time>
      </trkpt>
      <trkpt lat="43.52203" lon="5.8816">
        <ele>314.03</ele>
        <time>2019-04-20T09:07:52Z</time>
      </trkpt>
      <trkpt lat="43.52184" lon="5.88169">
        <ele>313.69</ele>
        <time>2019-04-20T09:07:55Z</time>
      </trkpt>
      <trkpt lat="43.52165" lon="5.88172">
        <ele>314.14</ele>
        <time>2019-04-20T09:08:00Z</time>
      </trkpt>
      <trkpt lat="43.52147" lon="5.88161">
        <ele>314.46</ele>
        <time>2019-04-20T09:08:03Z</time>
      </trkpt>
      <trkpt lat="43.52127" lon="5.88153">
        <ele>314.92</ele>
        <time>2019-04-20T09:08:06Z</time>
      </trkpt>
      <trkpt lat="43.52106" lon="5.88155">
        <ele>315.06</ele>
        <time>2019-04-20T09:08:10Z</time>
      </trkpt>
      <trkpt lat="43.52084" lon="5.88165">
        <ele>315.07</ele>
        <time>2019-04-20T09:08:14Z</time>
      </trkpt>
      <trkpt lat="43.52065" lon="5.88178">
        <ele>315.07</ele>
        <time>2019-04-20T09:08:17Z</time>
      </trkpt>
      <trkpt lat="43.52051" lon="5.88198">
        <ele>315.25</ele>
        <time>2019-04-20T09:08:20Z</time>
      </trkpt>
      <trkpt lat="43.52034" lon="5.88212">
        <ele>315.27</ele>
        <time>2019-04-20T09:08:24Z</time>
      </trkpt>
      <trkpt lat="43.52013" lon="5.88219">
        <ele>315.17</ele>
        <time>2019-04-20T09:08:28Z</time>
      </trkpt>
      <trkpt lat="43.51992" lon="5.88226">
        <ele>314.99</ele>
        <time>2019-04-20T09:08:31Z</time>
      </trkpt>
      <trkpt lat="43.51973" lon="5.88216">
        <ele>316.11</ele>
        <time>2019-04-20T09:08:34Z</time>
      </trkpt>
      <trkpt lat="43.51957" lon="5.88199">
        <ele>316.35</ele>
        <time>2019-04-20T09:08:37Z</time>
      </trkpt>
      <trkpt lat="43.51939" lon="5.88189">
        <ele>316.19</ele>
        <time>2019-04-20T09:08:41Z</time>
      </trkpt>
      <trkpt lat="43.5192" lon="5.88192">
        <ele>316.25</ele>
        <time>2019-04-20T09:08:45Z</time>
      </trkpt>
      <trkpt lat="43.51902" lon="5.88196">
        <ele>316.37</ele>
        <time>2019-04-20T09:08:48Z</time>
      </trkpt>
      <trkpt lat="43.51882" lon="5.88198">
        <ele>316.09</ele>
        <time>2019-04-20T09:08:51Z</time>
      </trkpt>
      <trkpt lat="43.51861" lon="5.88199">
        <ele>315.79</ele>
        <time>2019-04-20T09:08:54Z</time>
      </trkpt>
      <trkpt lat="43.51838" lon="5.88203">
        <ele>315.49</ele>
        <time>2019-04-20T09:08:58Z</time>
      </trkpt>
      <trkpt lat="43.51818" lon="5.88213">
        <ele>315.27</ele>
        <time>2019-04-20T09:09:02Z</time>
      </trkpt>
      <trkpt lat="43.51798" lon="5.88228">
        <ele>315</ele>
        <time>2019-04-20T09:09:05Z</time>
      </trkpt>
      <trkpt lat="43.5178" lon="5.88247">
        <ele>313.91</ele>
        <time>2019-04-20T09:09:08Z</time>
      </trkpt>
      <trkpt lat="43.51767" lon="5.88271">
        <ele>312.19</ele>
        <time>2019-04-20T09:09:11Z</time>
      </trkpt>
      <trkpt lat="43.51755" lon="5.88295">
        <ele>311.15</ele>
        <time>2019-04-20T09:09:14Z</time>
      </trkpt>
      <trkpt lat="43.51734" lon="5.88297">
        <ele>310.24</ele>
        <time>2019-04-20T09:09:17Z</time>
      </trkpt>
      <trkpt lat="43.51718" lon="5.8828">
        <ele>309.72</ele>
        <time>2019-04-20T09:09:20Z</time>
      </trkpt>
      <trkpt lat="43.51701" lon="5.88266">
        <ele>309.02</ele>
        <time>2019-04-20T09:09:23Z</time>
      </trkpt>
      <trkpt lat="43.51679" lon="5.88275">
        <ele>308.22</ele>
        <time>2019-04-20T09:09:26Z</time>
      </trkpt>
      <trkpt lat="43.51664" lon="5.88296">
        <ele>306.3</ele>
        <time>2019-04-20T09:09:30Z</time>
      </trkpt>
      <trkpt lat="43.51653" lon="5.88319">
        <ele>304.77</ele>
        <time>2019-04-20T09:09:33Z</time>
      </trkpt>
      <trkpt lat="43.51638" lon="5.88339">
        <ele>303.55</ele>
        <time>2019-04-20T09:09:37Z</time>
      </trkpt>
      <trkpt lat="43.51617" lon="5.88348">
        <ele>302.52</ele>
        <time>2019-04-20T09:09:40Z</time>
      </trkpt>
      <trkpt lat="43.51598" lon="5.88328">
        <ele>301.91</ele>
        <time>2019-04-20T09:09:48Z</time>
      </trkpt>
      <trkpt lat="43.51585" lon="5.88304">
        <ele>301.24</ele>
        <time>2019-04-20T09:09:51Z</time>
      </trkpt>
      <trkpt lat="43.51573" lon="5.8828">
        <ele>300.26</ele>
        <time>2019-04-20T09:09:54Z</time>
      </trkpt>
      <trkpt lat="43.5156" lon="5.88262">
        <ele>299.17</ele>
        <time>2019-04-20T09:10:03Z</time>
      </trkpt>
      <trkpt lat="43.51535" lon="5.88262">
        <ele>298.59</ele>
        <time>2019-04-20T09:10:07Z</time>
      </trkpt>
      <trkpt lat="43.51516" lon="5.88283">
        <ele>298.1</ele>
        <time>2019-04-20T09:10:11Z</time>
      </trkpt>
      <trkpt lat="43.515" lon="5.88298">
        <ele>297.7</ele>
        <time>2019-04-20T09:10:15Z</time>
      </trkpt>
      <trkpt lat="43.51488" lon="5.88318">
        <ele>296.88</ele>
        <time>2019-04-20T09:10:18Z</time>
      </trkpt>
      <trkpt lat="43.51476" lon="5.88336">
        <ele>296.12</ele>
        <time>2019-04-20T09:10:21Z</time>
      </trkpt>
      <trkpt lat="43.51457" lon="5.88356">
        <ele>295.38</ele>
        <time>2019-04-20T09:10:24Z</time>
      </trkpt>
      <trkpt lat="43.51435" lon="5.88361">
        <ele>294.7</ele>
        <time>2019-04-20T09:10:28Z</time>
      </trkpt>
      <trkpt lat="43.51417" lon="5.88348">
        <ele>294.12</ele>
        <time>2019-04-20T09:10:32Z</time>
      </trkpt>
      <trkpt lat="43.51402" lon="5.88329">
        <ele>293.61</ele>
        <time>2019-04-20T09:10:36Z</time>
      </trkpt>
      <trkpt lat="43.51386" lon="5.8831">
        <ele>292.94</ele>
        <time>2019-04-20T09:10:39Z</time>
      </trkpt>
      <trkpt lat="43.51371" lon="5.88296">
        <ele>292.14</ele>
        <time>2019-04-20T09:10:42Z</time>
      </trkpt>
      <trkpt lat="43.51352" lon="5.8829">
        <ele>291.5</ele>
        <time>2019-04-20T09:10:45Z</time>
      </trkpt>
      <trkpt lat="43.51333" lon="5.88289">
        <ele>291.09</ele>
        <time>2019-04-20T09:10:48Z</time>
      </trkpt>
      <trkpt lat="43.51314" lon="5.88297">
        <ele>290.79</ele>
        <time>2019-04-20T09:10:51Z</time>
      </trkpt>
      <trkpt lat="43.51298" lon="5.88311">
        <ele>290.31</ele>
        <time>2019-04-20T09:10:54Z</time>
      </trkpt>
      <trkpt lat="43.51287" lon="5.88341">
        <ele>288.69</ele>
        <time>2019-04-20T09:10:57Z</time>
      </trkpt>
      <trkpt lat="43.51283" lon="5.88366">
        <ele>287.74</ele>
        <time>2019-04-20T09:11:00Z</time>
      </trkpt>
      <trkpt lat="43.51274" lon="5.88396">
        <ele>286.61</ele>
        <time>2019-04-20T09:11:03Z</time>
      </trkpt>
      <trkpt lat="43.51263" lon="5.88416">
        <ele>286.84</ele>
        <time>2019-04-20T09:11:07Z</time>
      </trkpt>
      <trkpt lat="43.51249" lon="5.88432">
        <ele>345.4</ele>
        <time>2019-04-20T09:11:10Z</time>
      </trkpt>
      <trkpt lat="43.51229" lon="5.88421">
        <ele>285.75</ele>
        <time>2019-04-20T09:11:13Z</time>
      </trkpt>
      <trkpt lat="43.51208" lon="5.88409">
        <ele>284.76</ele>
        <time>2019-04-20T09:11:16Z</time>
      </trkpt>
      <trkpt lat="43.51187" lon="5.88417">
        <ele>284.2</ele>
        <time>2019-04-20T09:11:19Z</time>
      </trkpt>
      <trkpt lat="43.51173" lon="5.88422">
        <ele>341.2</ele>
        <time>2019-04-20T09:11:22Z</time>
      </trkpt>
      <trkpt lat="43.51161" lon="5.88406">
        <ele>282.14</ele>
        <time>2019-04-20T09:11:25Z</time>
      </trkpt>
      <trkpt lat="43.51159" lon="5.88374">
        <ele>281.58</ele>
        <time>2019-04-20T09:11:28Z</time>
      </trkpt>
      <trkpt lat="43.51154" lon="5.88345">
        <ele>281.17</ele>
        <time>2019-04-20T09:11:31Z</time>
      </trkpt>
      <trkpt lat="43.51136" lon="5.88328">
        <ele>280.02</ele>
        <time>2019-04-20T09:11:34Z</time>
      </trkpt>
      <trkpt lat="43.51117" lon="5.88329">
        <ele>279.68</ele>
        <time>2019-04-20T09:11:37Z</time>
      </trkpt>
      <trkpt lat="43.51097" lon="5.88335">
        <ele>279.57</ele>
        <time>2019-04-20T09:11:40Z</time>
      </trkpt>
      <trkpt lat="43.51078" lon="5.88343">
        <ele>279.39</ele>
        <time>2019-04-20T09:11:43Z</time>
      </trkpt>
      <trkpt lat="43.51055" lon="5.88345">
        <ele>279.37</ele>
        <time>2019-04-20T09:11:46Z</time>
      </trkpt>
      <trkpt lat="43.51032" lon="5.88349">
        <ele>279.27</ele>
        <time>2019-04-20T09:11:49Z</time>
      </trkpt>
      <trkpt lat="43.51008" lon="5.88352">
        <ele>280.02</ele>
        <time>2019-04-20T09:11:52Z</time>
      </trkpt>
      <trkpt lat="43.50987" lon="5.88357">
        <ele>280.41</ele>
        <time>2019-04-20T09:11:55Z</time>
      </trkpt>
      <trkpt lat="43.50967" lon="5.88367">
        <ele>280.56</ele>
        <time>2019-04-20T09:11:58Z</time>
      </trkpt>
      <trkpt lat="43.50949" lon="5.88379">
        <ele>280.47</ele>
        <time>2019-04-20T09:12:01Z</time>
      </trkpt>
      <trkpt lat="43.50932" lon="5.8839">
        <ele>280.39</ele>
        <time>2019-04-20T09:12:04Z</time>
      </trkpt>
      <trkpt lat="43.50912" lon="5.88396">
        <ele>279.9</ele>
        <time>2019-04-20T09:12:07Z</time>
      </trkpt>
      <trkpt lat="43.50891" lon="5.884">
        <ele>279.69</ele>
        <time>2019-04-20T09:12:10Z</time>
      </trkpt>
      <trkpt lat="43.50871" lon="5.88405">
        <ele>279.75</ele>
        <time>2019-04-20T09:12:13Z</time>
      </trkpt>
      <trkpt lat="43.50851" lon="5.88411">
        <ele>279.85</ele>
        <time>2019-04-20T09:12:16Z</time>
      </trkpt>
      <trkpt lat="43.50833" lon="5.88411">
        <ele>278.93</ele>
        <time>2019-04-20T09:12:19Z</time>
      </trkpt>
      <trkpt lat="43.50818" lon="5.88391">
        <ele>277.34</ele>
        <time>2019-04-20T09:12:22Z</time>
      </trkpt>
      <trkpt lat="43.50821" lon="5.88362">
        <ele>275.84</ele>
        <time>2019-04-20T09:12:25Z</time>
      </trkpt>
      <trkpt lat="43.50821" lon="5.88333">
        <ele>275.2</ele>
        <time>2019-04-20T09:12:28Z</time>
      </trkpt>
      <trkpt lat="43.50812" lon="5.8831">
        <ele>275.1</ele>
        <time>2019-04-20T09:12:32Z</time>
      </trkpt>
      <trkpt lat="43.50794" lon="5.88297">
        <ele>274.36</ele>
        <time>2019-04-20T09:12:37Z</time>
      </trkpt>
      <trkpt lat="43.50772" lon="5.88294">
        <ele>273.62</ele>
      </trkpt>
      <trkpt lat="43.50749" lon="5.88304">
        <ele>273.1</ele>
      </trkpt>
      <trkpt lat="43.50729" lon="5.88316">
        <ele>272.7</ele>
      </trkpt>
      <trkpt lat="43.50719" lon="5.8834">
        <ele>270.9</ele>
      </trkpt>
      <trkpt lat="43.50707" lon="5.88364">
        <ele>269.49</ele>
      </trkpt>
      <trkpt lat="43.50692" lon="5.88389">
        <ele>268.64</ele>
      </trkpt>
      <trkpt lat="43.50682" lon="5.88414">
        <ele>267.35</ele>
      </trkpt>
      <trkpt lat="43.50669" lon="5.88432">
        <ele>265.51</ele>
      </trkpt>
      <trkpt lat="43.5065" lon="5.8844">
        <ele>264.17</ele>
      </trkpt>
      <trkpt lat="43.50631" lon="5.88452">
        <ele>263.33</ele>
      </trkpt>
      <trkpt lat="43.50612" lon="5.88458">
        <ele>262.44</ele>
      </trkpt>
      <trkpt lat="43.50593" lon="5.88459">
        <ele>261.38</ele>
      </trkpt>
      <trkpt lat="43.50572" lon="5.88475">
        <ele>260.02</ele>
      </trkpt>
      <trkpt lat="43.50556" lon="5.88499">
        <ele>258.46</ele>
      </trkpt>
      <trkpt lat="43.5054" lon="5.88525">
        <ele>257.24</ele>
      </trkpt>
      <trkpt lat="43.50523" lon="5.88548">
        <ele>255.91</ele>
      </trkpt>
      <trkpt lat="43.50502" lon="5.88564">
        <ele>255.01</ele>
      </trkpt>
      <trkpt lat="43.50482" lon="5.88578">
        <ele>254.5</ele>
      </trkpt>
      <trkpt lat="43.50461" lon="5.88591">
        <ele>254.11</ele>
      </trkpt>
      <trkpt lat="43.50441" lon="5.88607">
        <ele>253.34</ele>
      </trkpt>
      <trkpt lat="43.5042" lon="5.88621">
        <ele>252.74</ele>
      </trkpt>
      <trkpt lat="43.50401" lon="5.88633">
        <ele>251.87</ele>
      </trkpt>
      <trkpt lat="43.50384" lon="5.88646">
        <ele>251.05</ele>
      </trkpt>
      <trkpt lat="43.50366" lon="5.88666">
        <ele>250.73</ele>
      </trkpt>
      <trkpt lat="43.50359" lon="5.88693">
        <ele>249.45</ele>
      </trkpt>
    </trkseg>
  </trk>
</gpx>